<?xml version="1.0" encoding="UTF-8" standalone="no" ?>
<gpx xmlns="http://www.topografix.com/GPX/1/1" xmlns:xsi="http://www.w3.org/2001/XMLSchema-instance" xsi:schemaLocation="http://www.topografix.com/GPX/1/1 http://www.topografix.com/GPX/1/1/gpx.xsd" version="1.1" creator="VisuGPX - https://www.visugpx.com">
  <metadata>
    <name>Rando groupe - Abri de Chatillon 1er jour</name>
    <desc><![CDATA[Belle rando avec un beau dénivelé. Journée chaude, vue très dégagée depuis le Dôme et vraiment superbe. Abri de Châtillon toujours aussi sympa. La source de la baume était pleine.]]></desc>
  </metadata>
  <trk>
    <name><![CDATA[10-JUIN-17 16:10:16]]></name>
    <trkseg>
      <trkpt lat="44.74561" lon="5.43284">
        <ele>573.56</ele>
        <time>2017-06-10T08:20:32Z</time>
      </trkpt>
      <trkpt lat="44.7456" lon="5.43285">
        <ele>573.56</ele>
        <time>2017-06-10T08:20:33Z</time>
      </trkpt>
      <trkpt lat="44.74539" lon="5.43313">
        <ele>574.04</ele>
        <time>2017-06-10T08:20:58Z</time>
      </trkpt>
      <trkpt lat="44.74537" lon="5.43307">
        <ele>574.53</ele>
        <time>2017-06-10T08:21:12Z</time>
      </trkpt>
      <trkpt lat="44.74536" lon="5.43309">
        <ele>575.97</ele>
        <time>2017-06-10T08:21:19Z</time>
      </trkpt>
      <trkpt lat="44.74536" lon="5.43344">
        <ele>578.37</ele>
        <time>2017-06-10T08:23:01Z</time>
      </trkpt>
      <trkpt lat="44.74537" lon="5.43343">
        <ele>578.37</ele>
        <time>2017-06-10T08:23:02Z</time>
      </trkpt>
      <trkpt lat="44.74537" lon="5.43343">
        <ele>578.85</ele>
        <time>2017-06-10T08:23:18Z</time>
      </trkpt>
      <trkpt lat="44.74538" lon="5.43335">
        <ele>579.81</ele>
        <time>2017-06-10T08:23:44Z</time>
      </trkpt>
      <trkpt lat="44.74537" lon="5.43332">
        <ele>582.7</ele>
        <time>2017-06-10T08:23:51Z</time>
      </trkpt>
      <trkpt lat="44.74531" lon="5.43347">
        <ele>581.25</ele>
        <time>2017-06-10T08:25:12Z</time>
      </trkpt>
      <trkpt lat="44.74531" lon="5.4335">
        <ele>580.77</ele>
        <time>2017-06-10T08:25:13Z</time>
      </trkpt>
      <trkpt lat="44.74531" lon="5.43352">
        <ele>581.73</ele>
        <time>2017-06-10T08:25:15Z</time>
      </trkpt>
      <trkpt lat="44.74531" lon="5.43356">
        <ele>581.73</ele>
        <time>2017-06-10T08:25:18Z</time>
      </trkpt>
      <trkpt lat="44.74528" lon="5.43371">
        <ele>585.1</ele>
        <time>2017-06-10T08:25:33Z</time>
      </trkpt>
      <trkpt lat="44.74528" lon="5.4339">
        <ele>587.98</ele>
        <time>2017-06-10T08:25:47Z</time>
      </trkpt>
      <trkpt lat="44.74528" lon="5.43393">
        <ele>587.98</ele>
        <time>2017-06-10T08:25:49Z</time>
      </trkpt>
      <trkpt lat="44.7453" lon="5.43406">
        <ele>590.39</ele>
        <time>2017-06-10T08:25:59Z</time>
      </trkpt>
      <trkpt lat="44.74532" lon="5.43431">
        <ele>593.27</ele>
        <time>2017-06-10T08:26:14Z</time>
      </trkpt>
      <trkpt lat="44.74533" lon="5.43437">
        <ele>594.23</ele>
        <time>2017-06-10T08:26:18Z</time>
      </trkpt>
      <trkpt lat="44.7454" lon="5.43449">
        <ele>594.23</ele>
        <time>2017-06-10T08:26:28Z</time>
      </trkpt>
      <trkpt lat="44.74545" lon="5.43467">
        <ele>596.15</ele>
        <time>2017-06-10T08:26:41Z</time>
      </trkpt>
      <trkpt lat="44.74548" lon="5.43472">
        <ele>596.64</ele>
        <time>2017-06-10T08:26:45Z</time>
      </trkpt>
      <trkpt lat="44.74553" lon="5.43487">
        <ele>597.12</ele>
        <time>2017-06-10T08:26:55Z</time>
      </trkpt>
      <trkpt lat="44.74554" lon="5.4349">
        <ele>597.6</ele>
        <time>2017-06-10T08:26:57Z</time>
      </trkpt>
      <trkpt lat="44.74557" lon="5.435">
        <ele>599.04</ele>
        <time>2017-06-10T08:27:09Z</time>
      </trkpt>
      <trkpt lat="44.74558" lon="5.43502">
        <ele>599.52</ele>
        <time>2017-06-10T08:27:12Z</time>
      </trkpt>
      <trkpt lat="44.74564" lon="5.43515">
        <ele>600.96</ele>
        <time>2017-06-10T08:27:22Z</time>
      </trkpt>
      <trkpt lat="44.7457" lon="5.4353">
        <ele>602.4</ele>
        <time>2017-06-10T08:27:34Z</time>
      </trkpt>
      <trkpt lat="44.74574" lon="5.4354">
        <ele>602.88</ele>
        <time>2017-06-10T08:27:40Z</time>
      </trkpt>
      <trkpt lat="44.74577" lon="5.4356">
        <ele>604.33</ele>
        <time>2017-06-10T08:27:50Z</time>
      </trkpt>
      <trkpt lat="44.7458" lon="5.43574">
        <ele>606.73</ele>
        <time>2017-06-10T08:28:03Z</time>
      </trkpt>
      <trkpt lat="44.74583" lon="5.43583">
        <ele>607.69</ele>
        <time>2017-06-10T08:28:11Z</time>
      </trkpt>
      <trkpt lat="44.7459" lon="5.43592">
        <ele>608.65</ele>
        <time>2017-06-10T08:28:25Z</time>
      </trkpt>
      <trkpt lat="44.74598" lon="5.43599">
        <ele>611.06</ele>
        <time>2017-06-10T08:28:40Z</time>
      </trkpt>
      <trkpt lat="44.74601" lon="5.43611">
        <ele>613.46</ele>
        <time>2017-06-10T08:28:52Z</time>
      </trkpt>
      <trkpt lat="44.7461" lon="5.43632">
        <ele>615.86</ele>
        <time>2017-06-10T08:29:06Z</time>
      </trkpt>
      <trkpt lat="44.74611" lon="5.43635">
        <ele>616.82</ele>
        <time>2017-06-10T08:29:09Z</time>
      </trkpt>
      <trkpt lat="44.74613" lon="5.43645">
        <ele>617.3</ele>
        <time>2017-06-10T08:29:19Z</time>
      </trkpt>
      <trkpt lat="44.7461" lon="5.43666">
        <ele>619.23</ele>
        <time>2017-06-10T08:29:33Z</time>
      </trkpt>
      <trkpt lat="44.74609" lon="5.43677">
        <ele>622.11</ele>
        <time>2017-06-10T08:29:46Z</time>
      </trkpt>
      <trkpt lat="44.74609" lon="5.43697">
        <ele>624.51</ele>
        <time>2017-06-10T08:29:59Z</time>
      </trkpt>
      <trkpt lat="44.7461" lon="5.43717">
        <ele>626.44</ele>
        <time>2017-06-10T08:30:18Z</time>
      </trkpt>
      <trkpt lat="44.74612" lon="5.43729">
        <ele>629.32</ele>
        <time>2017-06-10T08:30:30Z</time>
      </trkpt>
      <trkpt lat="44.74616" lon="5.43728">
        <ele>632.68</ele>
        <time>2017-06-10T08:30:40Z</time>
      </trkpt>
      <trkpt lat="44.7462" lon="5.43721">
        <ele>635.57</ele>
        <time>2017-06-10T08:30:51Z</time>
      </trkpt>
      <trkpt lat="44.74625" lon="5.43723">
        <ele>638.93</ele>
        <time>2017-06-10T08:31:04Z</time>
      </trkpt>
      <trkpt lat="44.74633" lon="5.43719">
        <ele>641.82</ele>
        <time>2017-06-10T08:31:20Z</time>
      </trkpt>
      <trkpt lat="44.74636" lon="5.43725">
        <ele>643.74</ele>
        <time>2017-06-10T08:31:33Z</time>
      </trkpt>
      <trkpt lat="44.74637" lon="5.43727">
        <ele>644.22</ele>
        <time>2017-06-10T08:31:35Z</time>
      </trkpt>
      <trkpt lat="44.74644" lon="5.43741">
        <ele>646.62</ele>
        <time>2017-06-10T08:31:48Z</time>
      </trkpt>
      <trkpt lat="44.74645" lon="5.43752">
        <ele>649.03</ele>
        <time>2017-06-10T08:32:01Z</time>
      </trkpt>
      <trkpt lat="44.74646" lon="5.43761">
        <ele>649.99</ele>
        <time>2017-06-10T08:32:08Z</time>
      </trkpt>
      <trkpt lat="44.74646" lon="5.43772">
        <ele>652.39</ele>
        <time>2017-06-10T08:32:20Z</time>
      </trkpt>
      <trkpt lat="44.7465" lon="5.4379">
        <ele>654.8</ele>
        <time>2017-06-10T08:32:33Z</time>
      </trkpt>
      <trkpt lat="44.74653" lon="5.43805">
        <ele>656.72</ele>
        <time>2017-06-10T08:32:46Z</time>
      </trkpt>
      <trkpt lat="44.74655" lon="5.43813">
        <ele>658.64</ele>
        <time>2017-06-10T08:32:58Z</time>
      </trkpt>
      <trkpt lat="44.74658" lon="5.43822">
        <ele>660.56</ele>
        <time>2017-06-10T08:33:12Z</time>
      </trkpt>
      <trkpt lat="44.74662" lon="5.43838">
        <ele>662.49</ele>
        <time>2017-06-10T08:33:25Z</time>
      </trkpt>
      <trkpt lat="44.74665" lon="5.43852">
        <ele>664.41</ele>
        <time>2017-06-10T08:33:36Z</time>
      </trkpt>
      <trkpt lat="44.74669" lon="5.43863">
        <ele>665.85</ele>
        <time>2017-06-10T08:33:46Z</time>
      </trkpt>
      <trkpt lat="44.74672" lon="5.43872">
        <ele>667.77</ele>
        <time>2017-06-10T08:33:57Z</time>
      </trkpt>
      <trkpt lat="44.74673" lon="5.43872">
        <ele>667.77</ele>
        <time>2017-06-10T08:33:58Z</time>
      </trkpt>
      <trkpt lat="44.74677" lon="5.43885">
        <ele>669.7</ele>
        <time>2017-06-10T08:34:09Z</time>
      </trkpt>
      <trkpt lat="44.74679" lon="5.43898">
        <ele>671.62</ele>
        <time>2017-06-10T08:34:20Z</time>
      </trkpt>
      <trkpt lat="44.74684" lon="5.43907">
        <ele>674.02</ele>
        <time>2017-06-10T08:34:31Z</time>
      </trkpt>
      <trkpt lat="44.74688" lon="5.43918">
        <ele>676.42</ele>
        <time>2017-06-10T08:34:42Z</time>
      </trkpt>
      <trkpt lat="44.74691" lon="5.43932">
        <ele>678.83</ele>
        <time>2017-06-10T08:34:55Z</time>
      </trkpt>
      <trkpt lat="44.74691" lon="5.43935">
        <ele>679.31</ele>
        <time>2017-06-10T08:34:57Z</time>
      </trkpt>
      <trkpt lat="44.74695" lon="5.43945">
        <ele>681.23</ele>
        <time>2017-06-10T08:35:07Z</time>
      </trkpt>
      <trkpt lat="44.74696" lon="5.43947">
        <ele>681.71</ele>
        <time>2017-06-10T08:35:09Z</time>
      </trkpt>
      <trkpt lat="44.74701" lon="5.43953">
        <ele>683.15</ele>
        <time>2017-06-10T08:35:22Z</time>
      </trkpt>
      <trkpt lat="44.74702" lon="5.43954">
        <ele>683.15</ele>
        <time>2017-06-10T08:35:27Z</time>
      </trkpt>
      <trkpt lat="44.74699" lon="5.43961">
        <ele>685.56</ele>
        <time>2017-06-10T08:35:38Z</time>
      </trkpt>
      <trkpt lat="44.74691" lon="5.43966">
        <ele>686.52</ele>
        <time>2017-06-10T08:35:50Z</time>
      </trkpt>
      <trkpt lat="44.74682" lon="5.43977">
        <ele>688.44</ele>
        <time>2017-06-10T08:36:02Z</time>
      </trkpt>
      <trkpt lat="44.74676" lon="5.43987">
        <ele>690.36</ele>
        <time>2017-06-10T08:36:17Z</time>
      </trkpt>
      <trkpt lat="44.74671" lon="5.43982">
        <ele>692.29</ele>
        <time>2017-06-10T08:36:30Z</time>
      </trkpt>
      <trkpt lat="44.74668" lon="5.43976">
        <ele>693.25</ele>
        <time>2017-06-10T08:36:36Z</time>
      </trkpt>
      <trkpt lat="44.74658" lon="5.43973">
        <ele>694.69</ele>
        <time>2017-06-10T08:36:46Z</time>
      </trkpt>
      <trkpt lat="44.74653" lon="5.43975">
        <ele>695.17</ele>
        <time>2017-06-10T08:36:50Z</time>
      </trkpt>
      <trkpt lat="44.74644" lon="5.43984">
        <ele>697.09</ele>
        <time>2017-06-10T08:37:01Z</time>
      </trkpt>
      <trkpt lat="44.74642" lon="5.4399">
        <ele>697.09</ele>
        <time>2017-06-10T08:37:05Z</time>
      </trkpt>
      <trkpt lat="44.7464" lon="5.43991">
        <ele>698.05</ele>
        <time>2017-06-10T08:37:07Z</time>
      </trkpt>
      <trkpt lat="44.74637" lon="5.43997">
        <ele>699.02</ele>
        <time>2017-06-10T08:37:12Z</time>
      </trkpt>
      <trkpt lat="44.74634" lon="5.43999">
        <ele>699.02</ele>
        <time>2017-06-10T08:37:15Z</time>
      </trkpt>
      <trkpt lat="44.74625" lon="5.43995">
        <ele>701.42</ele>
        <time>2017-06-10T08:37:26Z</time>
      </trkpt>
      <trkpt lat="44.74617" lon="5.4399">
        <ele>702.86</ele>
        <time>2017-06-10T08:37:37Z</time>
      </trkpt>
      <trkpt lat="44.74609" lon="5.43983">
        <ele>704.3</ele>
        <time>2017-06-10T08:37:48Z</time>
      </trkpt>
      <trkpt lat="44.74601" lon="5.43977">
        <ele>706.71</ele>
        <time>2017-06-10T08:38:00Z</time>
      </trkpt>
      <trkpt lat="44.74594" lon="5.4397">
        <ele>708.63</ele>
        <time>2017-06-10T08:38:13Z</time>
      </trkpt>
      <trkpt lat="44.74583" lon="5.43964">
        <ele>711.03</ele>
        <time>2017-06-10T08:38:25Z</time>
      </trkpt>
      <trkpt lat="44.74571" lon="5.43959">
        <ele>713.44</ele>
        <time>2017-06-10T08:38:39Z</time>
      </trkpt>
      <trkpt lat="44.7456" lon="5.43955">
        <ele>715.36</ele>
        <time>2017-06-10T08:38:51Z</time>
      </trkpt>
      <trkpt lat="44.74552" lon="5.43955">
        <ele>717.28</ele>
        <time>2017-06-10T08:39:01Z</time>
      </trkpt>
      <trkpt lat="44.74551" lon="5.43955">
        <ele>717.76</ele>
        <time>2017-06-10T08:39:03Z</time>
      </trkpt>
      <trkpt lat="44.74538" lon="5.43956">
        <ele>719.2</ele>
        <time>2017-06-10T08:39:15Z</time>
      </trkpt>
      <trkpt lat="44.74537" lon="5.43958">
        <ele>719.68</ele>
        <time>2017-06-10T08:39:16Z</time>
      </trkpt>
      <trkpt lat="44.74535" lon="5.4396">
        <ele>719.68</ele>
        <time>2017-06-10T08:39:18Z</time>
      </trkpt>
      <trkpt lat="44.74527" lon="5.43965">
        <ele>721.61</ele>
        <time>2017-06-10T08:39:28Z</time>
      </trkpt>
      <trkpt lat="44.74517" lon="5.43972">
        <ele>723.53</ele>
        <time>2017-06-10T08:39:41Z</time>
      </trkpt>
      <trkpt lat="44.74513" lon="5.43976">
        <ele>724.01</ele>
        <time>2017-06-10T08:39:45Z</time>
      </trkpt>
      <trkpt lat="44.74509" lon="5.43979">
        <ele>724.49</ele>
        <time>2017-06-10T08:39:48Z</time>
      </trkpt>
      <trkpt lat="44.74502" lon="5.43983">
        <ele>725.93</ele>
        <time>2017-06-10T08:40:00Z</time>
      </trkpt>
      <trkpt lat="44.74493" lon="5.43987">
        <ele>727.37</ele>
        <time>2017-06-10T08:40:11Z</time>
      </trkpt>
      <trkpt lat="44.74491" lon="5.43989">
        <ele>728.34</ele>
        <time>2017-06-10T08:40:14Z</time>
      </trkpt>
      <trkpt lat="44.74484" lon="5.43991">
        <ele>729.3</ele>
        <time>2017-06-10T08:40:21Z</time>
      </trkpt>
      <trkpt lat="44.74479" lon="5.43995">
        <ele>731.22</ele>
        <time>2017-06-10T08:40:30Z</time>
      </trkpt>
      <trkpt lat="44.74486" lon="5.43996">
        <ele>731.7</ele>
        <time>2017-06-10T08:40:39Z</time>
      </trkpt>
      <trkpt lat="44.74491" lon="5.44003">
        <ele>732.66</ele>
        <time>2017-06-10T08:40:46Z</time>
      </trkpt>
      <trkpt lat="44.74501" lon="5.44005">
        <ele>733.14</ele>
        <time>2017-06-10T08:40:58Z</time>
      </trkpt>
      <trkpt lat="44.74514" lon="5.4401">
        <ele>736.03</ele>
        <time>2017-06-10T08:41:10Z</time>
      </trkpt>
      <trkpt lat="44.74521" lon="5.44003">
        <ele>736.51</ele>
        <time>2017-06-10T08:41:19Z</time>
      </trkpt>
      <trkpt lat="44.74523" lon="5.44001">
        <ele>736.51</ele>
        <time>2017-06-10T08:41:21Z</time>
      </trkpt>
      <trkpt lat="44.74532" lon="5.44001">
        <ele>738.43</ele>
        <time>2017-06-10T08:41:32Z</time>
      </trkpt>
      <trkpt lat="44.74543" lon="5.44006">
        <ele>740.35</ele>
        <time>2017-06-10T08:41:46Z</time>
      </trkpt>
      <trkpt lat="44.74552" lon="5.44013">
        <ele>741.31</ele>
        <time>2017-06-10T08:41:58Z</time>
      </trkpt>
      <trkpt lat="44.74562" lon="5.44023">
        <ele>743.24</ele>
        <time>2017-06-10T08:42:11Z</time>
      </trkpt>
      <trkpt lat="44.74572" lon="5.44037">
        <ele>745.16</ele>
        <time>2017-06-10T08:42:24Z</time>
      </trkpt>
      <trkpt lat="44.74573" lon="5.44039">
        <ele>745.64</ele>
        <time>2017-06-10T08:42:27Z</time>
      </trkpt>
      <trkpt lat="44.74577" lon="5.44044">
        <ele>746.6</ele>
        <time>2017-06-10T08:42:32Z</time>
      </trkpt>
      <trkpt lat="44.74586" lon="5.44059">
        <ele>749.49</ele>
        <time>2017-06-10T08:42:47Z</time>
      </trkpt>
      <trkpt lat="44.74592" lon="5.44071">
        <ele>750.45</ele>
        <time>2017-06-10T08:43:00Z</time>
      </trkpt>
      <trkpt lat="44.74593" lon="5.44076">
        <ele>750.93</ele>
        <time>2017-06-10T08:43:04Z</time>
      </trkpt>
      <trkpt lat="44.746" lon="5.44086">
        <ele>752.85</ele>
        <time>2017-06-10T08:43:14Z</time>
      </trkpt>
      <trkpt lat="44.74607" lon="5.44096">
        <ele>754.77</ele>
        <time>2017-06-10T08:43:28Z</time>
      </trkpt>
      <trkpt lat="44.74619" lon="5.441">
        <ele>757.18</ele>
        <time>2017-06-10T08:43:41Z</time>
      </trkpt>
      <trkpt lat="44.74628" lon="5.44103">
        <ele>758.62</ele>
        <time>2017-06-10T08:43:55Z</time>
      </trkpt>
      <trkpt lat="44.74629" lon="5.44104">
        <ele>759.1</ele>
        <time>2017-06-10T08:43:57Z</time>
      </trkpt>
      <trkpt lat="44.74635" lon="5.44108">
        <ele>761.02</ele>
        <time>2017-06-10T08:44:10Z</time>
      </trkpt>
      <trkpt lat="44.74636" lon="5.44108">
        <ele>761.02</ele>
        <time>2017-06-10T08:44:11Z</time>
      </trkpt>
      <trkpt lat="44.74646" lon="5.44119">
        <ele>762.94</ele>
        <time>2017-06-10T08:44:23Z</time>
      </trkpt>
      <trkpt lat="44.74652" lon="5.44128">
        <ele>764.87</ele>
        <time>2017-06-10T08:44:37Z</time>
      </trkpt>
      <trkpt lat="44.74656" lon="5.44132">
        <ele>765.83</ele>
        <time>2017-06-10T08:44:44Z</time>
      </trkpt>
      <trkpt lat="44.74666" lon="5.44142">
        <ele>767.75</ele>
        <time>2017-06-10T08:44:55Z</time>
      </trkpt>
      <trkpt lat="44.7467" lon="5.44156">
        <ele>769.19</ele>
        <time>2017-06-10T08:45:08Z</time>
      </trkpt>
      <trkpt lat="44.74675" lon="5.44166">
        <ele>771.11</ele>
        <time>2017-06-10T08:45:21Z</time>
      </trkpt>
      <trkpt lat="44.74676" lon="5.44182">
        <ele>773.52</ele>
        <time>2017-06-10T08:45:34Z</time>
      </trkpt>
      <trkpt lat="44.74678" lon="5.44189">
        <ele>774</ele>
        <time>2017-06-10T08:45:41Z</time>
      </trkpt>
      <trkpt lat="44.74679" lon="5.44207">
        <ele>776.4</ele>
        <time>2017-06-10T08:45:56Z</time>
      </trkpt>
      <trkpt lat="44.74686" lon="5.44214">
        <ele>777.84</ele>
        <time>2017-06-10T08:46:05Z</time>
      </trkpt>
      <trkpt lat="44.74691" lon="5.4423">
        <ele>779.29</ele>
        <time>2017-06-10T08:46:18Z</time>
      </trkpt>
      <trkpt lat="44.74698" lon="5.44226">
        <ele>781.69</ele>
        <time>2017-06-10T08:46:32Z</time>
      </trkpt>
      <trkpt lat="44.74712" lon="5.44226">
        <ele>783.61</ele>
        <time>2017-06-10T08:46:44Z</time>
      </trkpt>
      <trkpt lat="44.74717" lon="5.44232">
        <ele>785.05</ele>
        <time>2017-06-10T08:46:57Z</time>
      </trkpt>
      <trkpt lat="44.74726" lon="5.44246">
        <ele>786.98</ele>
        <time>2017-06-10T08:47:10Z</time>
      </trkpt>
      <trkpt lat="44.74734" lon="5.44249">
        <ele>787.94</ele>
        <time>2017-06-10T08:47:19Z</time>
      </trkpt>
      <trkpt lat="44.74744" lon="5.44254">
        <ele>788.9</ele>
        <time>2017-06-10T08:47:28Z</time>
      </trkpt>
      <trkpt lat="44.7475" lon="5.44259">
        <ele>789.38</ele>
        <time>2017-06-10T08:47:33Z</time>
      </trkpt>
      <trkpt lat="44.74759" lon="5.4426">
        <ele>792.74</ele>
        <time>2017-06-10T08:47:48Z</time>
      </trkpt>
      <trkpt lat="44.74758" lon="5.44262">
        <ele>794.19</ele>
        <time>2017-06-10T08:47:53Z</time>
      </trkpt>
      <trkpt lat="44.74754" lon="5.44266">
        <ele>795.15</ele>
        <time>2017-06-10T08:48:03Z</time>
      </trkpt>
      <trkpt lat="44.74749" lon="5.44268">
        <ele>796.11</ele>
        <time>2017-06-10T08:48:12Z</time>
      </trkpt>
      <trkpt lat="44.74742" lon="5.44271">
        <ele>797.55</ele>
        <time>2017-06-10T08:48:26Z</time>
      </trkpt>
      <trkpt lat="44.74737" lon="5.44272">
        <ele>798.99</ele>
        <time>2017-06-10T08:48:33Z</time>
      </trkpt>
      <trkpt lat="44.74729" lon="5.44272">
        <ele>800.44</ele>
        <time>2017-06-10T08:48:46Z</time>
      </trkpt>
      <trkpt lat="44.74719" lon="5.44268">
        <ele>802.36</ele>
        <time>2017-06-10T08:49:00Z</time>
      </trkpt>
      <trkpt lat="44.74707" lon="5.44264">
        <ele>804.28</ele>
        <time>2017-06-10T08:49:12Z</time>
      </trkpt>
      <trkpt lat="44.74698" lon="5.44269">
        <ele>806.2</ele>
        <time>2017-06-10T08:49:24Z</time>
      </trkpt>
      <trkpt lat="44.74695" lon="5.44273">
        <ele>806.2</ele>
        <time>2017-06-10T08:49:27Z</time>
      </trkpt>
      <trkpt lat="44.7469" lon="5.44282">
        <ele>807.64</ele>
        <time>2017-06-10T08:49:37Z</time>
      </trkpt>
      <trkpt lat="44.74684" lon="5.44287">
        <ele>808.61</ele>
        <time>2017-06-10T08:49:45Z</time>
      </trkpt>
      <trkpt lat="44.74679" lon="5.4429">
        <ele>809.57</ele>
        <time>2017-06-10T08:49:53Z</time>
      </trkpt>
      <trkpt lat="44.7467" lon="5.44291">
        <ele>811.01</ele>
        <time>2017-06-10T08:50:04Z</time>
      </trkpt>
      <trkpt lat="44.74667" lon="5.44295">
        <ele>812.45</ele>
        <time>2017-06-10T08:50:17Z</time>
      </trkpt>
      <trkpt lat="44.74668" lon="5.44295">
        <ele>813.41</ele>
        <time>2017-06-10T08:50:34Z</time>
      </trkpt>
      <trkpt lat="44.74668" lon="5.44295">
        <ele>813.41</ele>
        <time>2017-06-10T08:50:35Z</time>
      </trkpt>
      <trkpt lat="44.74662" lon="5.4429">
        <ele>815.34</ele>
        <time>2017-06-10T08:50:50Z</time>
      </trkpt>
      <trkpt lat="44.74652" lon="5.44272">
        <ele>816.3</ele>
        <time>2017-06-10T08:51:03Z</time>
      </trkpt>
      <trkpt lat="44.74648" lon="5.44246">
        <ele>817.26</ele>
        <time>2017-06-10T08:51:17Z</time>
      </trkpt>
      <trkpt lat="44.74648" lon="5.44233">
        <ele>819.18</ele>
        <time>2017-06-10T08:51:30Z</time>
      </trkpt>
      <trkpt lat="44.74646" lon="5.44222">
        <ele>819.66</ele>
        <time>2017-06-10T08:51:36Z</time>
      </trkpt>
      <trkpt lat="44.74642" lon="5.44217">
        <ele>820.62</ele>
        <time>2017-06-10T08:51:40Z</time>
      </trkpt>
      <trkpt lat="44.74628" lon="5.44204">
        <ele>822.06</ele>
        <time>2017-06-10T08:51:53Z</time>
      </trkpt>
      <trkpt lat="44.74622" lon="5.442">
        <ele>822.55</ele>
        <time>2017-06-10T08:52:02Z</time>
      </trkpt>
      <trkpt lat="44.74619" lon="5.44198">
        <ele>823.03</ele>
        <time>2017-06-10T08:52:05Z</time>
      </trkpt>
      <trkpt lat="44.74615" lon="5.44195">
        <ele>823.03</ele>
        <time>2017-06-10T08:52:08Z</time>
      </trkpt>
      <trkpt lat="44.74613" lon="5.44193">
        <ele>823.51</ele>
        <time>2017-06-10T08:52:10Z</time>
      </trkpt>
      <trkpt lat="44.74604" lon="5.44187">
        <ele>824.95</ele>
        <time>2017-06-10T08:52:22Z</time>
      </trkpt>
      <trkpt lat="44.74604" lon="5.44187">
        <ele>825.43</ele>
        <time>2017-06-10T08:52:40Z</time>
      </trkpt>
      <trkpt lat="44.74599" lon="5.44186">
        <ele>825.91</ele>
        <time>2017-06-10T08:52:45Z</time>
      </trkpt>
      <trkpt lat="44.74587" lon="5.44182">
        <ele>827.35</ele>
        <time>2017-06-10T08:52:56Z</time>
      </trkpt>
      <trkpt lat="44.74587" lon="5.44182">
        <ele>827.83</ele>
        <time>2017-06-10T08:52:58Z</time>
      </trkpt>
      <trkpt lat="44.74581" lon="5.44179">
        <ele>828.79</ele>
        <time>2017-06-10T08:53:05Z</time>
      </trkpt>
      <trkpt lat="44.74572" lon="5.44177">
        <ele>830.24</ele>
        <time>2017-06-10T08:53:16Z</time>
      </trkpt>
      <trkpt lat="44.74562" lon="5.44167">
        <ele>831.68</ele>
        <time>2017-06-10T08:53:28Z</time>
      </trkpt>
      <trkpt lat="44.74558" lon="5.44165">
        <ele>832.64</ele>
        <time>2017-06-10T08:53:31Z</time>
      </trkpt>
      <trkpt lat="44.74554" lon="5.44157">
        <ele>832.16</ele>
        <time>2017-06-10T08:53:35Z</time>
      </trkpt>
      <trkpt lat="44.74552" lon="5.44153">
        <ele>832.64</ele>
        <time>2017-06-10T08:53:39Z</time>
      </trkpt>
      <trkpt lat="44.74551" lon="5.4415">
        <ele>833.6</ele>
        <time>2017-06-10T08:53:41Z</time>
      </trkpt>
      <trkpt lat="44.7455" lon="5.44151">
        <ele>833.12</ele>
        <time>2017-06-10T08:53:44Z</time>
      </trkpt>
      <trkpt lat="44.74552" lon="5.44153">
        <ele>835.04</ele>
        <time>2017-06-10T08:53:48Z</time>
      </trkpt>
      <trkpt lat="44.74554" lon="5.44158">
        <ele>835.04</ele>
        <time>2017-06-10T08:53:52Z</time>
      </trkpt>
      <trkpt lat="44.74555" lon="5.44164">
        <ele>835.52</ele>
        <time>2017-06-10T08:53:57Z</time>
      </trkpt>
      <trkpt lat="44.74558" lon="5.44179">
        <ele>837.45</ele>
        <time>2017-06-10T08:54:09Z</time>
      </trkpt>
      <trkpt lat="44.7456" lon="5.44185">
        <ele>837.93</ele>
        <time>2017-06-10T08:54:14Z</time>
      </trkpt>
      <trkpt lat="44.74562" lon="5.44189">
        <ele>838.41</ele>
        <time>2017-06-10T08:54:17Z</time>
      </trkpt>
      <trkpt lat="44.74564" lon="5.44191">
        <ele>838.89</ele>
        <time>2017-06-10T08:54:21Z</time>
      </trkpt>
      <trkpt lat="44.74573" lon="5.44199">
        <ele>840.81</ele>
        <time>2017-06-10T08:54:33Z</time>
      </trkpt>
      <trkpt lat="44.74581" lon="5.44205">
        <ele>842.25</ele>
        <time>2017-06-10T08:54:44Z</time>
      </trkpt>
      <trkpt lat="44.74588" lon="5.44214">
        <ele>843.69</ele>
        <time>2017-06-10T08:54:55Z</time>
      </trkpt>
      <trkpt lat="44.74589" lon="5.44219">
        <ele>844.18</ele>
        <time>2017-06-10T08:54:58Z</time>
      </trkpt>
      <trkpt lat="44.74595" lon="5.44225">
        <ele>845.14</ele>
        <time>2017-06-10T08:55:05Z</time>
      </trkpt>
      <trkpt lat="44.746" lon="5.4423">
        <ele>846.58</ele>
        <time>2017-06-10T08:55:16Z</time>
      </trkpt>
      <trkpt lat="44.74602" lon="5.44234">
        <ele>846.1</ele>
        <time>2017-06-10T08:55:19Z</time>
      </trkpt>
      <trkpt lat="44.74602" lon="5.44247">
        <ele>848.98</ele>
        <time>2017-06-10T08:55:32Z</time>
      </trkpt>
      <trkpt lat="44.74602" lon="5.44259">
        <ele>850.42</ele>
        <time>2017-06-10T08:55:42Z</time>
      </trkpt>
      <trkpt lat="44.74602" lon="5.44268">
        <ele>851.38</ele>
        <time>2017-06-10T08:55:50Z</time>
      </trkpt>
      <trkpt lat="44.74607" lon="5.44279">
        <ele>853.31</ele>
        <time>2017-06-10T08:56:02Z</time>
      </trkpt>
      <trkpt lat="44.74606" lon="5.44289">
        <ele>855.23</ele>
        <time>2017-06-10T08:56:12Z</time>
      </trkpt>
      <trkpt lat="44.74605" lon="5.4429">
        <ele>856.67</ele>
        <time>2017-06-10T08:56:18Z</time>
      </trkpt>
      <trkpt lat="44.74602" lon="5.44286">
        <ele>857.15</ele>
        <time>2017-06-10T08:56:28Z</time>
      </trkpt>
      <trkpt lat="44.74601" lon="5.44283">
        <ele>857.63</ele>
        <time>2017-06-10T08:56:32Z</time>
      </trkpt>
      <trkpt lat="44.74597" lon="5.44281">
        <ele>858.11</ele>
        <time>2017-06-10T08:56:35Z</time>
      </trkpt>
      <trkpt lat="44.74596" lon="5.44278">
        <ele>858.11</ele>
        <time>2017-06-10T08:56:38Z</time>
      </trkpt>
      <trkpt lat="44.74595" lon="5.44274">
        <ele>859.08</ele>
        <time>2017-06-10T08:56:42Z</time>
      </trkpt>
      <trkpt lat="44.74592" lon="5.44271">
        <ele>859.56</ele>
        <time>2017-06-10T08:56:45Z</time>
      </trkpt>
      <trkpt lat="44.74589" lon="5.44254">
        <ele>861</ele>
        <time>2017-06-10T08:56:58Z</time>
      </trkpt>
      <trkpt lat="44.74589" lon="5.44251">
        <ele>861.48</ele>
        <time>2017-06-10T08:57:01Z</time>
      </trkpt>
      <trkpt lat="44.74587" lon="5.44244">
        <ele>861.96</ele>
        <time>2017-06-10T08:57:08Z</time>
      </trkpt>
      <trkpt lat="44.74585" lon="5.4424">
        <ele>862.44</ele>
        <time>2017-06-10T08:57:11Z</time>
      </trkpt>
      <trkpt lat="44.74582" lon="5.4424">
        <ele>863.4</ele>
        <time>2017-06-10T08:57:15Z</time>
      </trkpt>
      <trkpt lat="44.74578" lon="5.44244">
        <ele>863.88</ele>
        <time>2017-06-10T08:57:21Z</time>
      </trkpt>
      <trkpt lat="44.7457" lon="5.44246">
        <ele>865.32</ele>
        <time>2017-06-10T08:57:32Z</time>
      </trkpt>
      <trkpt lat="44.74566" lon="5.44242">
        <ele>866.29</ele>
        <time>2017-06-10T08:57:38Z</time>
      </trkpt>
      <trkpt lat="44.74555" lon="5.44233">
        <ele>867.73</ele>
        <time>2017-06-10T08:57:49Z</time>
      </trkpt>
      <trkpt lat="44.7455" lon="5.44224">
        <ele>868.69</ele>
        <time>2017-06-10T08:58:02Z</time>
      </trkpt>
      <trkpt lat="44.74548" lon="5.44223">
        <ele>868.69</ele>
        <time>2017-06-10T08:58:05Z</time>
      </trkpt>
      <trkpt lat="44.74545" lon="5.4422">
        <ele>869.65</ele>
        <time>2017-06-10T08:58:09Z</time>
      </trkpt>
      <trkpt lat="44.74541" lon="5.44216">
        <ele>869.65</ele>
        <time>2017-06-10T08:58:12Z</time>
      </trkpt>
      <trkpt lat="44.74538" lon="5.44212">
        <ele>870.61</ele>
        <time>2017-06-10T08:58:15Z</time>
      </trkpt>
      <trkpt lat="44.74536" lon="5.44209">
        <ele>870.61</ele>
        <time>2017-06-10T08:58:18Z</time>
      </trkpt>
      <trkpt lat="44.74531" lon="5.44203">
        <ele>872.05</ele>
        <time>2017-06-10T08:58:28Z</time>
      </trkpt>
      <trkpt lat="44.74532" lon="5.44206">
        <ele>873.01</ele>
        <time>2017-06-10T08:58:31Z</time>
      </trkpt>
      <trkpt lat="44.74534" lon="5.44209">
        <ele>873.5</ele>
        <time>2017-06-10T08:58:35Z</time>
      </trkpt>
      <trkpt lat="44.74537" lon="5.44225">
        <ele>876.38</ele>
        <time>2017-06-10T08:58:49Z</time>
      </trkpt>
      <trkpt lat="44.74538" lon="5.44227">
        <ele>876.38</ele>
        <time>2017-06-10T08:58:51Z</time>
      </trkpt>
      <trkpt lat="44.7454" lon="5.44233">
        <ele>877.34</ele>
        <time>2017-06-10T08:58:57Z</time>
      </trkpt>
      <trkpt lat="44.74543" lon="5.44241">
        <ele>878.3</ele>
        <time>2017-06-10T08:59:06Z</time>
      </trkpt>
      <trkpt lat="44.74544" lon="5.44247">
        <ele>879.26</ele>
        <time>2017-06-10T08:59:11Z</time>
      </trkpt>
      <trkpt lat="44.74551" lon="5.44257">
        <ele>880.71</ele>
        <time>2017-06-10T08:59:23Z</time>
      </trkpt>
      <trkpt lat="44.74559" lon="5.44268">
        <ele>882.63</ele>
        <time>2017-06-10T08:59:35Z</time>
      </trkpt>
      <trkpt lat="44.74568" lon="5.44282">
        <ele>884.55</ele>
        <time>2017-06-10T08:59:48Z</time>
      </trkpt>
      <trkpt lat="44.74568" lon="5.44284">
        <ele>885.03</ele>
        <time>2017-06-10T08:59:50Z</time>
      </trkpt>
      <trkpt lat="44.74569" lon="5.44288">
        <ele>885.51</ele>
        <time>2017-06-10T08:59:53Z</time>
      </trkpt>
      <trkpt lat="44.74572" lon="5.44301">
        <ele>887.91</ele>
        <time>2017-06-10T09:00:07Z</time>
      </trkpt>
      <trkpt lat="44.74574" lon="5.4431">
        <ele>888.88</ele>
        <time>2017-06-10T09:00:16Z</time>
      </trkpt>
      <trkpt lat="44.74575" lon="5.44315">
        <ele>889.84</ele>
        <time>2017-06-10T09:00:22Z</time>
      </trkpt>
      <trkpt lat="44.74573" lon="5.44322">
        <ele>890.32</ele>
        <time>2017-06-10T09:00:26Z</time>
      </trkpt>
      <trkpt lat="44.74569" lon="5.4433">
        <ele>892.24</ele>
        <time>2017-06-10T09:00:35Z</time>
      </trkpt>
      <trkpt lat="44.74568" lon="5.44335">
        <ele>892.24</ele>
        <time>2017-06-10T09:00:38Z</time>
      </trkpt>
      <trkpt lat="44.74572" lon="5.44347">
        <ele>894.16</ele>
        <time>2017-06-10T09:00:51Z</time>
      </trkpt>
      <trkpt lat="44.74571" lon="5.44353">
        <ele>895.61</ele>
        <time>2017-06-10T09:01:01Z</time>
      </trkpt>
      <trkpt lat="44.7457" lon="5.44369">
        <ele>897.53</ele>
        <time>2017-06-10T09:01:14Z</time>
      </trkpt>
      <trkpt lat="44.7457" lon="5.44377">
        <ele>898.49</ele>
        <time>2017-06-10T09:01:24Z</time>
      </trkpt>
      <trkpt lat="44.74569" lon="5.44392">
        <ele>900.41</ele>
        <time>2017-06-10T09:01:34Z</time>
      </trkpt>
      <trkpt lat="44.7457" lon="5.44396">
        <ele>901.85</ele>
        <time>2017-06-10T09:01:46Z</time>
      </trkpt>
      <trkpt lat="44.74568" lon="5.44405">
        <ele>903.78</ele>
        <time>2017-06-10T09:01:59Z</time>
      </trkpt>
      <trkpt lat="44.74582" lon="5.44413">
        <ele>904.26</ele>
        <time>2017-06-10T09:02:17Z</time>
      </trkpt>
      <trkpt lat="44.74591" lon="5.44413">
        <ele>906.66</ele>
        <time>2017-06-10T09:02:31Z</time>
      </trkpt>
      <trkpt lat="44.74595" lon="5.44415">
        <ele>907.14</ele>
        <time>2017-06-10T09:02:35Z</time>
      </trkpt>
      <trkpt lat="44.74605" lon="5.44425">
        <ele>908.58</ele>
        <time>2017-06-10T09:02:47Z</time>
      </trkpt>
      <trkpt lat="44.74611" lon="5.44424">
        <ele>909.06</ele>
        <time>2017-06-10T09:02:51Z</time>
      </trkpt>
      <trkpt lat="44.74623" lon="5.44424">
        <ele>910.99</ele>
        <time>2017-06-10T09:03:05Z</time>
      </trkpt>
      <trkpt lat="44.74629" lon="5.44428">
        <ele>911.47</ele>
        <time>2017-06-10T09:03:12Z</time>
      </trkpt>
      <trkpt lat="44.74633" lon="5.44432">
        <ele>912.43</ele>
        <time>2017-06-10T09:03:19Z</time>
      </trkpt>
      <trkpt lat="44.74643" lon="5.44445">
        <ele>914.35</ele>
        <time>2017-06-10T09:03:33Z</time>
      </trkpt>
      <trkpt lat="44.74654" lon="5.44457">
        <ele>916.75</ele>
        <time>2017-06-10T09:03:49Z</time>
      </trkpt>
      <trkpt lat="44.74665" lon="5.44463">
        <ele>918.2</ele>
        <time>2017-06-10T09:04:01Z</time>
      </trkpt>
      <trkpt lat="44.74674" lon="5.44472">
        <ele>920.6</ele>
        <time>2017-06-10T09:04:14Z</time>
      </trkpt>
      <trkpt lat="44.74678" lon="5.44475">
        <ele>922.04</ele>
        <time>2017-06-10T09:04:18Z</time>
      </trkpt>
      <trkpt lat="44.74682" lon="5.4448">
        <ele>923.48</ele>
        <time>2017-06-10T09:04:31Z</time>
      </trkpt>
      <trkpt lat="44.74691" lon="5.44483">
        <ele>924.45</ele>
        <time>2017-06-10T09:04:46Z</time>
      </trkpt>
      <trkpt lat="44.74691" lon="5.44483">
        <ele>924.93</ele>
        <time>2017-06-10T09:05:14Z</time>
      </trkpt>
      <trkpt lat="44.74691" lon="5.44483">
        <ele>925.41</ele>
        <time>2017-06-10T09:05:48Z</time>
      </trkpt>
      <trkpt lat="44.74691" lon="5.44483">
        <ele>925.89</ele>
        <time>2017-06-10T09:06:21Z</time>
      </trkpt>
      <trkpt lat="44.74691" lon="5.44483">
        <ele>926.37</ele>
        <time>2017-06-10T09:06:50Z</time>
      </trkpt>
      <trkpt lat="44.74691" lon="5.44483">
        <ele>926.85</ele>
        <time>2017-06-10T09:07:25Z</time>
      </trkpt>
      <trkpt lat="44.74692" lon="5.44483">
        <ele>927.33</ele>
        <time>2017-06-10T09:07:50Z</time>
      </trkpt>
      <trkpt lat="44.74698" lon="5.44487">
        <ele>928.77</ele>
        <time>2017-06-10T09:08:06Z</time>
      </trkpt>
      <trkpt lat="44.74711" lon="5.445">
        <ele>930.69</ele>
        <time>2017-06-10T09:08:20Z</time>
      </trkpt>
      <trkpt lat="44.74715" lon="5.44507">
        <ele>931.65</ele>
        <time>2017-06-10T09:08:28Z</time>
      </trkpt>
      <trkpt lat="44.74717" lon="5.44512">
        <ele>932.62</ele>
        <time>2017-06-10T09:08:31Z</time>
      </trkpt>
      <trkpt lat="44.74719" lon="5.44515">
        <ele>932.62</ele>
        <time>2017-06-10T09:08:34Z</time>
      </trkpt>
      <trkpt lat="44.74721" lon="5.44517">
        <ele>933.1</ele>
        <time>2017-06-10T09:08:37Z</time>
      </trkpt>
      <trkpt lat="44.74722" lon="5.44519">
        <ele>933.58</ele>
        <time>2017-06-10T09:08:39Z</time>
      </trkpt>
      <trkpt lat="44.7473" lon="5.44523">
        <ele>935.02</ele>
        <time>2017-06-10T09:08:54Z</time>
      </trkpt>
      <trkpt lat="44.74731" lon="5.44525">
        <ele>935.5</ele>
        <time>2017-06-10T09:08:56Z</time>
      </trkpt>
      <trkpt lat="44.74737" lon="5.44537">
        <ele>936.94</ele>
        <time>2017-06-10T09:09:11Z</time>
      </trkpt>
      <trkpt lat="44.74737" lon="5.44537">
        <ele>936.94</ele>
        <time>2017-06-10T09:09:39Z</time>
      </trkpt>
      <trkpt lat="44.74739" lon="5.44537">
        <ele>937.9</ele>
        <time>2017-06-10T09:09:55Z</time>
      </trkpt>
      <trkpt lat="44.74741" lon="5.44538">
        <ele>937.9</ele>
        <time>2017-06-10T09:10:00Z</time>
      </trkpt>
      <trkpt lat="44.7475" lon="5.44535">
        <ele>938.38</ele>
        <time>2017-06-10T09:10:10Z</time>
      </trkpt>
      <trkpt lat="44.74757" lon="5.44538">
        <ele>938.86</ele>
        <time>2017-06-10T09:10:19Z</time>
      </trkpt>
      <trkpt lat="44.7476" lon="5.4454">
        <ele>939.35</ele>
        <time>2017-06-10T09:10:24Z</time>
      </trkpt>
      <trkpt lat="44.74769" lon="5.4454">
        <ele>940.79</ele>
        <time>2017-06-10T09:10:38Z</time>
      </trkpt>
      <trkpt lat="44.74778" lon="5.44543">
        <ele>942.71</ele>
        <time>2017-06-10T09:10:50Z</time>
      </trkpt>
      <trkpt lat="44.74785" lon="5.44546">
        <ele>944.15</ele>
        <time>2017-06-10T09:11:02Z</time>
      </trkpt>
      <trkpt lat="44.74799" lon="5.44558">
        <ele>946.07</ele>
        <time>2017-06-10T09:11:17Z</time>
      </trkpt>
      <trkpt lat="44.74807" lon="5.44559">
        <ele>947.04</ele>
        <time>2017-06-10T09:11:29Z</time>
      </trkpt>
      <trkpt lat="44.74815" lon="5.44563">
        <ele>948.48</ele>
        <time>2017-06-10T09:11:41Z</time>
      </trkpt>
      <trkpt lat="44.74828" lon="5.44569">
        <ele>950.4</ele>
        <time>2017-06-10T09:11:53Z</time>
      </trkpt>
      <trkpt lat="44.74839" lon="5.44566">
        <ele>950.88</ele>
        <time>2017-06-10T09:12:04Z</time>
      </trkpt>
      <trkpt lat="44.74845" lon="5.44564">
        <ele>952.32</ele>
        <time>2017-06-10T09:12:16Z</time>
      </trkpt>
      <trkpt lat="44.74855" lon="5.44564">
        <ele>953.28</ele>
        <time>2017-06-10T09:12:28Z</time>
      </trkpt>
      <trkpt lat="44.74864" lon="5.44561">
        <ele>954.25</ele>
        <time>2017-06-10T09:12:40Z</time>
      </trkpt>
      <trkpt lat="44.74873" lon="5.4456">
        <ele>955.21</ele>
        <time>2017-06-10T09:12:47Z</time>
      </trkpt>
      <trkpt lat="44.74875" lon="5.44561">
        <ele>955.21</ele>
        <time>2017-06-10T09:12:49Z</time>
      </trkpt>
      <trkpt lat="44.74879" lon="5.44561">
        <ele>956.17</ele>
        <time>2017-06-10T09:12:54Z</time>
      </trkpt>
      <trkpt lat="44.74888" lon="5.44573">
        <ele>957.61</ele>
        <time>2017-06-10T09:13:08Z</time>
      </trkpt>
      <trkpt lat="44.7489" lon="5.4458">
        <ele>958.09</ele>
        <time>2017-06-10T09:13:14Z</time>
      </trkpt>
      <trkpt lat="44.74893" lon="5.44585">
        <ele>959.05</ele>
        <time>2017-06-10T09:13:17Z</time>
      </trkpt>
      <trkpt lat="44.74897" lon="5.44594">
        <ele>960.01</ele>
        <time>2017-06-10T09:13:26Z</time>
      </trkpt>
      <trkpt lat="44.749" lon="5.44601">
        <ele>960.49</ele>
        <time>2017-06-10T09:13:31Z</time>
      </trkpt>
      <trkpt lat="44.74908" lon="5.44611">
        <ele>962.42</ele>
        <time>2017-06-10T09:13:45Z</time>
      </trkpt>
      <trkpt lat="44.74913" lon="5.44611">
        <ele>964.82</ele>
        <time>2017-06-10T09:14:01Z</time>
      </trkpt>
      <trkpt lat="44.74914" lon="5.44611">
        <ele>964.82</ele>
        <time>2017-06-10T09:14:19Z</time>
      </trkpt>
      <trkpt lat="44.74925" lon="5.44606">
        <ele>965.78</ele>
        <time>2017-06-10T09:14:31Z</time>
      </trkpt>
      <trkpt lat="44.74932" lon="5.44597">
        <ele>967.22</ele>
        <time>2017-06-10T09:14:44Z</time>
      </trkpt>
      <trkpt lat="44.74943" lon="5.44586">
        <ele>969.15</ele>
        <time>2017-06-10T09:14:55Z</time>
      </trkpt>
      <trkpt lat="44.74944" lon="5.44583">
        <ele>969.63</ele>
        <time>2017-06-10T09:14:57Z</time>
      </trkpt>
      <trkpt lat="44.74946" lon="5.44574">
        <ele>970.11</ele>
        <time>2017-06-10T09:15:09Z</time>
      </trkpt>
      <trkpt lat="44.74951" lon="5.44566">
        <ele>971.07</ele>
        <time>2017-06-10T09:15:22Z</time>
      </trkpt>
      <trkpt lat="44.74954" lon="5.44561">
        <ele>972.51</ele>
        <time>2017-06-10T09:15:37Z</time>
      </trkpt>
      <trkpt lat="44.74956" lon="5.4456">
        <ele>972.51</ele>
        <time>2017-06-10T09:15:39Z</time>
      </trkpt>
      <trkpt lat="44.74965" lon="5.44547">
        <ele>973.47</ele>
        <time>2017-06-10T09:15:52Z</time>
      </trkpt>
      <trkpt lat="44.74968" lon="5.44544">
        <ele>973.95</ele>
        <time>2017-06-10T09:15:57Z</time>
      </trkpt>
      <trkpt lat="44.74978" lon="5.4453">
        <ele>974.91</ele>
        <time>2017-06-10T09:16:09Z</time>
      </trkpt>
      <trkpt lat="44.74983" lon="5.44527">
        <ele>975.88</ele>
        <time>2017-06-10T09:16:17Z</time>
      </trkpt>
      <trkpt lat="44.74988" lon="5.44522">
        <ele>977.32</ele>
        <time>2017-06-10T09:16:27Z</time>
      </trkpt>
      <trkpt lat="44.75" lon="5.44517">
        <ele>978.28</ele>
        <time>2017-06-10T09:16:38Z</time>
      </trkpt>
      <trkpt lat="44.75007" lon="5.44513">
        <ele>979.24</ele>
        <time>2017-06-10T09:16:49Z</time>
      </trkpt>
      <trkpt lat="44.75018" lon="5.44504">
        <ele>980.68</ele>
        <time>2017-06-10T09:17:01Z</time>
      </trkpt>
      <trkpt lat="44.75027" lon="5.445">
        <ele>981.64</ele>
        <time>2017-06-10T09:17:11Z</time>
      </trkpt>
      <trkpt lat="44.75031" lon="5.44492">
        <ele>982.6</ele>
        <time>2017-06-10T09:17:23Z</time>
      </trkpt>
      <trkpt lat="44.75041" lon="5.4448">
        <ele>984.53</ele>
        <time>2017-06-10T09:17:36Z</time>
      </trkpt>
      <trkpt lat="44.75047" lon="5.44477">
        <ele>985.97</ele>
        <time>2017-06-10T09:17:48Z</time>
      </trkpt>
      <trkpt lat="44.75053" lon="5.4447">
        <ele>986.45</ele>
        <time>2017-06-10T09:17:56Z</time>
      </trkpt>
      <trkpt lat="44.75067" lon="5.4446">
        <ele>988.37</ele>
        <time>2017-06-10T09:18:12Z</time>
      </trkpt>
      <trkpt lat="44.75072" lon="5.44455">
        <ele>989.81</ele>
        <time>2017-06-10T09:18:23Z</time>
      </trkpt>
      <trkpt lat="44.75088" lon="5.44448">
        <ele>991.74</ele>
        <time>2017-06-10T09:18:34Z</time>
      </trkpt>
      <trkpt lat="44.75101" lon="5.44444">
        <ele>993.66</ele>
        <time>2017-06-10T09:18:47Z</time>
      </trkpt>
      <trkpt lat="44.75109" lon="5.44443">
        <ele>993.66</ele>
        <time>2017-06-10T09:18:52Z</time>
      </trkpt>
      <trkpt lat="44.75129" lon="5.44437">
        <ele>996.06</ele>
        <time>2017-06-10T09:19:05Z</time>
      </trkpt>
      <trkpt lat="44.75135" lon="5.44435">
        <ele>996.06</ele>
        <time>2017-06-10T09:19:09Z</time>
      </trkpt>
      <trkpt lat="44.75141" lon="5.44433">
        <ele>997.02</ele>
        <time>2017-06-10T09:19:15Z</time>
      </trkpt>
      <trkpt lat="44.75159" lon="5.44436">
        <ele>997.99</ele>
        <time>2017-06-10T09:19:27Z</time>
      </trkpt>
      <trkpt lat="44.75166" lon="5.44436">
        <ele>999.91</ele>
        <time>2017-06-10T09:19:38Z</time>
      </trkpt>
      <trkpt lat="44.75167" lon="5.44437">
        <ele>1000.39</ele>
        <time>2017-06-10T09:19:44Z</time>
      </trkpt>
      <trkpt lat="44.75166" lon="5.44439">
        <ele>1001.35</ele>
        <time>2017-06-10T09:19:48Z</time>
      </trkpt>
      <trkpt lat="44.75161" lon="5.44443">
        <ele>1002.31</ele>
        <time>2017-06-10T09:19:59Z</time>
      </trkpt>
      <trkpt lat="44.75158" lon="5.44447">
        <ele>1002.79</ele>
        <time>2017-06-10T09:20:04Z</time>
      </trkpt>
      <trkpt lat="44.75154" lon="5.4445">
        <ele>1004.23</ele>
        <time>2017-06-10T09:20:16Z</time>
      </trkpt>
      <trkpt lat="44.75152" lon="5.44451">
        <ele>1006.16</ele>
        <time>2017-06-10T09:20:27Z</time>
      </trkpt>
      <trkpt lat="44.75148" lon="5.44455">
        <ele>1006.64</ele>
        <time>2017-06-10T09:20:30Z</time>
      </trkpt>
      <trkpt lat="44.75137" lon="5.44464">
        <ele>1007.6</ele>
        <time>2017-06-10T09:20:41Z</time>
      </trkpt>
      <trkpt lat="44.75128" lon="5.44474">
        <ele>1009.52</ele>
        <time>2017-06-10T09:20:52Z</time>
      </trkpt>
      <trkpt lat="44.75127" lon="5.44475">
        <ele>1010</ele>
        <time>2017-06-10T09:20:53Z</time>
      </trkpt>
      <trkpt lat="44.75123" lon="5.4448">
        <ele>1010.48</ele>
        <time>2017-06-10T09:20:57Z</time>
      </trkpt>
      <trkpt lat="44.75114" lon="5.44486">
        <ele>1011.93</ele>
        <time>2017-06-10T09:21:08Z</time>
      </trkpt>
      <trkpt lat="44.75107" lon="5.445">
        <ele>1012.89</ele>
        <time>2017-06-10T09:21:18Z</time>
      </trkpt>
      <trkpt lat="44.75099" lon="5.44508">
        <ele>1013.85</ele>
        <time>2017-06-10T09:21:27Z</time>
      </trkpt>
      <trkpt lat="44.75092" lon="5.44518">
        <ele>1014.81</ele>
        <time>2017-06-10T09:21:36Z</time>
      </trkpt>
      <trkpt lat="44.75085" lon="5.44532">
        <ele>1016.25</ele>
        <time>2017-06-10T09:21:48Z</time>
      </trkpt>
      <trkpt lat="44.75076" lon="5.44544">
        <ele>1017.21</ele>
        <time>2017-06-10T09:21:58Z</time>
      </trkpt>
      <trkpt lat="44.75075" lon="5.44545">
        <ele>1017.69</ele>
        <time>2017-06-10T09:21:59Z</time>
      </trkpt>
      <trkpt lat="44.7507" lon="5.44559">
        <ele>1018.65</ele>
        <time>2017-06-10T09:22:10Z</time>
      </trkpt>
      <trkpt lat="44.75069" lon="5.44563">
        <ele>1019.13</ele>
        <time>2017-06-10T09:22:14Z</time>
      </trkpt>
      <trkpt lat="44.75065" lon="5.44569">
        <ele>1019.62</ele>
        <time>2017-06-10T09:22:28Z</time>
      </trkpt>
      <trkpt lat="44.75061" lon="5.4458">
        <ele>1021.06</ele>
        <time>2017-06-10T09:22:38Z</time>
      </trkpt>
      <trkpt lat="44.75052" lon="5.44587">
        <ele>1021.54</ele>
        <time>2017-06-10T09:22:47Z</time>
      </trkpt>
      <trkpt lat="44.75047" lon="5.44592">
        <ele>1022.5</ele>
        <time>2017-06-10T09:22:58Z</time>
      </trkpt>
      <trkpt lat="44.75044" lon="5.44597">
        <ele>1022.98</ele>
        <time>2017-06-10T09:23:03Z</time>
      </trkpt>
      <trkpt lat="44.75036" lon="5.44603">
        <ele>1023.46</ele>
        <time>2017-06-10T09:23:15Z</time>
      </trkpt>
      <trkpt lat="44.75025" lon="5.44614">
        <ele>1024.42</ele>
        <time>2017-06-10T09:23:26Z</time>
      </trkpt>
      <trkpt lat="44.75024" lon="5.44616">
        <ele>1024.42</ele>
        <time>2017-06-10T09:23:27Z</time>
      </trkpt>
      <trkpt lat="44.75021" lon="5.44623">
        <ele>1025.38</ele>
        <time>2017-06-10T09:23:34Z</time>
      </trkpt>
      <trkpt lat="44.75015" lon="5.44632">
        <ele>1025.86</ele>
        <time>2017-06-10T09:23:43Z</time>
      </trkpt>
      <trkpt lat="44.75011" lon="5.44641">
        <ele>1027.31</ele>
        <time>2017-06-10T09:23:51Z</time>
      </trkpt>
      <trkpt lat="44.75003" lon="5.4466">
        <ele>1028.27</ele>
        <time>2017-06-10T09:24:04Z</time>
      </trkpt>
      <trkpt lat="44.75001" lon="5.4467">
        <ele>1028.27</ele>
        <time>2017-06-10T09:24:10Z</time>
      </trkpt>
      <trkpt lat="44.75" lon="5.44679">
        <ele>1029.23</ele>
        <time>2017-06-10T09:24:15Z</time>
      </trkpt>
      <trkpt lat="44.74999" lon="5.44689">
        <ele>1029.23</ele>
        <time>2017-06-10T09:24:21Z</time>
      </trkpt>
      <trkpt lat="44.74997" lon="5.44705">
        <ele>1029.71</ele>
        <time>2017-06-10T09:24:31Z</time>
      </trkpt>
      <trkpt lat="44.74993" lon="5.4472">
        <ele>1030.67</ele>
        <time>2017-06-10T09:24:43Z</time>
      </trkpt>
      <trkpt lat="44.7499" lon="5.44729">
        <ele>1031.15</ele>
        <time>2017-06-10T09:24:50Z</time>
      </trkpt>
      <trkpt lat="44.74983" lon="5.44746">
        <ele>1032.59</ele>
        <time>2017-06-10T09:25:03Z</time>
      </trkpt>
      <trkpt lat="44.74983" lon="5.44752">
        <ele>1032.59</ele>
        <time>2017-06-10T09:25:07Z</time>
      </trkpt>
      <trkpt lat="44.74981" lon="5.44768">
        <ele>1033.55</ele>
        <time>2017-06-10T09:25:20Z</time>
      </trkpt>
      <trkpt lat="44.74975" lon="5.44781">
        <ele>1035</ele>
        <time>2017-06-10T09:25:30Z</time>
      </trkpt>
      <trkpt lat="44.74974" lon="5.44784">
        <ele>1035</ele>
        <time>2017-06-10T09:25:32Z</time>
      </trkpt>
      <trkpt lat="44.74965" lon="5.44798">
        <ele>1036.44</ele>
        <time>2017-06-10T09:25:44Z</time>
      </trkpt>
      <trkpt lat="44.74959" lon="5.44806">
        <ele>1037.4</ele>
        <time>2017-06-10T09:25:53Z</time>
      </trkpt>
      <trkpt lat="44.74959" lon="5.4482">
        <ele>1039.32</ele>
        <time>2017-06-10T09:26:05Z</time>
      </trkpt>
      <trkpt lat="44.74961" lon="5.44837">
        <ele>1040.28</ele>
        <time>2017-06-10T09:26:17Z</time>
      </trkpt>
      <trkpt lat="44.74958" lon="5.44848">
        <ele>1041.25</ele>
        <time>2017-06-10T09:26:29Z</time>
      </trkpt>
      <trkpt lat="44.74955" lon="5.44856">
        <ele>1041.73</ele>
        <time>2017-06-10T09:26:52Z</time>
      </trkpt>
      <trkpt lat="44.74955" lon="5.44856">
        <ele>1041.73</ele>
        <time>2017-06-10T09:26:53Z</time>
      </trkpt>
      <trkpt lat="44.74942" lon="5.44869">
        <ele>1042.69</ele>
        <time>2017-06-10T09:27:04Z</time>
      </trkpt>
      <trkpt lat="44.74936" lon="5.44876">
        <ele>1045.09</ele>
        <time>2017-06-10T09:27:17Z</time>
      </trkpt>
      <trkpt lat="44.74924" lon="5.44886">
        <ele>1047.01</ele>
        <time>2017-06-10T09:27:31Z</time>
      </trkpt>
      <trkpt lat="44.74924" lon="5.44886">
        <ele>1047.01</ele>
        <time>2017-06-10T09:27:52Z</time>
      </trkpt>
      <trkpt lat="44.7492" lon="5.4489">
        <ele>1048.45</ele>
        <time>2017-06-10T09:28:08Z</time>
      </trkpt>
      <trkpt lat="44.74914" lon="5.44896">
        <ele>1050.86</ele>
        <time>2017-06-10T09:28:19Z</time>
      </trkpt>
      <trkpt lat="44.74909" lon="5.449">
        <ele>1053.26</ele>
        <time>2017-06-10T09:28:30Z</time>
      </trkpt>
      <trkpt lat="44.74907" lon="5.449">
        <ele>1055.18</ele>
        <time>2017-06-10T09:28:38Z</time>
      </trkpt>
      <trkpt lat="44.74904" lon="5.449">
        <ele>1056.63</ele>
        <time>2017-06-10T09:28:44Z</time>
      </trkpt>
      <trkpt lat="44.74902" lon="5.44892">
        <ele>1059.03</ele>
        <time>2017-06-10T09:28:55Z</time>
      </trkpt>
      <trkpt lat="44.749" lon="5.44885">
        <ele>1061.91</ele>
        <time>2017-06-10T09:29:05Z</time>
      </trkpt>
      <trkpt lat="44.74894" lon="5.44879">
        <ele>1063.84</ele>
        <time>2017-06-10T09:29:13Z</time>
      </trkpt>
      <trkpt lat="44.7489" lon="5.44883">
        <ele>1065.28</ele>
        <time>2017-06-10T09:29:19Z</time>
      </trkpt>
      <trkpt lat="44.74887" lon="5.44884">
        <ele>1067.2</ele>
        <time>2017-06-10T09:29:29Z</time>
      </trkpt>
      <trkpt lat="44.74883" lon="5.44876">
        <ele>1069.6</ele>
        <time>2017-06-10T09:29:39Z</time>
      </trkpt>
      <trkpt lat="44.74879" lon="5.44874">
        <ele>1072.49</ele>
        <time>2017-06-10T09:29:50Z</time>
      </trkpt>
      <trkpt lat="44.74876" lon="5.44874">
        <ele>1075.37</ele>
        <time>2017-06-10T09:30:01Z</time>
      </trkpt>
      <trkpt lat="44.74874" lon="5.4487">
        <ele>1076.81</ele>
        <time>2017-06-10T09:30:09Z</time>
      </trkpt>
      <trkpt lat="44.74871" lon="5.44862">
        <ele>1078.74</ele>
        <time>2017-06-10T09:30:17Z</time>
      </trkpt>
      <trkpt lat="44.74868" lon="5.44859">
        <ele>1079.7</ele>
        <time>2017-06-10T09:30:20Z</time>
      </trkpt>
      <trkpt lat="44.74863" lon="5.44848">
        <ele>1081.62</ele>
        <time>2017-06-10T09:30:30Z</time>
      </trkpt>
      <trkpt lat="44.74862" lon="5.44846">
        <ele>1082.1</ele>
        <time>2017-06-10T09:30:32Z</time>
      </trkpt>
      <trkpt lat="44.7486" lon="5.44841">
        <ele>1083.06</ele>
        <time>2017-06-10T09:30:36Z</time>
      </trkpt>
      <trkpt lat="44.74855" lon="5.44836">
        <ele>1084.02</ele>
        <time>2017-06-10T09:30:42Z</time>
      </trkpt>
      <trkpt lat="44.74854" lon="5.44834">
        <ele>1084.5</ele>
        <time>2017-06-10T09:30:45Z</time>
      </trkpt>
      <trkpt lat="44.74852" lon="5.44833">
        <ele>1084.99</ele>
        <time>2017-06-10T09:30:48Z</time>
      </trkpt>
      <trkpt lat="44.7484" lon="5.44824">
        <ele>1087.39</ele>
        <time>2017-06-10T09:31:02Z</time>
      </trkpt>
      <trkpt lat="44.74838" lon="5.44822">
        <ele>1088.35</ele>
        <time>2017-06-10T09:31:04Z</time>
      </trkpt>
      <trkpt lat="44.74832" lon="5.44816">
        <ele>1090.75</ele>
        <time>2017-06-10T09:31:16Z</time>
      </trkpt>
      <trkpt lat="44.74823" lon="5.4481">
        <ele>1093.16</ele>
        <time>2017-06-10T09:31:28Z</time>
      </trkpt>
      <trkpt lat="44.74823" lon="5.44809">
        <ele>1094.12</ele>
        <time>2017-06-10T09:31:32Z</time>
      </trkpt>
      <trkpt lat="44.74821" lon="5.44808">
        <ele>1094.12</ele>
        <time>2017-06-10T09:31:34Z</time>
      </trkpt>
      <trkpt lat="44.74811" lon="5.44803">
        <ele>1097</ele>
        <time>2017-06-10T09:31:46Z</time>
      </trkpt>
      <trkpt lat="44.74809" lon="5.44803">
        <ele>1097</ele>
        <time>2017-06-10T09:32:01Z</time>
      </trkpt>
      <trkpt lat="44.74809" lon="5.44803">
        <ele>1097.96</ele>
        <time>2017-06-10T09:32:24Z</time>
      </trkpt>
      <trkpt lat="44.74807" lon="5.44804">
        <ele>1098.44</ele>
        <time>2017-06-10T09:32:49Z</time>
      </trkpt>
      <trkpt lat="44.74804" lon="5.44802">
        <ele>1099.89</ele>
        <time>2017-06-10T09:33:07Z</time>
      </trkpt>
      <trkpt lat="44.74804" lon="5.44802">
        <ele>1099.4</ele>
        <time>2017-06-10T09:33:33Z</time>
      </trkpt>
      <trkpt lat="44.74803" lon="5.448">
        <ele>1100.37</ele>
        <time>2017-06-10T09:33:36Z</time>
      </trkpt>
      <trkpt lat="44.748" lon="5.44797">
        <ele>1102.29</ele>
        <time>2017-06-10T09:33:46Z</time>
      </trkpt>
      <trkpt lat="44.74797" lon="5.44794">
        <ele>1102.77</ele>
        <time>2017-06-10T09:33:49Z</time>
      </trkpt>
      <trkpt lat="44.74793" lon="5.44792">
        <ele>1104.21</ele>
        <time>2017-06-10T09:33:57Z</time>
      </trkpt>
      <trkpt lat="44.74788" lon="5.44784">
        <ele>1106.61</ele>
        <time>2017-06-10T09:34:07Z</time>
      </trkpt>
      <trkpt lat="44.74785" lon="5.44781">
        <ele>1107.1</ele>
        <time>2017-06-10T09:34:11Z</time>
      </trkpt>
      <trkpt lat="44.74783" lon="5.44773">
        <ele>1109.02</ele>
        <time>2017-06-10T09:34:17Z</time>
      </trkpt>
      <trkpt lat="44.74778" lon="5.44773">
        <ele>1110.94</ele>
        <time>2017-06-10T09:34:26Z</time>
      </trkpt>
      <trkpt lat="44.74771" lon="5.4477">
        <ele>1112.38</ele>
        <time>2017-06-10T09:34:35Z</time>
      </trkpt>
      <trkpt lat="44.74765" lon="5.44768">
        <ele>1114.31</ele>
        <time>2017-06-10T09:34:45Z</time>
      </trkpt>
      <trkpt lat="44.74764" lon="5.44768">
        <ele>1116.71</ele>
        <time>2017-06-10T09:34:55Z</time>
      </trkpt>
      <trkpt lat="44.74761" lon="5.44764">
        <ele>1118.63</ele>
        <time>2017-06-10T09:35:05Z</time>
      </trkpt>
      <trkpt lat="44.74757" lon="5.44761">
        <ele>1120.55</ele>
        <time>2017-06-10T09:35:13Z</time>
      </trkpt>
      <trkpt lat="44.74757" lon="5.44761">
        <ele>1120.55</ele>
        <time>2017-06-10T09:35:35Z</time>
      </trkpt>
      <trkpt lat="44.74757" lon="5.4476">
        <ele>1121.03</ele>
        <time>2017-06-10T09:36:00Z</time>
      </trkpt>
      <trkpt lat="44.74757" lon="5.4476">
        <ele>1121.52</ele>
        <time>2017-06-10T09:36:23Z</time>
      </trkpt>
      <trkpt lat="44.74753" lon="5.44761">
        <ele>1122.96</ele>
        <time>2017-06-10T09:36:42Z</time>
      </trkpt>
      <trkpt lat="44.74749" lon="5.44765">
        <ele>1123.92</ele>
        <time>2017-06-10T09:36:54Z</time>
      </trkpt>
      <trkpt lat="44.74751" lon="5.4477">
        <ele>1126.32</ele>
        <time>2017-06-10T09:37:03Z</time>
      </trkpt>
      <trkpt lat="44.74747" lon="5.44772">
        <ele>1127.28</ele>
        <time>2017-06-10T09:37:06Z</time>
      </trkpt>
      <trkpt lat="44.74744" lon="5.44772">
        <ele>1127.76</ele>
        <time>2017-06-10T09:37:09Z</time>
      </trkpt>
      <trkpt lat="44.74738" lon="5.44773">
        <ele>1128.73</ele>
        <time>2017-06-10T09:37:16Z</time>
      </trkpt>
      <trkpt lat="44.74727" lon="5.44769">
        <ele>1129.69</ele>
        <time>2017-06-10T09:37:28Z</time>
      </trkpt>
      <trkpt lat="44.74724" lon="5.44769">
        <ele>1129.69</ele>
        <time>2017-06-10T09:37:31Z</time>
      </trkpt>
      <trkpt lat="44.74714" lon="5.4477">
        <ele>1131.13</ele>
        <time>2017-06-10T09:37:40Z</time>
      </trkpt>
      <trkpt lat="44.74703" lon="5.44771">
        <ele>1133.05</ele>
        <time>2017-06-10T09:37:51Z</time>
      </trkpt>
      <trkpt lat="44.74697" lon="5.44772">
        <ele>1135.45</ele>
        <time>2017-06-10T09:38:01Z</time>
      </trkpt>
      <trkpt lat="44.74689" lon="5.44775">
        <ele>1137.86</ele>
        <time>2017-06-10T09:38:11Z</time>
      </trkpt>
      <trkpt lat="44.74684" lon="5.44776">
        <ele>1138.34</ele>
        <time>2017-06-10T09:38:19Z</time>
      </trkpt>
      <trkpt lat="44.74677" lon="5.44774">
        <ele>1138.82</ele>
        <time>2017-06-10T09:38:24Z</time>
      </trkpt>
      <trkpt lat="44.74669" lon="5.44768">
        <ele>1139.78</ele>
        <time>2017-06-10T09:38:34Z</time>
      </trkpt>
      <trkpt lat="44.74657" lon="5.44763">
        <ele>1140.26</ele>
        <time>2017-06-10T09:38:45Z</time>
      </trkpt>
      <trkpt lat="44.74645" lon="5.44768">
        <ele>1139.78</ele>
        <time>2017-06-10T09:38:57Z</time>
      </trkpt>
      <trkpt lat="44.74634" lon="5.44787">
        <ele>1142.18</ele>
        <time>2017-06-10T09:39:09Z</time>
      </trkpt>
      <trkpt lat="44.7463" lon="5.44798">
        <ele>1144.59</ele>
        <time>2017-06-10T09:39:19Z</time>
      </trkpt>
      <trkpt lat="44.7462" lon="5.44808">
        <ele>1146.99</ele>
        <time>2017-06-10T09:39:32Z</time>
      </trkpt>
      <trkpt lat="44.74614" lon="5.44823">
        <ele>1148.43</ele>
        <time>2017-06-10T09:39:43Z</time>
      </trkpt>
      <trkpt lat="44.74612" lon="5.44838">
        <ele>1151.32</ele>
        <time>2017-06-10T09:39:56Z</time>
      </trkpt>
      <trkpt lat="44.74607" lon="5.44843">
        <ele>1153.72</ele>
        <time>2017-06-10T09:40:09Z</time>
      </trkpt>
      <trkpt lat="44.74605" lon="5.44844">
        <ele>1154.2</ele>
        <time>2017-06-10T09:40:12Z</time>
      </trkpt>
      <trkpt lat="44.74597" lon="5.44847">
        <ele>1156.6</ele>
        <time>2017-06-10T09:40:23Z</time>
      </trkpt>
      <trkpt lat="44.74591" lon="5.44851">
        <ele>1158.53</ele>
        <time>2017-06-10T09:40:34Z</time>
      </trkpt>
      <trkpt lat="44.74591" lon="5.44851">
        <ele>1160.45</ele>
        <time>2017-06-10T09:40:42Z</time>
      </trkpt>
      <trkpt lat="44.74582" lon="5.44848">
        <ele>1162.37</ele>
        <time>2017-06-10T09:40:53Z</time>
      </trkpt>
      <trkpt lat="44.74579" lon="5.44848">
        <ele>1162.37</ele>
        <time>2017-06-10T09:40:57Z</time>
      </trkpt>
      <trkpt lat="44.74566" lon="5.44843">
        <ele>1164.29</ele>
        <time>2017-06-10T09:41:10Z</time>
      </trkpt>
      <trkpt lat="44.74563" lon="5.4484">
        <ele>1166.7</ele>
        <time>2017-06-10T09:41:24Z</time>
      </trkpt>
      <trkpt lat="44.74553" lon="5.44829">
        <ele>1169.58</ele>
        <time>2017-06-10T09:41:35Z</time>
      </trkpt>
      <trkpt lat="44.74551" lon="5.44824">
        <ele>1171.98</ele>
        <time>2017-06-10T09:41:46Z</time>
      </trkpt>
      <trkpt lat="44.74546" lon="5.4482">
        <ele>1173.43</ele>
        <time>2017-06-10T09:41:57Z</time>
      </trkpt>
      <trkpt lat="44.74546" lon="5.4482">
        <ele>1173.43</ele>
        <time>2017-06-10T09:42:09Z</time>
      </trkpt>
      <trkpt lat="44.74533" lon="5.44815">
        <ele>1176.79</ele>
        <time>2017-06-10T09:47:58Z</time>
      </trkpt>
      <trkpt lat="44.74532" lon="5.44814">
        <ele>1177.75</ele>
        <time>2017-06-10T09:48:02Z</time>
      </trkpt>
      <trkpt lat="44.74526" lon="5.44811">
        <ele>1179.67</ele>
        <time>2017-06-10T09:48:09Z</time>
      </trkpt>
      <trkpt lat="44.74519" lon="5.44805">
        <ele>1181.6</ele>
        <time>2017-06-10T09:48:22Z</time>
      </trkpt>
      <trkpt lat="44.74517" lon="5.44805">
        <ele>1184.48</ele>
        <time>2017-06-10T09:48:35Z</time>
      </trkpt>
      <trkpt lat="44.74513" lon="5.44805">
        <ele>1187.85</ele>
        <time>2017-06-10T09:48:47Z</time>
      </trkpt>
      <trkpt lat="44.74513" lon="5.44804">
        <ele>1188.81</ele>
        <time>2017-06-10T09:48:49Z</time>
      </trkpt>
      <trkpt lat="44.74511" lon="5.44804">
        <ele>1189.29</ele>
        <time>2017-06-10T09:48:51Z</time>
      </trkpt>
      <trkpt lat="44.74502" lon="5.44806">
        <ele>1192.17</ele>
        <time>2017-06-10T09:49:03Z</time>
      </trkpt>
      <trkpt lat="44.74501" lon="5.44801">
        <ele>1194.58</ele>
        <time>2017-06-10T09:49:13Z</time>
      </trkpt>
      <trkpt lat="44.74496" lon="5.448">
        <ele>1196.02</ele>
        <time>2017-06-10T09:49:19Z</time>
      </trkpt>
      <trkpt lat="44.74487" lon="5.44796">
        <ele>1197.94</ele>
        <time>2017-06-10T09:49:29Z</time>
      </trkpt>
      <trkpt lat="44.74485" lon="5.44802">
        <ele>1200.34</ele>
        <time>2017-06-10T09:49:43Z</time>
      </trkpt>
      <trkpt lat="44.74483" lon="5.44803">
        <ele>1202.27</ele>
        <time>2017-06-10T09:49:53Z</time>
      </trkpt>
      <trkpt lat="44.74482" lon="5.44803">
        <ele>1203.23</ele>
        <time>2017-06-10T09:50:03Z</time>
      </trkpt>
      <trkpt lat="44.74482" lon="5.44803">
        <ele>1203.71</ele>
        <time>2017-06-10T09:50:18Z</time>
      </trkpt>
      <trkpt lat="44.74477" lon="5.44812">
        <ele>1203.71</ele>
        <time>2017-06-10T09:50:28Z</time>
      </trkpt>
      <trkpt lat="44.74477" lon="5.44812">
        <ele>1204.67</ele>
        <time>2017-06-10T09:50:46Z</time>
      </trkpt>
      <trkpt lat="44.74466" lon="5.44815">
        <ele>1206.11</ele>
        <time>2017-06-10T09:50:56Z</time>
      </trkpt>
      <trkpt lat="44.7445" lon="5.4481">
        <ele>1208.51</ele>
        <time>2017-06-10T09:51:09Z</time>
      </trkpt>
      <trkpt lat="44.7445" lon="5.4481">
        <ele>1208.51</ele>
        <time>2017-06-10T09:51:10Z</time>
      </trkpt>
      <trkpt lat="44.74445" lon="5.44802">
        <ele>1210.44</ele>
        <time>2017-06-10T09:51:21Z</time>
      </trkpt>
      <trkpt lat="44.74443" lon="5.44797">
        <ele>1212.84</ele>
        <time>2017-06-10T09:51:31Z</time>
      </trkpt>
      <trkpt lat="44.74443" lon="5.44796">
        <ele>1212.36</ele>
        <time>2017-06-10T09:51:32Z</time>
      </trkpt>
      <trkpt lat="44.74437" lon="5.4479">
        <ele>1216.21</ele>
        <time>2017-06-10T09:51:45Z</time>
      </trkpt>
      <trkpt lat="44.74431" lon="5.44791">
        <ele>1217.65</ele>
        <time>2017-06-10T09:51:54Z</time>
      </trkpt>
      <trkpt lat="44.7443" lon="5.44791">
        <ele>1218.61</ele>
        <time>2017-06-10T09:51:57Z</time>
      </trkpt>
      <trkpt lat="44.74428" lon="5.44792">
        <ele>1221.49</ele>
        <time>2017-06-10T09:52:09Z</time>
      </trkpt>
      <trkpt lat="44.74424" lon="5.448">
        <ele>1223.42</ele>
        <time>2017-06-10T09:52:20Z</time>
      </trkpt>
      <trkpt lat="44.74412" lon="5.44809">
        <ele>1226.3</ele>
        <time>2017-06-10T09:52:32Z</time>
      </trkpt>
      <trkpt lat="44.74405" lon="5.4481">
        <ele>1228.22</ele>
        <time>2017-06-10T09:52:43Z</time>
      </trkpt>
      <trkpt lat="44.74395" lon="5.44814">
        <ele>1230.14</ele>
        <time>2017-06-10T09:52:56Z</time>
      </trkpt>
      <trkpt lat="44.74392" lon="5.44816">
        <ele>1229.18</ele>
        <time>2017-06-10T09:53:07Z</time>
      </trkpt>
      <trkpt lat="44.74387" lon="5.44836">
        <ele>1230.14</ele>
        <time>2017-06-10T09:53:19Z</time>
      </trkpt>
      <trkpt lat="44.74386" lon="5.44837">
        <ele>1226.78</ele>
        <time>2017-06-10T09:53:20Z</time>
      </trkpt>
      <trkpt lat="44.74385" lon="5.44838">
        <ele>1231.59</ele>
        <time>2017-06-10T09:53:21Z</time>
      </trkpt>
      <trkpt lat="44.74385" lon="5.44838">
        <ele>1226.78</ele>
        <time>2017-06-10T09:53:22Z</time>
      </trkpt>
      <trkpt lat="44.74385" lon="5.44839">
        <ele>1232.07</ele>
        <time>2017-06-10T09:53:23Z</time>
      </trkpt>
      <trkpt lat="44.7438" lon="5.44848">
        <ele>1229.66</ele>
        <time>2017-06-10T09:53:35Z</time>
      </trkpt>
      <trkpt lat="44.7438" lon="5.44848">
        <ele>1229.66</ele>
        <time>2017-06-10T09:53:57Z</time>
      </trkpt>
      <trkpt lat="44.7438" lon="5.44848">
        <ele>1229.66</ele>
        <time>2017-06-10T09:54:19Z</time>
      </trkpt>
      <trkpt lat="44.7438" lon="5.44848">
        <ele>1229.66</ele>
        <time>2017-06-10T09:54:43Z</time>
      </trkpt>
      <trkpt lat="44.7438" lon="5.44848">
        <ele>1229.66</ele>
        <time>2017-06-10T09:55:10Z</time>
      </trkpt>
      <trkpt lat="44.74379" lon="5.4485">
        <ele>1229.66</ele>
        <time>2017-06-10T09:55:34Z</time>
      </trkpt>
      <trkpt lat="44.74372" lon="5.44853">
        <ele>1229.18</ele>
        <time>2017-06-10T09:55:46Z</time>
      </trkpt>
      <trkpt lat="44.74363" lon="5.44862">
        <ele>1229.66</ele>
        <time>2017-06-10T09:55:57Z</time>
      </trkpt>
      <trkpt lat="44.74358" lon="5.44865">
        <ele>1230.14</ele>
        <time>2017-06-10T09:56:02Z</time>
      </trkpt>
      <trkpt lat="44.7435" lon="5.44867">
        <ele>1230.62</ele>
        <time>2017-06-10T09:56:14Z</time>
      </trkpt>
      <trkpt lat="44.7434" lon="5.44867">
        <ele>1233.03</ele>
        <time>2017-06-10T09:56:26Z</time>
      </trkpt>
      <trkpt lat="44.74331" lon="5.44868">
        <ele>1235.43</ele>
        <time>2017-06-10T09:56:36Z</time>
      </trkpt>
      <trkpt lat="44.74324" lon="5.4487">
        <ele>1235.91</ele>
        <time>2017-06-10T09:56:46Z</time>
      </trkpt>
      <trkpt lat="44.74312" lon="5.4487">
        <ele>1236.39</ele>
        <time>2017-06-10T09:56:58Z</time>
      </trkpt>
      <trkpt lat="44.74299" lon="5.4487">
        <ele>1235.43</ele>
        <time>2017-06-10T09:57:12Z</time>
      </trkpt>
      <trkpt lat="44.74293" lon="5.44874">
        <ele>1235.91</ele>
        <time>2017-06-10T09:57:26Z</time>
      </trkpt>
      <trkpt lat="44.74281" lon="5.44873">
        <ele>1238.32</ele>
        <time>2017-06-10T09:57:37Z</time>
      </trkpt>
      <trkpt lat="44.74272" lon="5.44878">
        <ele>1240.72</ele>
        <time>2017-06-10T09:57:49Z</time>
      </trkpt>
      <trkpt lat="44.74268" lon="5.4488">
        <ele>1242.64</ele>
        <time>2017-06-10T09:57:57Z</time>
      </trkpt>
      <trkpt lat="44.74253" lon="5.4488">
        <ele>1245.04</ele>
        <time>2017-06-10T09:58:12Z</time>
      </trkpt>
      <trkpt lat="44.74244" lon="5.44876">
        <ele>1245.04</ele>
        <time>2017-06-10T09:58:21Z</time>
      </trkpt>
      <trkpt lat="44.74236" lon="5.44874">
        <ele>1246.01</ele>
        <time>2017-06-10T09:58:30Z</time>
      </trkpt>
      <trkpt lat="44.74222" lon="5.44871">
        <ele>1246.97</ele>
        <time>2017-06-10T09:58:44Z</time>
      </trkpt>
      <trkpt lat="44.74209" lon="5.44873">
        <ele>1250.33</ele>
        <time>2017-06-10T09:58:57Z</time>
      </trkpt>
      <trkpt lat="44.74203" lon="5.44877">
        <ele>1252.25</ele>
        <time>2017-06-10T09:59:08Z</time>
      </trkpt>
      <trkpt lat="44.74197" lon="5.44876">
        <ele>1254.66</ele>
        <time>2017-06-10T09:59:17Z</time>
      </trkpt>
      <trkpt lat="44.74195" lon="5.44881">
        <ele>1255.14</ele>
        <time>2017-06-10T09:59:20Z</time>
      </trkpt>
      <trkpt lat="44.74192" lon="5.44889">
        <ele>1257.54</ele>
        <time>2017-06-10T09:59:29Z</time>
      </trkpt>
      <trkpt lat="44.74192" lon="5.44893">
        <ele>1258.5</ele>
        <time>2017-06-10T09:59:41Z</time>
      </trkpt>
      <trkpt lat="44.74193" lon="5.44896">
        <ele>1258.98</ele>
        <time>2017-06-10T10:00:00Z</time>
      </trkpt>
      <trkpt lat="44.74197" lon="5.44902">
        <ele>1260.91</ele>
        <time>2017-06-10T10:00:11Z</time>
      </trkpt>
      <trkpt lat="44.742" lon="5.44908">
        <ele>1262.35</ele>
        <time>2017-06-10T10:00:22Z</time>
      </trkpt>
      <trkpt lat="44.742" lon="5.44908">
        <ele>1262.83</ele>
        <time>2017-06-10T10:00:25Z</time>
      </trkpt>
      <trkpt lat="44.74204" lon="5.44915">
        <ele>1264.75</ele>
        <time>2017-06-10T10:00:36Z</time>
      </trkpt>
      <trkpt lat="44.74205" lon="5.44918">
        <ele>1265.71</ele>
        <time>2017-06-10T10:00:50Z</time>
      </trkpt>
      <trkpt lat="44.7421" lon="5.4492">
        <ele>1268.12</ele>
        <time>2017-06-10T10:01:00Z</time>
      </trkpt>
      <trkpt lat="44.7421" lon="5.44928">
        <ele>1269.56</ele>
        <time>2017-06-10T10:01:10Z</time>
      </trkpt>
      <trkpt lat="44.74211" lon="5.44937">
        <ele>1272.44</ele>
        <time>2017-06-10T10:01:22Z</time>
      </trkpt>
      <trkpt lat="44.74214" lon="5.4494">
        <ele>1274.36</ele>
        <time>2017-06-10T10:01:32Z</time>
      </trkpt>
      <trkpt lat="44.74219" lon="5.44942">
        <ele>1277.25</ele>
        <time>2017-06-10T10:01:43Z</time>
      </trkpt>
      <trkpt lat="44.74228" lon="5.44951">
        <ele>1280.61</ele>
        <time>2017-06-10T10:01:58Z</time>
      </trkpt>
      <trkpt lat="44.74226" lon="5.44956">
        <ele>1283.02</ele>
        <time>2017-06-10T10:02:10Z</time>
      </trkpt>
      <trkpt lat="44.74224" lon="5.44961">
        <ele>1285.42</ele>
        <time>2017-06-10T10:02:22Z</time>
      </trkpt>
      <trkpt lat="44.74224" lon="5.44965">
        <ele>1287.82</ele>
        <time>2017-06-10T10:02:33Z</time>
      </trkpt>
      <trkpt lat="44.74229" lon="5.44972">
        <ele>1290.71</ele>
        <time>2017-06-10T10:02:46Z</time>
      </trkpt>
      <trkpt lat="44.74234" lon="5.44977">
        <ele>1292.63</ele>
        <time>2017-06-10T10:02:57Z</time>
      </trkpt>
      <trkpt lat="44.74237" lon="5.44982">
        <ele>1293.59</ele>
        <time>2017-06-10T10:03:04Z</time>
      </trkpt>
      <trkpt lat="44.74236" lon="5.44981">
        <ele>1295.51</ele>
        <time>2017-06-10T10:03:15Z</time>
      </trkpt>
      <trkpt lat="44.74241" lon="5.44985">
        <ele>1298.88</ele>
        <time>2017-06-10T10:03:29Z</time>
      </trkpt>
      <trkpt lat="44.74248" lon="5.44994">
        <ele>1301.76</ele>
        <time>2017-06-10T10:03:43Z</time>
      </trkpt>
      <trkpt lat="44.7425" lon="5.44998">
        <ele>1302.72</ele>
        <time>2017-06-10T10:03:48Z</time>
      </trkpt>
      <trkpt lat="44.74255" lon="5.45006">
        <ele>1304.65</ele>
        <time>2017-06-10T10:03:57Z</time>
      </trkpt>
      <trkpt lat="44.7426" lon="5.45007">
        <ele>1306.09</ele>
        <time>2017-06-10T10:04:11Z</time>
      </trkpt>
      <trkpt lat="44.7426" lon="5.45007">
        <ele>1306.57</ele>
        <time>2017-06-10T10:04:32Z</time>
      </trkpt>
      <trkpt lat="44.7426" lon="5.45005">
        <ele>1306.57</ele>
        <time>2017-06-10T10:04:58Z</time>
      </trkpt>
      <trkpt lat="44.7426" lon="5.45005">
        <ele>1307.05</ele>
        <time>2017-06-10T10:05:23Z</time>
      </trkpt>
      <trkpt lat="44.7426" lon="5.45004">
        <ele>1307.05</ele>
        <time>2017-06-10T10:05:45Z</time>
      </trkpt>
      <trkpt lat="44.7426" lon="5.45005">
        <ele>1307.05</ele>
        <time>2017-06-10T10:06:08Z</time>
      </trkpt>
      <trkpt lat="44.7426" lon="5.45005">
        <ele>1307.05</ele>
        <time>2017-06-10T10:06:22Z</time>
      </trkpt>
      <trkpt lat="44.74259" lon="5.45002">
        <ele>1307.05</ele>
        <time>2017-06-10T10:06:37Z</time>
      </trkpt>
      <trkpt lat="44.7426" lon="5.44999">
        <ele>1307.53</ele>
        <time>2017-06-10T10:06:59Z</time>
      </trkpt>
      <trkpt lat="44.7426" lon="5.44999">
        <ele>1308.01</ele>
        <time>2017-06-10T10:07:20Z</time>
      </trkpt>
      <trkpt lat="44.7426" lon="5.44999">
        <ele>1308.01</ele>
        <time>2017-06-10T10:07:42Z</time>
      </trkpt>
      <trkpt lat="44.74261" lon="5.45">
        <ele>1308.49</ele>
        <time>2017-06-10T10:08:07Z</time>
      </trkpt>
      <trkpt lat="44.74261" lon="5.45">
        <ele>1308.49</ele>
        <time>2017-06-10T10:08:41Z</time>
      </trkpt>
      <trkpt lat="44.74262" lon="5.45003">
        <ele>1310.41</ele>
        <time>2017-06-10T10:09:00Z</time>
      </trkpt>
      <trkpt lat="44.74259" lon="5.45004">
        <ele>1313.78</ele>
        <time>2017-06-10T10:09:14Z</time>
      </trkpt>
      <trkpt lat="44.74262" lon="5.45011">
        <ele>1315.7</ele>
        <time>2017-06-10T10:09:28Z</time>
      </trkpt>
      <trkpt lat="44.74268" lon="5.45022">
        <ele>1318.59</ele>
        <time>2017-06-10T10:09:39Z</time>
      </trkpt>
      <trkpt lat="44.74269" lon="5.45028">
        <ele>1320.99</ele>
        <time>2017-06-10T10:09:50Z</time>
      </trkpt>
      <trkpt lat="44.74266" lon="5.45027">
        <ele>1323.87</ele>
        <time>2017-06-10T10:10:03Z</time>
      </trkpt>
      <trkpt lat="44.74261" lon="5.45026">
        <ele>1326.76</ele>
        <time>2017-06-10T10:10:15Z</time>
      </trkpt>
      <trkpt lat="44.74253" lon="5.45023">
        <ele>1328.68</ele>
        <time>2017-06-10T10:10:28Z</time>
      </trkpt>
      <trkpt lat="44.74244" lon="5.45026">
        <ele>1330.12</ele>
        <time>2017-06-10T10:10:38Z</time>
      </trkpt>
      <trkpt lat="44.74238" lon="5.45029">
        <ele>1333.01</ele>
        <time>2017-06-10T10:10:50Z</time>
      </trkpt>
      <trkpt lat="44.74233" lon="5.45029">
        <ele>1334.45</ele>
        <time>2017-06-10T10:10:59Z</time>
      </trkpt>
      <trkpt lat="44.74231" lon="5.45032">
        <ele>1335.89</ele>
        <time>2017-06-10T10:11:08Z</time>
      </trkpt>
      <trkpt lat="44.74229" lon="5.45032">
        <ele>1336.85</ele>
        <time>2017-06-10T10:11:12Z</time>
      </trkpt>
      <trkpt lat="44.74227" lon="5.45035">
        <ele>1337.81</ele>
        <time>2017-06-10T10:11:17Z</time>
      </trkpt>
      <trkpt lat="44.74227" lon="5.45043">
        <ele>1340.22</ele>
        <time>2017-06-10T10:11:26Z</time>
      </trkpt>
      <trkpt lat="44.74227" lon="5.45043">
        <ele>1340.7</ele>
        <time>2017-06-10T10:11:30Z</time>
      </trkpt>
      <trkpt lat="44.74224" lon="5.45045">
        <ele>1341.18</ele>
        <time>2017-06-10T10:11:41Z</time>
      </trkpt>
      <trkpt lat="44.74226" lon="5.45046">
        <ele>1341.66</ele>
        <time>2017-06-10T10:11:47Z</time>
      </trkpt>
      <trkpt lat="44.74229" lon="5.45046">
        <ele>1343.1</ele>
        <time>2017-06-10T10:11:59Z</time>
      </trkpt>
      <trkpt lat="44.74229" lon="5.45045">
        <ele>1343.1</ele>
        <time>2017-06-10T10:12:13Z</time>
      </trkpt>
      <trkpt lat="44.74229" lon="5.45045">
        <ele>1343.1</ele>
        <time>2017-06-10T10:12:39Z</time>
      </trkpt>
      <trkpt lat="44.74229" lon="5.45045">
        <ele>1343.1</ele>
        <time>2017-06-10T10:13:01Z</time>
      </trkpt>
      <trkpt lat="44.74229" lon="5.45044">
        <ele>1343.58</ele>
        <time>2017-06-10T10:13:30Z</time>
      </trkpt>
      <trkpt lat="44.74231" lon="5.45047">
        <ele>1344.06</ele>
        <time>2017-06-10T10:13:51Z</time>
      </trkpt>
      <trkpt lat="44.74237" lon="5.45051">
        <ele>1345.02</ele>
        <time>2017-06-10T10:14:00Z</time>
      </trkpt>
      <trkpt lat="44.74237" lon="5.45051">
        <ele>1344.54</ele>
        <time>2017-06-10T10:14:12Z</time>
      </trkpt>
      <trkpt lat="44.74237" lon="5.45051">
        <ele>1343.58</ele>
        <time>2017-06-10T10:14:15Z</time>
      </trkpt>
      <trkpt lat="44.74244" lon="5.45059">
        <ele>1346.94</ele>
        <time>2017-06-10T10:14:27Z</time>
      </trkpt>
      <trkpt lat="44.74256" lon="5.45064">
        <ele>1348.87</ele>
        <time>2017-06-10T10:14:41Z</time>
      </trkpt>
      <trkpt lat="44.74258" lon="5.45065">
        <ele>1350.31</ele>
        <time>2017-06-10T10:14:46Z</time>
      </trkpt>
      <trkpt lat="44.74268" lon="5.45072">
        <ele>1351.75</ele>
        <time>2017-06-10T10:14:55Z</time>
      </trkpt>
      <trkpt lat="44.74271" lon="5.45073">
        <ele>1351.75</ele>
        <time>2017-06-10T10:14:58Z</time>
      </trkpt>
      <trkpt lat="44.74276" lon="5.45074">
        <ele>1352.23</ele>
        <time>2017-06-10T10:15:02Z</time>
      </trkpt>
      <trkpt lat="44.74278" lon="5.45077">
        <ele>1352.23</ele>
        <time>2017-06-10T10:15:05Z</time>
      </trkpt>
      <trkpt lat="44.74285" lon="5.45082">
        <ele>1354.15</ele>
        <time>2017-06-10T10:15:17Z</time>
      </trkpt>
      <trkpt lat="44.74292" lon="5.45085">
        <ele>1355.6</ele>
        <time>2017-06-10T10:15:28Z</time>
      </trkpt>
      <trkpt lat="44.74293" lon="5.45085">
        <ele>1355.6</ele>
        <time>2017-06-10T10:15:42Z</time>
      </trkpt>
      <trkpt lat="44.74293" lon="5.45085">
        <ele>1356.08</ele>
        <time>2017-06-10T10:16:12Z</time>
      </trkpt>
      <trkpt lat="44.74293" lon="5.45086">
        <ele>1356.56</ele>
        <time>2017-06-10T10:16:24Z</time>
      </trkpt>
      <trkpt lat="44.74293" lon="5.45086">
        <ele>1357.04</ele>
        <time>2017-06-10T10:16:52Z</time>
      </trkpt>
      <trkpt lat="44.74295" lon="5.45085">
        <ele>1357.04</ele>
        <time>2017-06-10T10:17:04Z</time>
      </trkpt>
      <trkpt lat="44.74295" lon="5.45084">
        <ele>1356.56</ele>
        <time>2017-06-10T10:17:22Z</time>
      </trkpt>
      <trkpt lat="44.74295" lon="5.45085">
        <ele>1356.56</ele>
        <time>2017-06-10T10:17:34Z</time>
      </trkpt>
      <trkpt lat="44.74295" lon="5.45085">
        <ele>1356.56</ele>
        <time>2017-06-10T10:18:04Z</time>
      </trkpt>
      <trkpt lat="44.74295" lon="5.45085">
        <ele>1357.04</ele>
        <time>2017-06-10T10:18:38Z</time>
      </trkpt>
      <trkpt lat="44.74295" lon="5.45086">
        <ele>1357.04</ele>
        <time>2017-06-10T10:19:05Z</time>
      </trkpt>
      <trkpt lat="44.74295" lon="5.45086">
        <ele>1357.04</ele>
        <time>2017-06-10T10:19:24Z</time>
      </trkpt>
      <trkpt lat="44.74295" lon="5.45086">
        <ele>1357.04</ele>
        <time>2017-06-10T10:19:42Z</time>
      </trkpt>
      <trkpt lat="44.74297" lon="5.45088">
        <ele>1358</ele>
        <time>2017-06-10T10:19:50Z</time>
      </trkpt>
      <trkpt lat="44.74297" lon="5.45089">
        <ele>1358.96</ele>
        <time>2017-06-10T10:19:52Z</time>
      </trkpt>
      <trkpt lat="44.74298" lon="5.4509">
        <ele>1359.44</ele>
        <time>2017-06-10T10:19:53Z</time>
      </trkpt>
      <trkpt lat="44.74299" lon="5.45094">
        <ele>1360.4</ele>
        <time>2017-06-10T10:19:56Z</time>
      </trkpt>
      <trkpt lat="44.74303" lon="5.45101">
        <ele>1361.84</ele>
        <time>2017-06-10T10:20:06Z</time>
      </trkpt>
      <trkpt lat="44.74305" lon="5.45102">
        <ele>1363.29</ele>
        <time>2017-06-10T10:20:10Z</time>
      </trkpt>
      <trkpt lat="44.74314" lon="5.451">
        <ele>1362.33</ele>
        <time>2017-06-10T10:20:20Z</time>
      </trkpt>
      <trkpt lat="44.74317" lon="5.45098">
        <ele>1361.84</ele>
        <time>2017-06-10T10:20:23Z</time>
      </trkpt>
      <trkpt lat="44.74326" lon="5.45102">
        <ele>1362.33</ele>
        <time>2017-06-10T10:20:31Z</time>
      </trkpt>
      <trkpt lat="44.74329" lon="5.45105">
        <ele>1363.29</ele>
        <time>2017-06-10T10:20:35Z</time>
      </trkpt>
      <trkpt lat="44.74333" lon="5.45106">
        <ele>1364.73</ele>
        <time>2017-06-10T10:20:39Z</time>
      </trkpt>
      <trkpt lat="44.74335" lon="5.45108">
        <ele>1364.25</ele>
        <time>2017-06-10T10:20:42Z</time>
      </trkpt>
      <trkpt lat="44.7434" lon="5.45111">
        <ele>1364.25</ele>
        <time>2017-06-10T10:20:47Z</time>
      </trkpt>
      <trkpt lat="44.74345" lon="5.45118">
        <ele>1366.65</ele>
        <time>2017-06-10T10:21:00Z</time>
      </trkpt>
      <trkpt lat="44.74349" lon="5.45125">
        <ele>1369.54</ele>
        <time>2017-06-10T10:21:11Z</time>
      </trkpt>
      <trkpt lat="44.74349" lon="5.45132">
        <ele>1372.42</ele>
        <time>2017-06-10T10:21:23Z</time>
      </trkpt>
      <trkpt lat="44.74348" lon="5.45137">
        <ele>1373.86</ele>
        <time>2017-06-10T10:21:29Z</time>
      </trkpt>
      <trkpt lat="44.74347" lon="5.45144">
        <ele>1376.75</ele>
        <time>2017-06-10T10:21:41Z</time>
      </trkpt>
      <trkpt lat="44.74345" lon="5.45146">
        <ele>1377.71</ele>
        <time>2017-06-10T10:21:47Z</time>
      </trkpt>
      <trkpt lat="44.74348" lon="5.45153">
        <ele>1380.59</ele>
        <time>2017-06-10T10:21:59Z</time>
      </trkpt>
      <trkpt lat="44.74347" lon="5.45158">
        <ele>1382.51</ele>
        <time>2017-06-10T10:22:10Z</time>
      </trkpt>
      <trkpt lat="44.74343" lon="5.4516">
        <ele>1385.4</ele>
        <time>2017-06-10T10:22:20Z</time>
      </trkpt>
      <trkpt lat="44.74339" lon="5.45166">
        <ele>1386.84</ele>
        <time>2017-06-10T10:22:30Z</time>
      </trkpt>
      <trkpt lat="44.74332" lon="5.45165">
        <ele>1388.76</ele>
        <time>2017-06-10T10:22:39Z</time>
      </trkpt>
      <trkpt lat="44.74329" lon="5.45166">
        <ele>1389.24</ele>
        <time>2017-06-10T10:22:43Z</time>
      </trkpt>
      <trkpt lat="44.74325" lon="5.45168">
        <ele>1390.2</ele>
        <time>2017-06-10T10:22:48Z</time>
      </trkpt>
      <trkpt lat="44.74318" lon="5.45175">
        <ele>1392.61</ele>
        <time>2017-06-10T10:23:00Z</time>
      </trkpt>
      <trkpt lat="44.74316" lon="5.45183">
        <ele>1395.49</ele>
        <time>2017-06-10T10:23:13Z</time>
      </trkpt>
      <trkpt lat="44.74313" lon="5.4519">
        <ele>1397.89</ele>
        <time>2017-06-10T10:23:24Z</time>
      </trkpt>
      <trkpt lat="44.74313" lon="5.45194">
        <ele>1400.3</ele>
        <time>2017-06-10T10:23:33Z</time>
      </trkpt>
      <trkpt lat="44.74315" lon="5.45199">
        <ele>1402.22</ele>
        <time>2017-06-10T10:23:43Z</time>
      </trkpt>
      <trkpt lat="44.74322" lon="5.45213">
        <ele>1404.62</ele>
        <time>2017-06-10T10:23:58Z</time>
      </trkpt>
      <trkpt lat="44.74327" lon="5.45218">
        <ele>1407.03</ele>
        <time>2017-06-10T10:24:09Z</time>
      </trkpt>
      <trkpt lat="44.74334" lon="5.45228">
        <ele>1409.91</ele>
        <time>2017-06-10T10:24:23Z</time>
      </trkpt>
      <trkpt lat="44.74342" lon="5.4524">
        <ele>1412.31</ele>
        <time>2017-06-10T10:24:37Z</time>
      </trkpt>
      <trkpt lat="44.74347" lon="5.45244">
        <ele>1414.72</ele>
        <time>2017-06-10T10:24:50Z</time>
      </trkpt>
      <trkpt lat="44.74357" lon="5.45255">
        <ele>1417.6</ele>
        <time>2017-06-10T10:25:05Z</time>
      </trkpt>
      <trkpt lat="44.74365" lon="5.45261">
        <ele>1419.52</ele>
        <time>2017-06-10T10:25:17Z</time>
      </trkpt>
      <trkpt lat="44.74374" lon="5.45262">
        <ele>1421.45</ele>
        <time>2017-06-10T10:25:28Z</time>
      </trkpt>
      <trkpt lat="44.74381" lon="5.45264">
        <ele>1423.37</ele>
        <time>2017-06-10T10:25:38Z</time>
      </trkpt>
      <trkpt lat="44.74382" lon="5.4527">
        <ele>1425.77</ele>
        <time>2017-06-10T10:25:49Z</time>
      </trkpt>
      <trkpt lat="44.74382" lon="5.45274">
        <ele>1428.18</ele>
        <time>2017-06-10T10:26:00Z</time>
      </trkpt>
      <trkpt lat="44.74381" lon="5.45281">
        <ele>1430.58</ele>
        <time>2017-06-10T10:26:10Z</time>
      </trkpt>
      <trkpt lat="44.74379" lon="5.45285">
        <ele>1432.98</ele>
        <time>2017-06-10T10:26:20Z</time>
      </trkpt>
      <trkpt lat="44.74379" lon="5.45289">
        <ele>1432.98</ele>
        <time>2017-06-10T10:26:23Z</time>
      </trkpt>
      <trkpt lat="44.74375" lon="5.45293">
        <ele>1434.91</ele>
        <time>2017-06-10T10:26:31Z</time>
      </trkpt>
      <trkpt lat="44.74372" lon="5.45301">
        <ele>1436.83</ele>
        <time>2017-06-10T10:26:42Z</time>
      </trkpt>
      <trkpt lat="44.7437" lon="5.4531">
        <ele>1439.23</ele>
        <time>2017-06-10T10:26:52Z</time>
      </trkpt>
      <trkpt lat="44.74362" lon="5.45315">
        <ele>1441.63</ele>
        <time>2017-06-10T10:27:05Z</time>
      </trkpt>
      <trkpt lat="44.74357" lon="5.45317">
        <ele>1442.6</ele>
        <time>2017-06-10T10:27:13Z</time>
      </trkpt>
      <trkpt lat="44.74347" lon="5.4532">
        <ele>1444.52</ele>
        <time>2017-06-10T10:27:25Z</time>
      </trkpt>
      <trkpt lat="44.74339" lon="5.45322">
        <ele>1446.44</ele>
        <time>2017-06-10T10:27:36Z</time>
      </trkpt>
      <trkpt lat="44.74333" lon="5.45327">
        <ele>1449.32</ele>
        <time>2017-06-10T10:27:49Z</time>
      </trkpt>
      <trkpt lat="44.74327" lon="5.45331">
        <ele>1451.25</ele>
        <time>2017-06-10T10:27:58Z</time>
      </trkpt>
      <trkpt lat="44.74316" lon="5.45334">
        <ele>1453.65</ele>
        <time>2017-06-10T10:28:13Z</time>
      </trkpt>
      <trkpt lat="44.74314" lon="5.4534">
        <ele>1457.02</ele>
        <time>2017-06-10T10:28:25Z</time>
      </trkpt>
      <trkpt lat="44.74315" lon="5.45351">
        <ele>1458.46</ele>
        <time>2017-06-10T10:28:36Z</time>
      </trkpt>
      <trkpt lat="44.74318" lon="5.45359">
        <ele>1460.86</ele>
        <time>2017-06-10T10:28:48Z</time>
      </trkpt>
      <trkpt lat="44.74326" lon="5.45373">
        <ele>1463.26</ele>
        <time>2017-06-10T10:29:03Z</time>
      </trkpt>
      <trkpt lat="44.74335" lon="5.45384">
        <ele>1466.63</ele>
        <time>2017-06-10T10:29:18Z</time>
      </trkpt>
      <trkpt lat="44.74342" lon="5.45392">
        <ele>1469.03</ele>
        <time>2017-06-10T10:29:33Z</time>
      </trkpt>
      <trkpt lat="44.74349" lon="5.454">
        <ele>1471.44</ele>
        <time>2017-06-10T10:29:44Z</time>
      </trkpt>
      <trkpt lat="44.74349" lon="5.45406">
        <ele>1474.32</ele>
        <time>2017-06-10T10:29:57Z</time>
      </trkpt>
      <trkpt lat="44.74346" lon="5.45409">
        <ele>1476.72</ele>
        <time>2017-06-10T10:30:07Z</time>
      </trkpt>
      <trkpt lat="44.74342" lon="5.45419">
        <ele>1479.13</ele>
        <time>2017-06-10T10:30:18Z</time>
      </trkpt>
      <trkpt lat="44.74339" lon="5.45419">
        <ele>1478.16</ele>
        <time>2017-06-10T10:30:27Z</time>
      </trkpt>
      <trkpt lat="44.74334" lon="5.45424">
        <ele>1476.72</ele>
        <time>2017-06-10T10:30:40Z</time>
      </trkpt>
      <trkpt lat="44.74336" lon="5.45424">
        <ele>1477.2</ele>
        <time>2017-06-10T10:30:51Z</time>
      </trkpt>
      <trkpt lat="44.74344" lon="5.45424">
        <ele>1479.13</ele>
        <time>2017-06-10T10:31:01Z</time>
      </trkpt>
      <trkpt lat="44.74347" lon="5.45424">
        <ele>1480.09</ele>
        <time>2017-06-10T10:31:11Z</time>
      </trkpt>
      <trkpt lat="44.74347" lon="5.45424">
        <ele>1480.57</ele>
        <time>2017-06-10T10:31:22Z</time>
      </trkpt>
      <trkpt lat="44.74377" lon="5.45491">
        <ele>1508.45</ele>
        <time>2017-06-10T11:16:59Z</time>
      </trkpt>
      <trkpt lat="44.74378" lon="5.45491">
        <ele>1508.93</ele>
        <time>2017-06-10T11:17:00Z</time>
      </trkpt>
      <trkpt lat="44.74383" lon="5.4549">
        <ele>1513.25</ele>
        <time>2017-06-10T11:17:09Z</time>
      </trkpt>
      <trkpt lat="44.74384" lon="5.4549">
        <ele>1513.25</ele>
        <time>2017-06-10T11:17:10Z</time>
      </trkpt>
      <trkpt lat="44.74386" lon="5.45488">
        <ele>1515.18</ele>
        <time>2017-06-10T11:17:13Z</time>
      </trkpt>
      <trkpt lat="44.74389" lon="5.45489">
        <ele>1519.02</ele>
        <time>2017-06-10T11:17:18Z</time>
      </trkpt>
      <trkpt lat="44.7439" lon="5.45489">
        <ele>1519.5</ele>
        <time>2017-06-10T11:17:20Z</time>
      </trkpt>
      <trkpt lat="44.74391" lon="5.45489">
        <ele>1520.94</ele>
        <time>2017-06-10T11:17:23Z</time>
      </trkpt>
      <trkpt lat="44.74392" lon="5.4549">
        <ele>1522.39</ele>
        <time>2017-06-10T11:17:25Z</time>
      </trkpt>
      <trkpt lat="44.74394" lon="5.45491">
        <ele>1523.35</ele>
        <time>2017-06-10T11:17:27Z</time>
      </trkpt>
      <trkpt lat="44.74396" lon="5.45491">
        <ele>1524.31</ele>
        <time>2017-06-10T11:17:29Z</time>
      </trkpt>
      <trkpt lat="44.74398" lon="5.45494">
        <ele>1527.67</ele>
        <time>2017-06-10T11:17:35Z</time>
      </trkpt>
      <trkpt lat="44.74401" lon="5.45495">
        <ele>1528.63</ele>
        <time>2017-06-10T11:17:38Z</time>
      </trkpt>
      <trkpt lat="44.74403" lon="5.45498">
        <ele>1531.52</ele>
        <time>2017-06-10T11:17:44Z</time>
      </trkpt>
      <trkpt lat="44.74405" lon="5.455">
        <ele>1532.96</ele>
        <time>2017-06-10T11:17:47Z</time>
      </trkpt>
      <trkpt lat="44.74406" lon="5.45505">
        <ele>1536.32</ele>
        <time>2017-06-10T11:17:57Z</time>
      </trkpt>
      <trkpt lat="44.74413" lon="5.45514">
        <ele>1539.21</ele>
        <time>2017-06-10T11:18:07Z</time>
      </trkpt>
      <trkpt lat="44.74414" lon="5.4552">
        <ele>1541.13</ele>
        <time>2017-06-10T11:18:18Z</time>
      </trkpt>
      <trkpt lat="44.74419" lon="5.45526">
        <ele>1543.53</ele>
        <time>2017-06-10T11:18:30Z</time>
      </trkpt>
      <trkpt lat="44.74424" lon="5.45535">
        <ele>1546.42</ele>
        <time>2017-06-10T11:18:43Z</time>
      </trkpt>
      <trkpt lat="44.74427" lon="5.45542">
        <ele>1548.82</ele>
        <time>2017-06-10T11:18:54Z</time>
      </trkpt>
      <trkpt lat="44.74427" lon="5.45549">
        <ele>1550.74</ele>
        <time>2017-06-10T11:19:06Z</time>
      </trkpt>
      <trkpt lat="44.74427" lon="5.45555">
        <ele>1552.67</ele>
        <time>2017-06-10T11:19:16Z</time>
      </trkpt>
      <trkpt lat="44.74432" lon="5.4556">
        <ele>1555.07</ele>
        <time>2017-06-10T11:19:26Z</time>
      </trkpt>
      <trkpt lat="44.74433" lon="5.45562">
        <ele>1555.55</ele>
        <time>2017-06-10T11:19:29Z</time>
      </trkpt>
      <trkpt lat="44.7444" lon="5.45571">
        <ele>1557.47</ele>
        <time>2017-06-10T11:19:41Z</time>
      </trkpt>
      <trkpt lat="44.74439" lon="5.45572">
        <ele>1557.95</ele>
        <time>2017-06-10T11:19:42Z</time>
      </trkpt>
      <trkpt lat="44.74441" lon="5.45583">
        <ele>1560.36</ele>
        <time>2017-06-10T11:19:54Z</time>
      </trkpt>
      <trkpt lat="44.74445" lon="5.45589">
        <ele>1561.8</ele>
        <time>2017-06-10T11:20:02Z</time>
      </trkpt>
      <trkpt lat="44.74442" lon="5.45589">
        <ele>1562.76</ele>
        <time>2017-06-10T11:20:08Z</time>
      </trkpt>
      <trkpt lat="44.74436" lon="5.4559">
        <ele>1564.68</ele>
        <time>2017-06-10T11:20:19Z</time>
      </trkpt>
      <trkpt lat="44.74434" lon="5.45589">
        <ele>1564.68</ele>
        <time>2017-06-10T11:20:21Z</time>
      </trkpt>
      <trkpt lat="44.74431" lon="5.45587">
        <ele>1565.16</ele>
        <time>2017-06-10T11:20:28Z</time>
      </trkpt>
      <trkpt lat="44.74428" lon="5.45589">
        <ele>1566.61</ele>
        <time>2017-06-10T11:20:32Z</time>
      </trkpt>
      <trkpt lat="44.74423" lon="5.4559">
        <ele>1567.09</ele>
        <time>2017-06-10T11:20:42Z</time>
      </trkpt>
      <trkpt lat="44.74421" lon="5.45591">
        <ele>1567.57</ele>
        <time>2017-06-10T11:20:43Z</time>
      </trkpt>
      <trkpt lat="44.74415" lon="5.45592">
        <ele>1569.49</ele>
        <time>2017-06-10T11:20:52Z</time>
      </trkpt>
      <trkpt lat="44.74413" lon="5.45593">
        <ele>1571.41</ele>
        <time>2017-06-10T11:20:59Z</time>
      </trkpt>
      <trkpt lat="44.74405" lon="5.456">
        <ele>1573.33</ele>
        <time>2017-06-10T11:21:11Z</time>
      </trkpt>
      <trkpt lat="44.74401" lon="5.45605">
        <ele>1572.85</ele>
        <time>2017-06-10T11:21:25Z</time>
      </trkpt>
      <trkpt lat="44.74401" lon="5.45605">
        <ele>1574.3</ele>
        <time>2017-06-10T11:21:26Z</time>
      </trkpt>
      <trkpt lat="44.74401" lon="5.45606">
        <ele>1574.78</ele>
        <time>2017-06-10T11:21:37Z</time>
      </trkpt>
      <trkpt lat="44.74401" lon="5.45606">
        <ele>1574.78</ele>
        <time>2017-06-10T11:22:08Z</time>
      </trkpt>
      <trkpt lat="44.744" lon="5.45605">
        <ele>1574.3</ele>
        <time>2017-06-10T11:22:38Z</time>
      </trkpt>
      <trkpt lat="44.744" lon="5.45605">
        <ele>1573.82</ele>
        <time>2017-06-10T11:23:05Z</time>
      </trkpt>
      <trkpt lat="44.74399" lon="5.45607">
        <ele>1574.78</ele>
        <time>2017-06-10T11:23:18Z</time>
      </trkpt>
      <trkpt lat="44.74399" lon="5.45612">
        <ele>1577.18</ele>
        <time>2017-06-10T11:23:29Z</time>
      </trkpt>
      <trkpt lat="44.74405" lon="5.45616">
        <ele>1579.1</ele>
        <time>2017-06-10T11:23:39Z</time>
      </trkpt>
      <trkpt lat="44.74407" lon="5.4562">
        <ele>1581.99</ele>
        <time>2017-06-10T11:23:52Z</time>
      </trkpt>
      <trkpt lat="44.74408" lon="5.45626">
        <ele>1583.91</ele>
        <time>2017-06-10T11:24:04Z</time>
      </trkpt>
      <trkpt lat="44.74407" lon="5.45634">
        <ele>1587.27</ele>
        <time>2017-06-10T11:24:18Z</time>
      </trkpt>
      <trkpt lat="44.74406" lon="5.45639">
        <ele>1589.2</ele>
        <time>2017-06-10T11:24:28Z</time>
      </trkpt>
      <trkpt lat="44.74406" lon="5.45641">
        <ele>1590.16</ele>
        <time>2017-06-10T11:24:32Z</time>
      </trkpt>
      <trkpt lat="44.74411" lon="5.45647">
        <ele>1591.6</ele>
        <time>2017-06-10T11:24:42Z</time>
      </trkpt>
      <trkpt lat="44.74414" lon="5.45654">
        <ele>1594</ele>
        <time>2017-06-10T11:24:55Z</time>
      </trkpt>
      <trkpt lat="44.74414" lon="5.45655">
        <ele>1594.96</ele>
        <time>2017-06-10T11:24:58Z</time>
      </trkpt>
      <trkpt lat="44.74413" lon="5.4566">
        <ele>1596.89</ele>
        <time>2017-06-10T11:25:09Z</time>
      </trkpt>
      <trkpt lat="44.74411" lon="5.45664">
        <ele>1598.81</ele>
        <time>2017-06-10T11:25:21Z</time>
      </trkpt>
      <trkpt lat="44.74414" lon="5.45667">
        <ele>1601.21</ele>
        <time>2017-06-10T11:25:31Z</time>
      </trkpt>
      <trkpt lat="44.74415" lon="5.45669">
        <ele>1600.73</ele>
        <time>2017-06-10T11:25:34Z</time>
      </trkpt>
      <trkpt lat="44.74417" lon="5.45671">
        <ele>1602.66</ele>
        <time>2017-06-10T11:25:39Z</time>
      </trkpt>
      <trkpt lat="44.74414" lon="5.45671">
        <ele>1604.1</ele>
        <time>2017-06-10T11:25:46Z</time>
      </trkpt>
      <trkpt lat="44.74412" lon="5.45671">
        <ele>1604.58</ele>
        <time>2017-06-10T11:25:51Z</time>
      </trkpt>
      <trkpt lat="44.74411" lon="5.45674">
        <ele>1606.5</ele>
        <time>2017-06-10T11:26:00Z</time>
      </trkpt>
      <trkpt lat="44.74412" lon="5.45679">
        <ele>1606.98</ele>
        <time>2017-06-10T11:26:04Z</time>
      </trkpt>
      <trkpt lat="44.74416" lon="5.45684">
        <ele>1608.9</ele>
        <time>2017-06-10T11:26:14Z</time>
      </trkpt>
      <trkpt lat="44.74418" lon="5.45692">
        <ele>1610.83</ele>
        <time>2017-06-10T11:26:24Z</time>
      </trkpt>
      <trkpt lat="44.74416" lon="5.45695">
        <ele>1612.27</ele>
        <time>2017-06-10T11:26:34Z</time>
      </trkpt>
      <trkpt lat="44.74418" lon="5.45701">
        <ele>1615.15</ele>
        <time>2017-06-10T11:26:46Z</time>
      </trkpt>
      <trkpt lat="44.74425" lon="5.45714">
        <ele>1617.56</ele>
        <time>2017-06-10T11:26:59Z</time>
      </trkpt>
      <trkpt lat="44.74429" lon="5.45722">
        <ele>1619</ele>
        <time>2017-06-10T11:27:09Z</time>
      </trkpt>
      <trkpt lat="44.7443" lon="5.45724">
        <ele>1620.92</ele>
        <time>2017-06-10T11:27:21Z</time>
      </trkpt>
      <trkpt lat="44.74427" lon="5.45722">
        <ele>1622.84</ele>
        <time>2017-06-10T11:27:29Z</time>
      </trkpt>
      <trkpt lat="44.74419" lon="5.45721">
        <ele>1624.77</ele>
        <time>2017-06-10T11:27:39Z</time>
      </trkpt>
      <trkpt lat="44.74414" lon="5.45725">
        <ele>1626.69</ele>
        <time>2017-06-10T11:27:50Z</time>
      </trkpt>
      <trkpt lat="44.74414" lon="5.4573">
        <ele>1628.61</ele>
        <time>2017-06-10T11:28:00Z</time>
      </trkpt>
      <trkpt lat="44.74408" lon="5.45735">
        <ele>1631.01</ele>
        <time>2017-06-10T11:28:12Z</time>
      </trkpt>
      <trkpt lat="44.74404" lon="5.45737">
        <ele>1632.94</ele>
        <time>2017-06-10T11:28:21Z</time>
      </trkpt>
      <trkpt lat="44.74405" lon="5.45741">
        <ele>1633.9</ele>
        <time>2017-06-10T11:28:27Z</time>
      </trkpt>
      <trkpt lat="44.74407" lon="5.45749">
        <ele>1635.34</ele>
        <time>2017-06-10T11:28:37Z</time>
      </trkpt>
      <trkpt lat="44.74413" lon="5.45756">
        <ele>1637.26</ele>
        <time>2017-06-10T11:28:48Z</time>
      </trkpt>
      <trkpt lat="44.74414" lon="5.45762">
        <ele>1639.67</ele>
        <time>2017-06-10T11:28:58Z</time>
      </trkpt>
      <trkpt lat="44.74419" lon="5.45767">
        <ele>1642.07</ele>
        <time>2017-06-10T11:29:09Z</time>
      </trkpt>
      <trkpt lat="44.74422" lon="5.45772">
        <ele>1642.55</ele>
        <time>2017-06-10T11:29:15Z</time>
      </trkpt>
      <trkpt lat="44.74426" lon="5.45779">
        <ele>1644.47</ele>
        <time>2017-06-10T11:29:23Z</time>
      </trkpt>
      <trkpt lat="44.74428" lon="5.45785">
        <ele>1646.4</ele>
        <time>2017-06-10T11:29:33Z</time>
      </trkpt>
      <trkpt lat="44.74428" lon="5.45784">
        <ele>1646.4</ele>
        <time>2017-06-10T11:29:36Z</time>
      </trkpt>
      <trkpt lat="44.7443" lon="5.4579">
        <ele>1648.8</ele>
        <time>2017-06-10T11:29:47Z</time>
      </trkpt>
      <trkpt lat="44.74434" lon="5.45795">
        <ele>1649.76</ele>
        <time>2017-06-10T11:29:54Z</time>
      </trkpt>
      <trkpt lat="44.74438" lon="5.458">
        <ele>1651.68</ele>
        <time>2017-06-10T11:30:03Z</time>
      </trkpt>
      <trkpt lat="44.74441" lon="5.45809">
        <ele>1654.09</ele>
        <time>2017-06-10T11:30:14Z</time>
      </trkpt>
      <trkpt lat="44.74444" lon="5.45814">
        <ele>1656.01</ele>
        <time>2017-06-10T11:30:24Z</time>
      </trkpt>
      <trkpt lat="44.74449" lon="5.4582">
        <ele>1657.93</ele>
        <time>2017-06-10T11:30:36Z</time>
      </trkpt>
      <trkpt lat="44.7445" lon="5.45821">
        <ele>1658.41</ele>
        <time>2017-06-10T11:30:40Z</time>
      </trkpt>
      <trkpt lat="44.74446" lon="5.45817">
        <ele>1659.85</ele>
        <time>2017-06-10T11:30:50Z</time>
      </trkpt>
      <trkpt lat="44.7444" lon="5.45815">
        <ele>1660.81</ele>
        <time>2017-06-10T11:31:00Z</time>
      </trkpt>
      <trkpt lat="44.74431" lon="5.45812">
        <ele>1662.74</ele>
        <time>2017-06-10T11:31:12Z</time>
      </trkpt>
      <trkpt lat="44.74428" lon="5.45813">
        <ele>1664.66</ele>
        <time>2017-06-10T11:31:23Z</time>
      </trkpt>
      <trkpt lat="44.74422" lon="5.45816">
        <ele>1667.54</ele>
        <time>2017-06-10T11:31:33Z</time>
      </trkpt>
      <trkpt lat="44.74418" lon="5.45815">
        <ele>1668.99</ele>
        <time>2017-06-10T11:31:42Z</time>
      </trkpt>
      <trkpt lat="44.74413" lon="5.4582">
        <ele>1668.99</ele>
        <time>2017-06-10T11:31:46Z</time>
      </trkpt>
      <trkpt lat="44.74412" lon="5.45831">
        <ele>1671.39</ele>
        <time>2017-06-10T11:31:56Z</time>
      </trkpt>
      <trkpt lat="44.74413" lon="5.45837">
        <ele>1673.79</ele>
        <time>2017-06-10T11:32:08Z</time>
      </trkpt>
      <trkpt lat="44.74416" lon="5.45844">
        <ele>1676.68</ele>
        <time>2017-06-10T11:32:20Z</time>
      </trkpt>
      <trkpt lat="44.74419" lon="5.45852">
        <ele>1678.6</ele>
        <time>2017-06-10T11:32:31Z</time>
      </trkpt>
      <trkpt lat="44.74423" lon="5.4586">
        <ele>1680.52</ele>
        <time>2017-06-10T11:32:42Z</time>
      </trkpt>
      <trkpt lat="44.74428" lon="5.45864">
        <ele>1682.44</ele>
        <time>2017-06-10T11:32:53Z</time>
      </trkpt>
      <trkpt lat="44.74432" lon="5.4587">
        <ele>1684.37</ele>
        <time>2017-06-10T11:33:03Z</time>
      </trkpt>
      <trkpt lat="44.74437" lon="5.45877">
        <ele>1686.77</ele>
        <time>2017-06-10T11:33:14Z</time>
      </trkpt>
      <trkpt lat="44.7444" lon="5.45883">
        <ele>1689.17</ele>
        <time>2017-06-10T11:33:25Z</time>
      </trkpt>
      <trkpt lat="44.74441" lon="5.45888">
        <ele>1691.1</ele>
        <time>2017-06-10T11:33:35Z</time>
      </trkpt>
      <trkpt lat="44.74441" lon="5.45891">
        <ele>1693.02</ele>
        <time>2017-06-10T11:33:44Z</time>
      </trkpt>
      <trkpt lat="44.74442" lon="5.45895">
        <ele>1695.42</ele>
        <time>2017-06-10T11:33:57Z</time>
      </trkpt>
      <trkpt lat="44.74444" lon="5.45904">
        <ele>1696.86</ele>
        <time>2017-06-10T11:34:07Z</time>
      </trkpt>
      <trkpt lat="44.74447" lon="5.45909">
        <ele>1698.79</ele>
        <time>2017-06-10T11:34:16Z</time>
      </trkpt>
      <trkpt lat="44.74446" lon="5.45912">
        <ele>1700.23</ele>
        <time>2017-06-10T11:34:23Z</time>
      </trkpt>
      <trkpt lat="44.74445" lon="5.4591">
        <ele>1700.71</ele>
        <time>2017-06-10T11:34:25Z</time>
      </trkpt>
      <trkpt lat="44.74441" lon="5.4591">
        <ele>1702.15</ele>
        <time>2017-06-10T11:34:33Z</time>
      </trkpt>
      <trkpt lat="44.74438" lon="5.45912">
        <ele>1704.55</ele>
        <time>2017-06-10T11:34:43Z</time>
      </trkpt>
      <trkpt lat="44.74432" lon="5.45915">
        <ele>1706.48</ele>
        <time>2017-06-10T11:34:53Z</time>
      </trkpt>
      <trkpt lat="44.74425" lon="5.45913">
        <ele>1708.4</ele>
        <time>2017-06-10T11:35:03Z</time>
      </trkpt>
      <trkpt lat="44.74422" lon="5.45913">
        <ele>1709.36</ele>
        <time>2017-06-10T11:35:08Z</time>
      </trkpt>
      <trkpt lat="44.74421" lon="5.45917">
        <ele>1711.28</ele>
        <time>2017-06-10T11:35:17Z</time>
      </trkpt>
      <trkpt lat="44.74417" lon="5.45918">
        <ele>1712.25</ele>
        <time>2017-06-10T11:35:23Z</time>
      </trkpt>
      <trkpt lat="44.74415" lon="5.45918">
        <ele>1713.21</ele>
        <time>2017-06-10T11:35:26Z</time>
      </trkpt>
      <trkpt lat="44.74411" lon="5.45917">
        <ele>1714.17</ele>
        <time>2017-06-10T11:35:38Z</time>
      </trkpt>
      <trkpt lat="44.7441" lon="5.45917">
        <ele>1715.13</ele>
        <time>2017-06-10T11:35:55Z</time>
      </trkpt>
      <trkpt lat="44.74403" lon="5.45919">
        <ele>1717.05</ele>
        <time>2017-06-10T11:36:05Z</time>
      </trkpt>
      <trkpt lat="44.74394" lon="5.45922">
        <ele>1719.46</ele>
        <time>2017-06-10T11:36:16Z</time>
      </trkpt>
      <trkpt lat="44.74391" lon="5.45923">
        <ele>1721.38</ele>
        <time>2017-06-10T11:36:26Z</time>
      </trkpt>
      <trkpt lat="44.74385" lon="5.45926">
        <ele>1723.3</ele>
        <time>2017-06-10T11:36:36Z</time>
      </trkpt>
      <trkpt lat="44.74379" lon="5.45926">
        <ele>1724.74</ele>
        <time>2017-06-10T11:36:46Z</time>
      </trkpt>
      <trkpt lat="44.74373" lon="5.45926">
        <ele>1726.67</ele>
        <time>2017-06-10T11:36:56Z</time>
      </trkpt>
      <trkpt lat="44.74368" lon="5.45927">
        <ele>1728.11</ele>
        <time>2017-06-10T11:37:06Z</time>
      </trkpt>
      <trkpt lat="44.74363" lon="5.45929">
        <ele>1730.99</ele>
        <time>2017-06-10T11:37:17Z</time>
      </trkpt>
      <trkpt lat="44.74355" lon="5.45932">
        <ele>1732.91</ele>
        <time>2017-06-10T11:37:29Z</time>
      </trkpt>
      <trkpt lat="44.74355" lon="5.45938">
        <ele>1733.88</ele>
        <time>2017-06-10T11:37:35Z</time>
      </trkpt>
      <trkpt lat="44.74357" lon="5.45945">
        <ele>1735.8</ele>
        <time>2017-06-10T11:37:45Z</time>
      </trkpt>
      <trkpt lat="44.74353" lon="5.45951">
        <ele>1737.72</ele>
        <time>2017-06-10T11:37:55Z</time>
      </trkpt>
      <trkpt lat="44.74346" lon="5.45953">
        <ele>1739.16</ele>
        <time>2017-06-10T11:38:05Z</time>
      </trkpt>
      <trkpt lat="44.74346" lon="5.45958">
        <ele>1740.12</ele>
        <time>2017-06-10T11:38:15Z</time>
      </trkpt>
      <trkpt lat="44.7435" lon="5.45963">
        <ele>1741.57</ele>
        <time>2017-06-10T11:38:26Z</time>
      </trkpt>
      <trkpt lat="44.74354" lon="5.45968">
        <ele>1743.49</ele>
        <time>2017-06-10T11:38:36Z</time>
      </trkpt>
      <trkpt lat="44.74354" lon="5.45974">
        <ele>1745.41</ele>
        <time>2017-06-10T11:38:48Z</time>
      </trkpt>
      <trkpt lat="44.74351" lon="5.45975">
        <ele>1746.85</ele>
        <time>2017-06-10T11:38:53Z</time>
      </trkpt>
      <trkpt lat="44.74348" lon="5.45974">
        <ele>1747.33</ele>
        <time>2017-06-10T11:38:56Z</time>
      </trkpt>
      <trkpt lat="44.74345" lon="5.45974">
        <ele>1747.33</ele>
        <time>2017-06-10T11:39:00Z</time>
      </trkpt>
      <trkpt lat="44.74341" lon="5.4598">
        <ele>1749.74</ele>
        <time>2017-06-10T11:39:11Z</time>
      </trkpt>
      <trkpt lat="44.74336" lon="5.45983">
        <ele>1751.18</ele>
        <time>2017-06-10T11:39:20Z</time>
      </trkpt>
      <trkpt lat="44.74333" lon="5.45982">
        <ele>1752.14</ele>
        <time>2017-06-10T11:39:25Z</time>
      </trkpt>
      <trkpt lat="44.7433" lon="5.45983">
        <ele>1752.14</ele>
        <time>2017-06-10T11:39:28Z</time>
      </trkpt>
      <trkpt lat="44.74326" lon="5.45988">
        <ele>1754.54</ele>
        <time>2017-06-10T11:39:40Z</time>
      </trkpt>
      <trkpt lat="44.74321" lon="5.45992">
        <ele>1756.47</ele>
        <time>2017-06-10T11:39:49Z</time>
      </trkpt>
      <trkpt lat="44.74317" lon="5.45992">
        <ele>1758.39</ele>
        <time>2017-06-10T11:40:00Z</time>
      </trkpt>
      <trkpt lat="44.74313" lon="5.45996">
        <ele>1760.31</ele>
        <time>2017-06-10T11:40:10Z</time>
      </trkpt>
      <trkpt lat="44.7431" lon="5.45997">
        <ele>1761.27</ele>
        <time>2017-06-10T11:40:15Z</time>
      </trkpt>
      <trkpt lat="44.74303" lon="5.46003">
        <ele>1763.68</ele>
        <time>2017-06-10T11:40:27Z</time>
      </trkpt>
      <trkpt lat="44.743" lon="5.46004">
        <ele>1765.6</ele>
        <time>2017-06-10T11:40:36Z</time>
      </trkpt>
      <trkpt lat="44.74293" lon="5.46007">
        <ele>1768</ele>
        <time>2017-06-10T11:40:47Z</time>
      </trkpt>
      <trkpt lat="44.74291" lon="5.46011">
        <ele>1769.92</ele>
        <time>2017-06-10T11:40:56Z</time>
      </trkpt>
      <trkpt lat="44.7429" lon="5.46012">
        <ele>1770.41</ele>
        <time>2017-06-10T11:40:58Z</time>
      </trkpt>
      <trkpt lat="44.74283" lon="5.46014">
        <ele>1772.33</ele>
        <time>2017-06-10T11:41:10Z</time>
      </trkpt>
      <trkpt lat="44.74281" lon="5.46018">
        <ele>1774.25</ele>
        <time>2017-06-10T11:41:19Z</time>
      </trkpt>
      <trkpt lat="44.74285" lon="5.46025">
        <ele>1775.69</ele>
        <time>2017-06-10T11:41:28Z</time>
      </trkpt>
      <trkpt lat="44.74286" lon="5.46028">
        <ele>1776.17</ele>
        <time>2017-06-10T11:41:41Z</time>
      </trkpt>
      <trkpt lat="44.74286" lon="5.46028">
        <ele>1776.17</ele>
        <time>2017-06-10T11:42:11Z</time>
      </trkpt>
      <trkpt lat="44.74287" lon="5.46028">
        <ele>1776.17</ele>
        <time>2017-06-10T11:42:29Z</time>
      </trkpt>
      <trkpt lat="44.74286" lon="5.4603">
        <ele>1777.61</ele>
        <time>2017-06-10T11:42:32Z</time>
      </trkpt>
      <trkpt lat="44.7428" lon="5.46034">
        <ele>1779.06</ele>
        <time>2017-06-10T11:42:43Z</time>
      </trkpt>
      <trkpt lat="44.74275" lon="5.46035">
        <ele>1780.02</ele>
        <time>2017-06-10T11:42:50Z</time>
      </trkpt>
      <trkpt lat="44.74273" lon="5.46038">
        <ele>1781.94</ele>
        <time>2017-06-10T11:42:58Z</time>
      </trkpt>
      <trkpt lat="44.74269" lon="5.46039">
        <ele>1783.38</ele>
        <time>2017-06-10T11:43:05Z</time>
      </trkpt>
      <trkpt lat="44.74268" lon="5.46039">
        <ele>1784.34</ele>
        <time>2017-06-10T11:43:08Z</time>
      </trkpt>
      <trkpt lat="44.74264" lon="5.46043">
        <ele>1786.27</ele>
        <time>2017-06-10T11:43:19Z</time>
      </trkpt>
      <trkpt lat="44.74258" lon="5.46049">
        <ele>1788.67</ele>
        <time>2017-06-10T11:43:30Z</time>
      </trkpt>
      <trkpt lat="44.74257" lon="5.46053">
        <ele>1789.63</ele>
        <time>2017-06-10T11:43:42Z</time>
      </trkpt>
      <trkpt lat="44.74257" lon="5.46053">
        <ele>1789.63</ele>
        <time>2017-06-10T11:43:54Z</time>
      </trkpt>
      <trkpt lat="44.74257" lon="5.46053">
        <ele>1790.11</ele>
        <time>2017-06-10T11:44:12Z</time>
      </trkpt>
      <trkpt lat="44.74253" lon="5.46053">
        <ele>1791.07</ele>
        <time>2017-06-10T11:44:26Z</time>
      </trkpt>
      <trkpt lat="44.74249" lon="5.46059">
        <ele>1793</ele>
        <time>2017-06-10T11:44:35Z</time>
      </trkpt>
      <trkpt lat="44.74247" lon="5.4606">
        <ele>1794.44</ele>
        <time>2017-06-10T11:44:41Z</time>
      </trkpt>
      <trkpt lat="44.74245" lon="5.46059">
        <ele>1794.92</ele>
        <time>2017-06-10T11:44:44Z</time>
      </trkpt>
      <trkpt lat="44.74239" lon="5.46061">
        <ele>1796.36</ele>
        <time>2017-06-10T11:44:54Z</time>
      </trkpt>
      <trkpt lat="44.74238" lon="5.46062">
        <ele>1796.84</ele>
        <time>2017-06-10T11:44:55Z</time>
      </trkpt>
      <trkpt lat="44.74233" lon="5.46063">
        <ele>1797.8</ele>
        <time>2017-06-10T11:45:03Z</time>
      </trkpt>
      <trkpt lat="44.74234" lon="5.46073">
        <ele>1800.69</ele>
        <time>2017-06-10T11:45:17Z</time>
      </trkpt>
      <trkpt lat="44.74236" lon="5.46082">
        <ele>1802.61</ele>
        <time>2017-06-10T11:45:28Z</time>
      </trkpt>
      <trkpt lat="44.74239" lon="5.46085">
        <ele>1802.61</ele>
        <time>2017-06-10T11:45:35Z</time>
      </trkpt>
      <trkpt lat="44.74246" lon="5.4609">
        <ele>1805.49</ele>
        <time>2017-06-10T11:45:44Z</time>
      </trkpt>
      <trkpt lat="44.74255" lon="5.46096">
        <ele>1807.42</ele>
        <time>2017-06-10T11:45:57Z</time>
      </trkpt>
      <trkpt lat="44.74256" lon="5.46095">
        <ele>1808.86</ele>
        <time>2017-06-10T11:46:03Z</time>
      </trkpt>
      <trkpt lat="44.74254" lon="5.46095">
        <ele>1808.86</ele>
        <time>2017-06-10T11:46:06Z</time>
      </trkpt>
      <trkpt lat="44.74246" lon="5.46098">
        <ele>1810.78</ele>
        <time>2017-06-10T11:46:18Z</time>
      </trkpt>
      <trkpt lat="44.74244" lon="5.46099">
        <ele>1811.26</ele>
        <time>2017-06-10T11:46:21Z</time>
      </trkpt>
      <trkpt lat="44.74242" lon="5.461">
        <ele>1812.22</ele>
        <time>2017-06-10T11:46:24Z</time>
      </trkpt>
      <trkpt lat="44.7424" lon="5.461">
        <ele>1812.7</ele>
        <time>2017-06-10T11:46:26Z</time>
      </trkpt>
      <trkpt lat="44.74236" lon="5.46098">
        <ele>1813.18</ele>
        <time>2017-06-10T11:46:31Z</time>
      </trkpt>
      <trkpt lat="44.74234" lon="5.46097">
        <ele>1813.18</ele>
        <time>2017-06-10T11:46:34Z</time>
      </trkpt>
      <trkpt lat="44.74232" lon="5.46096">
        <ele>1813.66</ele>
        <time>2017-06-10T11:46:37Z</time>
      </trkpt>
      <trkpt lat="44.74224" lon="5.46095">
        <ele>1814.63</ele>
        <time>2017-06-10T11:46:46Z</time>
      </trkpt>
      <trkpt lat="44.74219" lon="5.46096">
        <ele>1815.59</ele>
        <time>2017-06-10T11:46:51Z</time>
      </trkpt>
      <trkpt lat="44.74215" lon="5.46098">
        <ele>1817.51</ele>
        <time>2017-06-10T11:46:57Z</time>
      </trkpt>
      <trkpt lat="44.74213" lon="5.46098">
        <ele>1817.99</ele>
        <time>2017-06-10T11:47:01Z</time>
      </trkpt>
      <trkpt lat="44.7421" lon="5.461">
        <ele>1817.99</ele>
        <time>2017-06-10T11:47:03Z</time>
      </trkpt>
      <trkpt lat="44.74202" lon="5.46105">
        <ele>1819.91</ele>
        <time>2017-06-10T11:47:13Z</time>
      </trkpt>
      <trkpt lat="44.74195" lon="5.4611">
        <ele>1822.32</ele>
        <time>2017-06-10T11:47:25Z</time>
      </trkpt>
      <trkpt lat="44.74188" lon="5.46111">
        <ele>1824.24</ele>
        <time>2017-06-10T11:47:36Z</time>
      </trkpt>
      <trkpt lat="44.74186" lon="5.46111">
        <ele>1824.24</ele>
        <time>2017-06-10T11:47:37Z</time>
      </trkpt>
      <trkpt lat="44.74181" lon="5.46113">
        <ele>1824.72</ele>
        <time>2017-06-10T11:47:41Z</time>
      </trkpt>
      <trkpt lat="44.74175" lon="5.46116">
        <ele>1826.64</ele>
        <time>2017-06-10T11:47:54Z</time>
      </trkpt>
      <trkpt lat="44.74165" lon="5.4612">
        <ele>1828.56</ele>
        <time>2017-06-10T11:48:03Z</time>
      </trkpt>
      <trkpt lat="44.74162" lon="5.4612">
        <ele>1828.56</ele>
        <time>2017-06-10T11:48:06Z</time>
      </trkpt>
      <trkpt lat="44.74157" lon="5.46127">
        <ele>1830.97</ele>
        <time>2017-06-10T11:48:17Z</time>
      </trkpt>
      <trkpt lat="44.74161" lon="5.46134">
        <ele>1832.41</ele>
        <time>2017-06-10T11:48:23Z</time>
      </trkpt>
      <trkpt lat="44.74168" lon="5.46145">
        <ele>1835.29</ele>
        <time>2017-06-10T11:48:37Z</time>
      </trkpt>
      <trkpt lat="44.74179" lon="5.46155">
        <ele>1836.74</ele>
        <time>2017-06-10T11:48:49Z</time>
      </trkpt>
      <trkpt lat="44.7419" lon="5.46165">
        <ele>1838.66</ele>
        <time>2017-06-10T11:49:01Z</time>
      </trkpt>
      <trkpt lat="44.74198" lon="5.46172">
        <ele>1840.1</ele>
        <time>2017-06-10T11:49:11Z</time>
      </trkpt>
      <trkpt lat="44.74197" lon="5.46174">
        <ele>1840.58</ele>
        <time>2017-06-10T11:49:13Z</time>
      </trkpt>
      <trkpt lat="44.74194" lon="5.4618">
        <ele>1842.02</ele>
        <time>2017-06-10T11:49:20Z</time>
      </trkpt>
      <trkpt lat="44.74193" lon="5.46185">
        <ele>1842.98</ele>
        <time>2017-06-10T11:49:24Z</time>
      </trkpt>
      <trkpt lat="44.74193" lon="5.46189">
        <ele>1843.47</ele>
        <time>2017-06-10T11:49:27Z</time>
      </trkpt>
      <trkpt lat="44.74193" lon="5.46194">
        <ele>1844.43</ele>
        <time>2017-06-10T11:49:31Z</time>
      </trkpt>
      <trkpt lat="44.74192" lon="5.46199">
        <ele>1844.91</ele>
        <time>2017-06-10T11:49:35Z</time>
      </trkpt>
      <trkpt lat="44.74193" lon="5.46203">
        <ele>1845.87</ele>
        <time>2017-06-10T11:49:38Z</time>
      </trkpt>
      <trkpt lat="44.74195" lon="5.46209">
        <ele>1846.35</ele>
        <time>2017-06-10T11:49:49Z</time>
      </trkpt>
      <trkpt lat="44.74195" lon="5.46209">
        <ele>1849.23</ele>
        <time>2017-06-10T11:50:03Z</time>
      </trkpt>
      <trkpt lat="44.74195" lon="5.46209">
        <ele>1847.31</ele>
        <time>2017-06-10T11:50:06Z</time>
      </trkpt>
      <trkpt lat="44.74188" lon="5.46197">
        <ele>1844.43</ele>
        <time>2017-06-10T12:07:08Z</time>
      </trkpt>
      <trkpt lat="44.7419" lon="5.46198">
        <ele>1844.43</ele>
        <time>2017-06-10T12:07:09Z</time>
      </trkpt>
      <trkpt lat="44.74185" lon="5.46203">
        <ele>1843.47</ele>
        <time>2017-06-10T12:07:16Z</time>
      </trkpt>
      <trkpt lat="44.74188" lon="5.46212">
        <ele>1846.35</ele>
        <time>2017-06-10T12:14:54Z</time>
      </trkpt>
      <trkpt lat="44.7419" lon="5.46211">
        <ele>1846.35</ele>
        <time>2017-06-10T12:14:55Z</time>
      </trkpt>
      <trkpt lat="44.7419" lon="5.46215">
        <ele>1848.75</ele>
        <time>2017-06-10T12:15:11Z</time>
      </trkpt>
      <trkpt lat="44.74192" lon="5.46224">
        <ele>1850.68</ele>
        <time>2017-06-10T12:15:19Z</time>
      </trkpt>
      <trkpt lat="44.74194" lon="5.46232">
        <ele>1851.64</ele>
        <time>2017-06-10T12:15:25Z</time>
      </trkpt>
      <trkpt lat="44.74196" lon="5.46235">
        <ele>1851.16</ele>
        <time>2017-06-10T12:15:28Z</time>
      </trkpt>
      <trkpt lat="44.742" lon="5.46244">
        <ele>1850.68</ele>
        <time>2017-06-10T12:15:35Z</time>
      </trkpt>
      <trkpt lat="44.74201" lon="5.46252">
        <ele>1850.68</ele>
        <time>2017-06-10T12:15:39Z</time>
      </trkpt>
      <trkpt lat="44.74202" lon="5.46254">
        <ele>1850.68</ele>
        <time>2017-06-10T12:15:41Z</time>
      </trkpt>
      <trkpt lat="44.74204" lon="5.46273">
        <ele>1851.16</ele>
        <time>2017-06-10T12:15:53Z</time>
      </trkpt>
      <trkpt lat="44.74203" lon="5.46278">
        <ele>1851.64</ele>
        <time>2017-06-10T12:15:56Z</time>
      </trkpt>
      <trkpt lat="44.74204" lon="5.46286">
        <ele>1853.08</ele>
        <time>2017-06-10T12:16:03Z</time>
      </trkpt>
      <trkpt lat="44.74205" lon="5.46292">
        <ele>1854.04</ele>
        <time>2017-06-10T12:16:08Z</time>
      </trkpt>
      <trkpt lat="44.74205" lon="5.46294">
        <ele>1854.52</ele>
        <time>2017-06-10T12:16:10Z</time>
      </trkpt>
      <trkpt lat="44.74205" lon="5.46302">
        <ele>1855.48</ele>
        <time>2017-06-10T12:16:17Z</time>
      </trkpt>
      <trkpt lat="44.74204" lon="5.46315">
        <ele>1857.4</ele>
        <time>2017-06-10T12:16:27Z</time>
      </trkpt>
      <trkpt lat="44.74203" lon="5.46324">
        <ele>1858.85</ele>
        <time>2017-06-10T12:16:36Z</time>
      </trkpt>
      <trkpt lat="44.74202" lon="5.46329">
        <ele>1859.81</ele>
        <time>2017-06-10T12:16:42Z</time>
      </trkpt>
      <trkpt lat="44.74201" lon="5.46333">
        <ele>1860.29</ele>
        <time>2017-06-10T12:16:45Z</time>
      </trkpt>
      <trkpt lat="44.742" lon="5.46336">
        <ele>1859.81</ele>
        <time>2017-06-10T12:16:47Z</time>
      </trkpt>
      <trkpt lat="44.74198" lon="5.46345">
        <ele>1861.73</ele>
        <time>2017-06-10T12:16:54Z</time>
      </trkpt>
      <trkpt lat="44.74198" lon="5.46347">
        <ele>1861.73</ele>
        <time>2017-06-10T12:16:57Z</time>
      </trkpt>
      <trkpt lat="44.74198" lon="5.46356">
        <ele>1863.17</ele>
        <time>2017-06-10T12:17:07Z</time>
      </trkpt>
      <trkpt lat="44.74197" lon="5.46356">
        <ele>1863.65</ele>
        <time>2017-06-10T12:17:08Z</time>
      </trkpt>
      <trkpt lat="44.74193" lon="5.46362">
        <ele>1864.61</ele>
        <time>2017-06-10T12:17:15Z</time>
      </trkpt>
      <trkpt lat="44.74191" lon="5.46366">
        <ele>1864.61</ele>
        <time>2017-06-10T12:17:18Z</time>
      </trkpt>
      <trkpt lat="44.7419" lon="5.46373">
        <ele>1865.09</ele>
        <time>2017-06-10T12:17:24Z</time>
      </trkpt>
      <trkpt lat="44.74189" lon="5.46377">
        <ele>1865.58</ele>
        <time>2017-06-10T12:17:27Z</time>
      </trkpt>
      <trkpt lat="44.74187" lon="5.4639">
        <ele>1867.98</ele>
        <time>2017-06-10T12:17:40Z</time>
      </trkpt>
      <trkpt lat="44.74183" lon="5.46398">
        <ele>1869.9</ele>
        <time>2017-06-10T12:17:51Z</time>
      </trkpt>
      <trkpt lat="44.7418" lon="5.46404">
        <ele>1872.3</ele>
        <time>2017-06-10T12:18:01Z</time>
      </trkpt>
      <trkpt lat="44.74179" lon="5.4641">
        <ele>1873.75</ele>
        <time>2017-06-10T12:18:09Z</time>
      </trkpt>
      <trkpt lat="44.74179" lon="5.46421">
        <ele>1875.67</ele>
        <time>2017-06-10T12:18:21Z</time>
      </trkpt>
      <trkpt lat="44.74177" lon="5.46426">
        <ele>1878.07</ele>
        <time>2017-06-10T12:18:32Z</time>
      </trkpt>
      <trkpt lat="44.74176" lon="5.4643">
        <ele>1879.03</ele>
        <time>2017-06-10T12:18:36Z</time>
      </trkpt>
      <trkpt lat="44.74175" lon="5.46435">
        <ele>1880.96</ele>
        <time>2017-06-10T12:18:45Z</time>
      </trkpt>
      <trkpt lat="44.74173" lon="5.4644">
        <ele>1883.36</ele>
        <time>2017-06-10T12:18:55Z</time>
      </trkpt>
      <trkpt lat="44.74172" lon="5.46447">
        <ele>1885.28</ele>
        <time>2017-06-10T12:19:05Z</time>
      </trkpt>
      <trkpt lat="44.74172" lon="5.46453">
        <ele>1886.72</ele>
        <time>2017-06-10T12:19:11Z</time>
      </trkpt>
      <trkpt lat="44.74172" lon="5.46456">
        <ele>1887.69</ele>
        <time>2017-06-10T12:19:25Z</time>
      </trkpt>
      <trkpt lat="44.74173" lon="5.46463">
        <ele>1877.59</ele>
        <time>2017-06-10T12:19:33Z</time>
      </trkpt>
      <trkpt lat="44.74173" lon="5.46463">
        <ele>1891.53</ele>
        <time>2017-06-10T12:19:34Z</time>
      </trkpt>
      <trkpt lat="44.74173" lon="5.46463">
        <ele>1895.38</ele>
        <time>2017-06-10T12:19:35Z</time>
      </trkpt>
      <trkpt lat="44.74173" lon="5.46463">
        <ele>1884.8</ele>
        <time>2017-06-10T12:19:36Z</time>
      </trkpt>
      <trkpt lat="44.74173" lon="5.46463">
        <ele>1889.61</ele>
        <time>2017-06-10T12:19:37Z</time>
      </trkpt>
      <trkpt lat="44.74173" lon="5.46463">
        <ele>1893.45</ele>
        <time>2017-06-10T12:19:38Z</time>
      </trkpt>
      <trkpt lat="44.74173" lon="5.46463">
        <ele>1878.55</ele>
        <time>2017-06-10T12:19:39Z</time>
      </trkpt>
      <trkpt lat="44.74173" lon="5.46463">
        <ele>1897.78</ele>
        <time>2017-06-10T12:19:40Z</time>
      </trkpt>
      <trkpt lat="44.74173" lon="5.46463">
        <ele>1889.61</ele>
        <time>2017-06-10T12:19:41Z</time>
      </trkpt>
      <trkpt lat="44.74173" lon="5.46463">
        <ele>1888.17</ele>
        <time>2017-06-10T12:19:43Z</time>
      </trkpt>
      <trkpt lat="44.74175" lon="5.46467">
        <ele>1890.09</ele>
        <time>2017-06-10T12:19:52Z</time>
      </trkpt>
      <trkpt lat="44.74179" lon="5.46476">
        <ele>1891.05</ele>
        <time>2017-06-10T12:20:02Z</time>
      </trkpt>
      <trkpt lat="44.74181" lon="5.46478">
        <ele>1891.53</ele>
        <time>2017-06-10T12:20:06Z</time>
      </trkpt>
      <trkpt lat="44.74185" lon="5.46483">
        <ele>1892.01</ele>
        <time>2017-06-10T12:20:12Z</time>
      </trkpt>
      <trkpt lat="44.74191" lon="5.46493">
        <ele>1893.45</ele>
        <time>2017-06-10T12:20:21Z</time>
      </trkpt>
      <trkpt lat="44.74193" lon="5.46497">
        <ele>1893.93</ele>
        <time>2017-06-10T12:20:25Z</time>
      </trkpt>
      <trkpt lat="44.74194" lon="5.46499">
        <ele>1893.93</ele>
        <time>2017-06-10T12:20:27Z</time>
      </trkpt>
      <trkpt lat="44.74196" lon="5.46502">
        <ele>1895.38</ele>
        <time>2017-06-10T12:20:33Z</time>
      </trkpt>
      <trkpt lat="44.74199" lon="5.46512">
        <ele>1897.3</ele>
        <time>2017-06-10T12:20:43Z</time>
      </trkpt>
      <trkpt lat="44.742" lon="5.4652">
        <ele>1899.22</ele>
        <time>2017-06-10T12:20:52Z</time>
      </trkpt>
      <trkpt lat="44.742" lon="5.46529">
        <ele>1901.14</ele>
        <time>2017-06-10T12:21:03Z</time>
      </trkpt>
      <trkpt lat="44.742" lon="5.46535">
        <ele>1902.11</ele>
        <time>2017-06-10T12:21:10Z</time>
      </trkpt>
      <trkpt lat="44.742" lon="5.46542">
        <ele>1903.07</ele>
        <time>2017-06-10T12:21:16Z</time>
      </trkpt>
      <trkpt lat="44.742" lon="5.4655">
        <ele>1904.99</ele>
        <time>2017-06-10T12:21:24Z</time>
      </trkpt>
      <trkpt lat="44.74195" lon="5.46558">
        <ele>1906.43</ele>
        <time>2017-06-10T12:21:35Z</time>
      </trkpt>
      <trkpt lat="44.74195" lon="5.46558">
        <ele>1915.56</ele>
        <time>2017-06-10T12:21:49Z</time>
      </trkpt>
      <trkpt lat="44.74195" lon="5.46558">
        <ele>1907.39</ele>
        <time>2017-06-10T12:21:50Z</time>
      </trkpt>
      <trkpt lat="44.74195" lon="5.46558">
        <ele>1907.39</ele>
        <time>2017-06-10T12:21:51Z</time>
      </trkpt>
      <trkpt lat="44.74196" lon="5.46557">
        <ele>1906.91</ele>
        <time>2017-06-10T12:22:05Z</time>
      </trkpt>
      <trkpt lat="44.74196" lon="5.46557">
        <ele>1906.91</ele>
        <time>2017-06-10T12:22:26Z</time>
      </trkpt>
      <trkpt lat="44.74196" lon="5.46557">
        <ele>1906.43</ele>
        <time>2017-06-10T12:22:49Z</time>
      </trkpt>
      <trkpt lat="44.74196" lon="5.46557">
        <ele>1907.39</ele>
        <time>2017-06-10T12:23:21Z</time>
      </trkpt>
      <trkpt lat="44.74196" lon="5.46557">
        <ele>1906.91</ele>
        <time>2017-06-10T12:23:48Z</time>
      </trkpt>
      <trkpt lat="44.74196" lon="5.46557">
        <ele>1906.91</ele>
        <time>2017-06-10T12:24:20Z</time>
      </trkpt>
      <trkpt lat="44.74196" lon="5.46557">
        <ele>1906.43</ele>
        <time>2017-06-10T12:24:50Z</time>
      </trkpt>
      <trkpt lat="44.74195" lon="5.46558">
        <ele>1906.91</ele>
        <time>2017-06-10T12:25:05Z</time>
      </trkpt>
      <trkpt lat="44.74195" lon="5.46558">
        <ele>1907.39</ele>
        <time>2017-06-10T12:25:31Z</time>
      </trkpt>
      <trkpt lat="44.74194" lon="5.46559">
        <ele>1907.87</ele>
        <time>2017-06-10T12:25:57Z</time>
      </trkpt>
      <trkpt lat="44.74191" lon="5.46567">
        <ele>1909.32</ele>
        <time>2017-06-10T12:26:10Z</time>
      </trkpt>
      <trkpt lat="44.7419" lon="5.46572">
        <ele>1910.28</ele>
        <time>2017-06-10T12:26:15Z</time>
      </trkpt>
      <trkpt lat="44.74187" lon="5.46578">
        <ele>1911.24</ele>
        <time>2017-06-10T12:26:23Z</time>
      </trkpt>
      <trkpt lat="44.74183" lon="5.46587">
        <ele>1913.16</ele>
        <time>2017-06-10T12:26:32Z</time>
      </trkpt>
      <trkpt lat="44.74182" lon="5.46598">
        <ele>1914.6</ele>
        <time>2017-06-10T12:26:43Z</time>
      </trkpt>
      <trkpt lat="44.74179" lon="5.46612">
        <ele>1917.01</ele>
        <time>2017-06-10T12:26:57Z</time>
      </trkpt>
      <trkpt lat="44.74178" lon="5.4662">
        <ele>1919.89</ele>
        <time>2017-06-10T12:27:09Z</time>
      </trkpt>
      <trkpt lat="44.74177" lon="5.46623">
        <ele>1919.89</ele>
        <time>2017-06-10T12:27:11Z</time>
      </trkpt>
      <trkpt lat="44.74173" lon="5.46634">
        <ele>1921.33</ele>
        <time>2017-06-10T12:27:22Z</time>
      </trkpt>
      <trkpt lat="44.7417" lon="5.46641">
        <ele>1924.22</ele>
        <time>2017-06-10T12:27:34Z</time>
      </trkpt>
      <trkpt lat="44.74165" lon="5.46648">
        <ele>1926.14</ele>
        <time>2017-06-10T12:27:45Z</time>
      </trkpt>
      <trkpt lat="44.74158" lon="5.46653">
        <ele>1928.06</ele>
        <time>2017-06-10T12:27:57Z</time>
      </trkpt>
      <trkpt lat="44.74155" lon="5.46657">
        <ele>1928.54</ele>
        <time>2017-06-10T12:28:13Z</time>
      </trkpt>
      <trkpt lat="44.74155" lon="5.46658">
        <ele>1929.02</ele>
        <time>2017-06-10T12:28:28Z</time>
      </trkpt>
      <trkpt lat="44.74153" lon="5.46657">
        <ele>1929.5</ele>
        <time>2017-06-10T12:28:47Z</time>
      </trkpt>
      <trkpt lat="44.74153" lon="5.46658">
        <ele>1929.5</ele>
        <time>2017-06-10T12:28:48Z</time>
      </trkpt>
      <trkpt lat="44.74153" lon="5.4666">
        <ele>1929.5</ele>
        <time>2017-06-10T12:28:51Z</time>
      </trkpt>
      <trkpt lat="44.74153" lon="5.46663">
        <ele>1929.5</ele>
        <time>2017-06-10T12:29:05Z</time>
      </trkpt>
      <trkpt lat="44.74153" lon="5.46659">
        <ele>1929.02</ele>
        <time>2017-06-10T12:29:23Z</time>
      </trkpt>
      <trkpt lat="44.74153" lon="5.46659">
        <ele>1929.5</ele>
        <time>2017-06-10T12:29:51Z</time>
      </trkpt>
      <trkpt lat="44.74153" lon="5.4666">
        <ele>1929.5</ele>
        <time>2017-06-10T12:30:24Z</time>
      </trkpt>
      <trkpt lat="44.74153" lon="5.46659">
        <ele>1929.98</ele>
        <time>2017-06-10T12:30:52Z</time>
      </trkpt>
      <trkpt lat="44.74153" lon="5.46659">
        <ele>1929.98</ele>
        <time>2017-06-10T12:31:15Z</time>
      </trkpt>
      <trkpt lat="44.74154" lon="5.46662">
        <ele>1929.98</ele>
        <time>2017-06-10T12:31:27Z</time>
      </trkpt>
      <trkpt lat="44.74153" lon="5.46657">
        <ele>1930.46</ele>
        <time>2017-06-10T12:31:52Z</time>
      </trkpt>
      <trkpt lat="44.74149" lon="5.46657">
        <ele>1930.46</ele>
        <time>2017-06-10T12:32:10Z</time>
      </trkpt>
      <trkpt lat="44.74144" lon="5.46659">
        <ele>1931.91</ele>
        <time>2017-06-10T12:32:20Z</time>
      </trkpt>
      <trkpt lat="44.74137" lon="5.46664">
        <ele>1933.35</ele>
        <time>2017-06-10T12:32:32Z</time>
      </trkpt>
      <trkpt lat="44.74135" lon="5.46666">
        <ele>1933.83</ele>
        <time>2017-06-10T12:32:34Z</time>
      </trkpt>
      <trkpt lat="44.74131" lon="5.46674">
        <ele>1934.79</ele>
        <time>2017-06-10T12:32:44Z</time>
      </trkpt>
      <trkpt lat="44.7413" lon="5.4668">
        <ele>1936.23</ele>
        <time>2017-06-10T12:32:49Z</time>
      </trkpt>
      <trkpt lat="44.74129" lon="5.46691">
        <ele>1937.67</ele>
        <time>2017-06-10T12:32:59Z</time>
      </trkpt>
      <trkpt lat="44.74128" lon="5.46692">
        <ele>1937.67</ele>
        <time>2017-06-10T12:33:00Z</time>
      </trkpt>
      <trkpt lat="44.74128" lon="5.46699">
        <ele>1939.6</ele>
        <time>2017-06-10T12:33:10Z</time>
      </trkpt>
      <trkpt lat="44.74126" lon="5.46703">
        <ele>1940.08</ele>
        <time>2017-06-10T12:33:22Z</time>
      </trkpt>
      <trkpt lat="44.74127" lon="5.46704">
        <ele>1940.08</ele>
        <time>2017-06-10T12:33:37Z</time>
      </trkpt>
      <trkpt lat="44.74124" lon="5.46704">
        <ele>1941.52</ele>
        <time>2017-06-10T12:33:59Z</time>
      </trkpt>
      <trkpt lat="44.74124" lon="5.46704">
        <ele>1943.92</ele>
        <time>2017-06-10T12:34:13Z</time>
      </trkpt>
      <trkpt lat="44.74114" lon="5.46705">
        <ele>1944.88</ele>
        <time>2017-06-10T12:34:23Z</time>
      </trkpt>
      <trkpt lat="44.74108" lon="5.46706">
        <ele>1946.81</ele>
        <time>2017-06-10T12:34:36Z</time>
      </trkpt>
      <trkpt lat="44.74106" lon="5.46713">
        <ele>1948.73</ele>
        <time>2017-06-10T12:34:44Z</time>
      </trkpt>
      <trkpt lat="44.74106" lon="5.46716">
        <ele>1950.65</ele>
        <time>2017-06-10T12:34:56Z</time>
      </trkpt>
      <trkpt lat="44.74106" lon="5.46717">
        <ele>1953.06</ele>
        <time>2017-06-10T12:35:08Z</time>
      </trkpt>
      <trkpt lat="44.74097" lon="5.46721">
        <ele>1955.46</ele>
        <time>2017-06-10T12:35:22Z</time>
      </trkpt>
      <trkpt lat="44.74093" lon="5.4672">
        <ele>1955.46</ele>
        <time>2017-06-10T12:35:25Z</time>
      </trkpt>
      <trkpt lat="44.74087" lon="5.46723">
        <ele>1956.42</ele>
        <time>2017-06-10T12:35:29Z</time>
      </trkpt>
      <trkpt lat="44.74081" lon="5.46727">
        <ele>1957.38</ele>
        <time>2017-06-10T12:35:34Z</time>
      </trkpt>
      <trkpt lat="44.74078" lon="5.46733">
        <ele>1959.3</ele>
        <time>2017-06-10T12:35:44Z</time>
      </trkpt>
      <trkpt lat="44.74076" lon="5.46736">
        <ele>1960.27</ele>
        <time>2017-06-10T12:35:49Z</time>
      </trkpt>
      <trkpt lat="44.74072" lon="5.46737">
        <ele>1961.23</ele>
        <time>2017-06-10T12:36:01Z</time>
      </trkpt>
      <trkpt lat="44.74072" lon="5.46737">
        <ele>1961.23</ele>
        <time>2017-06-10T12:36:06Z</time>
      </trkpt>
      <trkpt lat="44.74063" lon="5.46743">
        <ele>1963.15</ele>
        <time>2017-06-10T12:36:17Z</time>
      </trkpt>
      <trkpt lat="44.74061" lon="5.46751">
        <ele>1965.55</ele>
        <time>2017-06-10T12:36:28Z</time>
      </trkpt>
      <trkpt lat="44.7406" lon="5.46753">
        <ele>1966.51</ele>
        <time>2017-06-10T12:36:35Z</time>
      </trkpt>
      <trkpt lat="44.74053" lon="5.46759">
        <ele>1968.44</ele>
        <time>2017-06-10T12:36:45Z</time>
      </trkpt>
      <trkpt lat="44.74043" lon="5.4677">
        <ele>1970.36</ele>
        <time>2017-06-10T12:36:55Z</time>
      </trkpt>
      <trkpt lat="44.74036" lon="5.46781">
        <ele>1971.32</ele>
        <time>2017-06-10T12:37:04Z</time>
      </trkpt>
      <trkpt lat="44.74029" lon="5.46786">
        <ele>1971.8</ele>
        <time>2017-06-10T12:37:11Z</time>
      </trkpt>
      <trkpt lat="44.74027" lon="5.46789">
        <ele>1971.8</ele>
        <time>2017-06-10T12:37:14Z</time>
      </trkpt>
      <trkpt lat="44.74022" lon="5.46789">
        <ele>1971.32</ele>
        <time>2017-06-10T12:37:19Z</time>
      </trkpt>
      <trkpt lat="44.74019" lon="5.46791">
        <ele>1971.32</ele>
        <time>2017-06-10T12:37:21Z</time>
      </trkpt>
      <trkpt lat="44.74017" lon="5.46794">
        <ele>1972.28</ele>
        <time>2017-06-10T12:37:35Z</time>
      </trkpt>
      <trkpt lat="44.74017" lon="5.46794">
        <ele>1970.84</ele>
        <time>2017-06-10T12:37:45Z</time>
      </trkpt>
      <trkpt lat="44.73951" lon="5.46844">
        <ele>1979.97</ele>
        <time>2017-06-10T12:42:34Z</time>
      </trkpt>
      <trkpt lat="44.7395" lon="5.46845">
        <ele>1980.45</ele>
        <time>2017-06-10T12:42:35Z</time>
      </trkpt>
      <trkpt lat="44.73945" lon="5.46851">
        <ele>1983.82</ele>
        <time>2017-06-10T12:42:45Z</time>
      </trkpt>
      <trkpt lat="44.73943" lon="5.46852">
        <ele>1984.78</ele>
        <time>2017-06-10T12:42:51Z</time>
      </trkpt>
      <trkpt lat="44.73934" lon="5.46857">
        <ele>1987.66</ele>
        <time>2017-06-10T12:43:03Z</time>
      </trkpt>
      <trkpt lat="44.73933" lon="5.46857">
        <ele>1987.66</ele>
        <time>2017-06-10T12:43:04Z</time>
      </trkpt>
      <trkpt lat="44.73931" lon="5.46859">
        <ele>1988.62</ele>
        <time>2017-06-10T12:43:07Z</time>
      </trkpt>
      <trkpt lat="44.73928" lon="5.4686">
        <ele>1989.1</ele>
        <time>2017-06-10T12:43:10Z</time>
      </trkpt>
      <trkpt lat="44.73926" lon="5.46861">
        <ele>1989.59</ele>
        <time>2017-06-10T12:43:13Z</time>
      </trkpt>
      <trkpt lat="44.73916" lon="5.46866">
        <ele>1992.95</ele>
        <time>2017-06-10T12:43:24Z</time>
      </trkpt>
      <trkpt lat="44.73909" lon="5.46871">
        <ele>1994.87</ele>
        <time>2017-06-10T12:43:34Z</time>
      </trkpt>
      <trkpt lat="44.739" lon="5.46877">
        <ele>1998.24</ele>
        <time>2017-06-10T12:43:45Z</time>
      </trkpt>
      <trkpt lat="44.73892" lon="5.46881">
        <ele>2000.16</ele>
        <time>2017-06-10T12:43:54Z</time>
      </trkpt>
      <trkpt lat="44.7389" lon="5.46882">
        <ele>2000.64</ele>
        <time>2017-06-10T12:43:57Z</time>
      </trkpt>
      <trkpt lat="44.73889" lon="5.46885">
        <ele>2001.12</ele>
        <time>2017-06-10T12:44:09Z</time>
      </trkpt>
      <trkpt lat="44.73889" lon="5.46886">
        <ele>2001.12</ele>
        <time>2017-06-10T12:44:28Z</time>
      </trkpt>
      <trkpt lat="44.73889" lon="5.46886">
        <ele>2001.12</ele>
        <time>2017-06-10T12:44:55Z</time>
      </trkpt>
      <trkpt lat="44.73889" lon="5.46886">
        <ele>2001.12</ele>
        <time>2017-06-10T12:45:25Z</time>
      </trkpt>
      <trkpt lat="44.73888" lon="5.46889">
        <ele>2001.12</ele>
        <time>2017-06-10T12:45:48Z</time>
      </trkpt>
      <trkpt lat="44.73883" lon="5.46889">
        <ele>2002.56</ele>
        <time>2017-06-10T12:45:57Z</time>
      </trkpt>
      <trkpt lat="44.73882" lon="5.46889">
        <ele>2003.52</ele>
        <time>2017-06-10T12:45:58Z</time>
      </trkpt>
      <trkpt lat="44.73876" lon="5.46887">
        <ele>2004.49</ele>
        <time>2017-06-10T12:46:08Z</time>
      </trkpt>
      <trkpt lat="44.73865" lon="5.46883">
        <ele>2005.93</ele>
        <time>2017-06-10T12:46:18Z</time>
      </trkpt>
      <trkpt lat="44.73858" lon="5.46883">
        <ele>2007.37</ele>
        <time>2017-06-10T12:46:26Z</time>
      </trkpt>
      <trkpt lat="44.73848" lon="5.46882">
        <ele>2009.29</ele>
        <time>2017-06-10T12:46:37Z</time>
      </trkpt>
      <trkpt lat="44.73846" lon="5.46885">
        <ele>2009.77</ele>
        <time>2017-06-10T12:46:40Z</time>
      </trkpt>
      <trkpt lat="44.73844" lon="5.46886">
        <ele>2010.25</ele>
        <time>2017-06-10T12:46:42Z</time>
      </trkpt>
      <trkpt lat="44.73841" lon="5.46886">
        <ele>2010.73</ele>
        <time>2017-06-10T12:46:46Z</time>
      </trkpt>
      <trkpt lat="44.73839" lon="5.4689">
        <ele>2012.18</ele>
        <time>2017-06-10T12:46:52Z</time>
      </trkpt>
      <trkpt lat="44.73833" lon="5.46894">
        <ele>2014.1</ele>
        <time>2017-06-10T12:47:01Z</time>
      </trkpt>
      <trkpt lat="44.73828" lon="5.469">
        <ele>2015.54</ele>
        <time>2017-06-10T12:47:11Z</time>
      </trkpt>
      <trkpt lat="44.73822" lon="5.46907">
        <ele>2016.98</ele>
        <time>2017-06-10T12:47:20Z</time>
      </trkpt>
      <trkpt lat="44.73819" lon="5.46909">
        <ele>2018.91</ele>
        <time>2017-06-10T12:47:26Z</time>
      </trkpt>
      <trkpt lat="44.73817" lon="5.4691">
        <ele>2019.39</ele>
        <time>2017-06-10T12:47:30Z</time>
      </trkpt>
      <trkpt lat="44.73814" lon="5.46913">
        <ele>2020.35</ele>
        <time>2017-06-10T12:47:36Z</time>
      </trkpt>
      <trkpt lat="44.73811" lon="5.46916">
        <ele>2020.83</ele>
        <time>2017-06-10T12:47:39Z</time>
      </trkpt>
      <trkpt lat="44.73802" lon="5.4692">
        <ele>2023.23</ele>
        <time>2017-06-10T12:47:49Z</time>
      </trkpt>
      <trkpt lat="44.73795" lon="5.46922">
        <ele>2023.71</ele>
        <time>2017-06-10T12:47:56Z</time>
      </trkpt>
      <trkpt lat="44.73793" lon="5.46922">
        <ele>2024.67</ele>
        <time>2017-06-10T12:47:59Z</time>
      </trkpt>
      <trkpt lat="44.7379" lon="5.46923">
        <ele>2025.15</ele>
        <time>2017-06-10T12:48:03Z</time>
      </trkpt>
      <trkpt lat="44.73785" lon="5.46929">
        <ele>2026.6</ele>
        <time>2017-06-10T12:48:13Z</time>
      </trkpt>
      <trkpt lat="44.73785" lon="5.46929">
        <ele>2026.6</ele>
        <time>2017-06-10T12:48:14Z</time>
      </trkpt>
      <trkpt lat="44.73782" lon="5.46933">
        <ele>2027.56</ele>
        <time>2017-06-10T12:48:17Z</time>
      </trkpt>
      <trkpt lat="44.73779" lon="5.46937">
        <ele>2028.52</ele>
        <time>2017-06-10T12:48:21Z</time>
      </trkpt>
      <trkpt lat="44.73772" lon="5.46946">
        <ele>2030.44</ele>
        <time>2017-06-10T12:48:31Z</time>
      </trkpt>
      <trkpt lat="44.73769" lon="5.46947">
        <ele>2030.92</ele>
        <time>2017-06-10T12:48:35Z</time>
      </trkpt>
      <trkpt lat="44.73766" lon="5.4695">
        <ele>2031.4</ele>
        <time>2017-06-10T12:48:39Z</time>
      </trkpt>
      <trkpt lat="44.73764" lon="5.46953">
        <ele>2031.88</ele>
        <time>2017-06-10T12:48:42Z</time>
      </trkpt>
      <trkpt lat="44.7376" lon="5.46954">
        <ele>2032.36</ele>
        <time>2017-06-10T12:48:45Z</time>
      </trkpt>
      <trkpt lat="44.73756" lon="5.46956">
        <ele>2033.33</ele>
        <time>2017-06-10T12:48:50Z</time>
      </trkpt>
      <trkpt lat="44.73752" lon="5.46958">
        <ele>2034.77</ele>
        <time>2017-06-10T12:48:55Z</time>
      </trkpt>
      <trkpt lat="44.7375" lon="5.4696">
        <ele>2034.77</ele>
        <time>2017-06-10T12:48:58Z</time>
      </trkpt>
      <trkpt lat="44.73744" lon="5.46965">
        <ele>2036.69</ele>
        <time>2017-06-10T12:49:03Z</time>
      </trkpt>
      <trkpt lat="44.73736" lon="5.46983">
        <ele>2038.13</ele>
        <time>2017-06-10T12:49:15Z</time>
      </trkpt>
      <trkpt lat="44.73733" lon="5.4699">
        <ele>2038.61</ele>
        <time>2017-06-10T12:49:20Z</time>
      </trkpt>
      <trkpt lat="44.73731" lon="5.46997">
        <ele>2039.57</ele>
        <time>2017-06-10T12:49:25Z</time>
      </trkpt>
      <trkpt lat="44.73724" lon="5.47011">
        <ele>2040.54</ele>
        <time>2017-06-10T12:49:35Z</time>
      </trkpt>
      <trkpt lat="44.73723" lon="5.47018">
        <ele>2041.5</ele>
        <time>2017-06-10T12:49:40Z</time>
      </trkpt>
      <trkpt lat="44.73719" lon="5.47019">
        <ele>2041.02</ele>
        <time>2017-06-10T12:49:55Z</time>
      </trkpt>
      <trkpt lat="44.73718" lon="5.47024">
        <ele>2041.5</ele>
        <time>2017-06-10T12:50:12Z</time>
      </trkpt>
      <trkpt lat="44.73717" lon="5.47025">
        <ele>2038.13</ele>
        <time>2017-06-10T12:50:13Z</time>
      </trkpt>
      <trkpt lat="44.73717" lon="5.47025">
        <ele>2040.54</ele>
        <time>2017-06-10T12:50:14Z</time>
      </trkpt>
      <trkpt lat="44.73716" lon="5.47026">
        <ele>2041.5</ele>
        <time>2017-06-10T12:50:16Z</time>
      </trkpt>
      <trkpt lat="44.73716" lon="5.47026">
        <ele>2039.57</ele>
        <time>2017-06-10T12:50:19Z</time>
      </trkpt>
      <trkpt lat="44.73712" lon="5.47022">
        <ele>2040.05</ele>
        <time>2017-06-10T13:02:35Z</time>
      </trkpt>
      <trkpt lat="44.73713" lon="5.47021">
        <ele>2040.54</ele>
        <time>2017-06-10T13:02:36Z</time>
      </trkpt>
      <trkpt lat="44.73715" lon="5.47023">
        <ele>2040.05</ele>
        <time>2017-06-10T13:02:54Z</time>
      </trkpt>
      <trkpt lat="44.73712" lon="5.47027">
        <ele>2039.57</ele>
        <time>2017-06-10T13:03:04Z</time>
      </trkpt>
      <trkpt lat="44.73707" lon="5.47031">
        <ele>2040.05</ele>
        <time>2017-06-10T13:03:09Z</time>
      </trkpt>
      <trkpt lat="44.73704" lon="5.47036">
        <ele>2039.09</ele>
        <time>2017-06-10T13:03:13Z</time>
      </trkpt>
      <trkpt lat="44.73703" lon="5.47039">
        <ele>2039.09</ele>
        <time>2017-06-10T13:03:16Z</time>
      </trkpt>
      <trkpt lat="44.73699" lon="5.47046">
        <ele>2038.13</ele>
        <time>2017-06-10T13:03:22Z</time>
      </trkpt>
      <trkpt lat="44.73696" lon="5.47054">
        <ele>2036.69</ele>
        <time>2017-06-10T13:03:28Z</time>
      </trkpt>
      <trkpt lat="44.73695" lon="5.47055">
        <ele>2036.21</ele>
        <time>2017-06-10T13:03:30Z</time>
      </trkpt>
      <trkpt lat="44.73693" lon="5.47058">
        <ele>2035.73</ele>
        <time>2017-06-10T13:03:32Z</time>
      </trkpt>
      <trkpt lat="44.73688" lon="5.47067">
        <ele>2034.29</ele>
        <time>2017-06-10T13:03:39Z</time>
      </trkpt>
      <trkpt lat="44.73683" lon="5.47081">
        <ele>2032.84</ele>
        <time>2017-06-10T13:03:49Z</time>
      </trkpt>
      <trkpt lat="44.73679" lon="5.47088">
        <ele>2031.4</ele>
        <time>2017-06-10T13:03:55Z</time>
      </trkpt>
      <trkpt lat="44.73675" lon="5.47093">
        <ele>2030.44</ele>
        <time>2017-06-10T13:04:00Z</time>
      </trkpt>
      <trkpt lat="44.73671" lon="5.47097">
        <ele>2029.48</ele>
        <time>2017-06-10T13:04:04Z</time>
      </trkpt>
      <trkpt lat="44.73667" lon="5.47101">
        <ele>2028.52</ele>
        <time>2017-06-10T13:04:08Z</time>
      </trkpt>
      <trkpt lat="44.7366" lon="5.47107">
        <ele>2027.08</ele>
        <time>2017-06-10T13:04:15Z</time>
      </trkpt>
      <trkpt lat="44.73655" lon="5.47112">
        <ele>2025.15</ele>
        <time>2017-06-10T13:04:20Z</time>
      </trkpt>
      <trkpt lat="44.73654" lon="5.4712">
        <ele>2024.19</ele>
        <time>2017-06-10T13:04:24Z</time>
      </trkpt>
      <trkpt lat="44.73655" lon="5.47139">
        <ele>2021.79</ele>
        <time>2017-06-10T13:04:35Z</time>
      </trkpt>
      <trkpt lat="44.73655" lon="5.47142">
        <ele>2021.31</ele>
        <time>2017-06-10T13:04:38Z</time>
      </trkpt>
      <trkpt lat="44.73656" lon="5.47148">
        <ele>2019.87</ele>
        <time>2017-06-10T13:04:41Z</time>
      </trkpt>
      <trkpt lat="44.73658" lon="5.47158">
        <ele>2018.91</ele>
        <time>2017-06-10T13:04:47Z</time>
      </trkpt>
      <trkpt lat="44.73658" lon="5.47168">
        <ele>2017.94</ele>
        <time>2017-06-10T13:04:53Z</time>
      </trkpt>
      <trkpt lat="44.73658" lon="5.47175">
        <ele>2016.5</ele>
        <time>2017-06-10T13:04:58Z</time>
      </trkpt>
      <trkpt lat="44.73658" lon="5.47185">
        <ele>2015.54</ele>
        <time>2017-06-10T13:05:04Z</time>
      </trkpt>
      <trkpt lat="44.73658" lon="5.47196">
        <ele>2014.1</ele>
        <time>2017-06-10T13:05:11Z</time>
      </trkpt>
      <trkpt lat="44.73658" lon="5.47201">
        <ele>2013.14</ele>
        <time>2017-06-10T13:05:14Z</time>
      </trkpt>
      <trkpt lat="44.73657" lon="5.4721">
        <ele>2012.18</ele>
        <time>2017-06-10T13:05:20Z</time>
      </trkpt>
      <trkpt lat="44.73658" lon="5.47215">
        <ele>2011.22</ele>
        <time>2017-06-10T13:05:23Z</time>
      </trkpt>
      <trkpt lat="44.73655" lon="5.47229">
        <ele>2009.29</ele>
        <time>2017-06-10T13:05:33Z</time>
      </trkpt>
      <trkpt lat="44.73655" lon="5.47235">
        <ele>2008.33</ele>
        <time>2017-06-10T13:05:37Z</time>
      </trkpt>
      <trkpt lat="44.73655" lon="5.47238">
        <ele>2007.85</ele>
        <time>2017-06-10T13:05:39Z</time>
      </trkpt>
      <trkpt lat="44.73653" lon="5.47246">
        <ele>2006.41</ele>
        <time>2017-06-10T13:05:44Z</time>
      </trkpt>
      <trkpt lat="44.73652" lon="5.47254">
        <ele>2006.41</ele>
        <time>2017-06-10T13:05:49Z</time>
      </trkpt>
      <trkpt lat="44.73652" lon="5.47259">
        <ele>2005.45</ele>
        <time>2017-06-10T13:05:53Z</time>
      </trkpt>
      <trkpt lat="44.73651" lon="5.47271">
        <ele>2002.56</ele>
        <time>2017-06-10T13:06:02Z</time>
      </trkpt>
      <trkpt lat="44.73652" lon="5.47286">
        <ele>2000.64</ele>
        <time>2017-06-10T13:06:10Z</time>
      </trkpt>
      <trkpt lat="44.73651" lon="5.47295">
        <ele>1999.2</ele>
        <time>2017-06-10T13:06:16Z</time>
      </trkpt>
      <trkpt lat="44.73652" lon="5.47298">
        <ele>1999.2</ele>
        <time>2017-06-10T13:06:18Z</time>
      </trkpt>
      <trkpt lat="44.73653" lon="5.47306">
        <ele>1997.76</ele>
        <time>2017-06-10T13:06:24Z</time>
      </trkpt>
      <trkpt lat="44.73653" lon="5.47309">
        <ele>1996.8</ele>
        <time>2017-06-10T13:06:26Z</time>
      </trkpt>
      <trkpt lat="44.73653" lon="5.47318">
        <ele>1995.83</ele>
        <time>2017-06-10T13:06:31Z</time>
      </trkpt>
      <trkpt lat="44.7365" lon="5.47328">
        <ele>1993.91</ele>
        <time>2017-06-10T13:06:38Z</time>
      </trkpt>
      <trkpt lat="44.73646" lon="5.47336">
        <ele>1992.47</ele>
        <time>2017-06-10T13:06:45Z</time>
      </trkpt>
      <trkpt lat="44.73642" lon="5.47349">
        <ele>1990.55</ele>
        <time>2017-06-10T13:06:54Z</time>
      </trkpt>
      <trkpt lat="44.73633" lon="5.47361">
        <ele>1988.14</ele>
        <time>2017-06-10T13:07:06Z</time>
      </trkpt>
      <trkpt lat="44.73632" lon="5.47363">
        <ele>1987.66</ele>
        <time>2017-06-10T13:07:08Z</time>
      </trkpt>
      <trkpt lat="44.7363" lon="5.47367">
        <ele>1987.66</ele>
        <time>2017-06-10T13:07:11Z</time>
      </trkpt>
      <trkpt lat="44.73624" lon="5.47381">
        <ele>1984.78</ele>
        <time>2017-06-10T13:07:22Z</time>
      </trkpt>
      <trkpt lat="44.73622" lon="5.47384">
        <ele>1984.3</ele>
        <time>2017-06-10T13:07:25Z</time>
      </trkpt>
      <trkpt lat="44.73617" lon="5.47392">
        <ele>1982.86</ele>
        <time>2017-06-10T13:07:32Z</time>
      </trkpt>
      <trkpt lat="44.7361" lon="5.47401">
        <ele>1980.93</ele>
        <time>2017-06-10T13:07:41Z</time>
      </trkpt>
      <trkpt lat="44.73609" lon="5.47408">
        <ele>1979.97</ele>
        <time>2017-06-10T13:07:45Z</time>
      </trkpt>
      <trkpt lat="44.73608" lon="5.47417">
        <ele>1979.01</ele>
        <time>2017-06-10T13:07:52Z</time>
      </trkpt>
      <trkpt lat="44.73606" lon="5.47421">
        <ele>1978.53</ele>
        <time>2017-06-10T13:07:55Z</time>
      </trkpt>
      <trkpt lat="44.73602" lon="5.47426">
        <ele>1976.61</ele>
        <time>2017-06-10T13:08:01Z</time>
      </trkpt>
      <trkpt lat="44.736" lon="5.47436">
        <ele>1975.17</ele>
        <time>2017-06-10T13:08:08Z</time>
      </trkpt>
      <trkpt lat="44.73594" lon="5.47446">
        <ele>1973.72</ele>
        <time>2017-06-10T13:08:17Z</time>
      </trkpt>
      <trkpt lat="44.73594" lon="5.47454">
        <ele>1972.76</ele>
        <time>2017-06-10T13:08:22Z</time>
      </trkpt>
      <trkpt lat="44.73592" lon="5.47459">
        <ele>1972.28</ele>
        <time>2017-06-10T13:08:26Z</time>
      </trkpt>
      <trkpt lat="44.73589" lon="5.47465">
        <ele>1970.84</ele>
        <time>2017-06-10T13:08:32Z</time>
      </trkpt>
      <trkpt lat="44.73589" lon="5.47472">
        <ele>1969.88</ele>
        <time>2017-06-10T13:08:36Z</time>
      </trkpt>
      <trkpt lat="44.73589" lon="5.47475">
        <ele>1969.4</ele>
        <time>2017-06-10T13:08:38Z</time>
      </trkpt>
      <trkpt lat="44.73586" lon="5.47481">
        <ele>1968.92</ele>
        <time>2017-06-10T13:08:43Z</time>
      </trkpt>
      <trkpt lat="44.73585" lon="5.47484">
        <ele>1968.44</ele>
        <time>2017-06-10T13:08:45Z</time>
      </trkpt>
      <trkpt lat="44.73583" lon="5.47491">
        <ele>1966.99</ele>
        <time>2017-06-10T13:08:52Z</time>
      </trkpt>
      <trkpt lat="44.73578" lon="5.47496">
        <ele>1965.55</ele>
        <time>2017-06-10T13:08:58Z</time>
      </trkpt>
      <trkpt lat="44.73576" lon="5.47496">
        <ele>1965.07</ele>
        <time>2017-06-10T13:09:00Z</time>
      </trkpt>
      <trkpt lat="44.73574" lon="5.47499">
        <ele>1964.11</ele>
        <time>2017-06-10T13:09:04Z</time>
      </trkpt>
      <trkpt lat="44.73575" lon="5.47505">
        <ele>1963.63</ele>
        <time>2017-06-10T13:09:08Z</time>
      </trkpt>
      <trkpt lat="44.73575" lon="5.4751">
        <ele>1963.63</ele>
        <time>2017-06-10T13:09:10Z</time>
      </trkpt>
      <trkpt lat="44.73575" lon="5.47518">
        <ele>1963.15</ele>
        <time>2017-06-10T13:09:14Z</time>
      </trkpt>
      <trkpt lat="44.73575" lon="5.47535">
        <ele>1961.23</ele>
        <time>2017-06-10T13:09:24Z</time>
      </trkpt>
      <trkpt lat="44.73573" lon="5.47547">
        <ele>1960.27</ele>
        <time>2017-06-10T13:09:31Z</time>
      </trkpt>
      <trkpt lat="44.73572" lon="5.47551">
        <ele>1959.78</ele>
        <time>2017-06-10T13:09:34Z</time>
      </trkpt>
      <trkpt lat="44.7357" lon="5.4756">
        <ele>1957.86</ele>
        <time>2017-06-10T13:09:41Z</time>
      </trkpt>
      <trkpt lat="44.73567" lon="5.47567">
        <ele>1956.9</ele>
        <time>2017-06-10T13:09:45Z</time>
      </trkpt>
      <trkpt lat="44.73565" lon="5.47577">
        <ele>1956.42</ele>
        <time>2017-06-10T13:09:51Z</time>
      </trkpt>
      <trkpt lat="44.73561" lon="5.47584">
        <ele>1956.42</ele>
        <time>2017-06-10T13:10:01Z</time>
      </trkpt>
      <trkpt lat="44.73561" lon="5.47585">
        <ele>1944.88</ele>
        <time>2017-06-10T13:10:07Z</time>
      </trkpt>
      <trkpt lat="44.73561" lon="5.47585">
        <ele>1961.23</ele>
        <time>2017-06-10T13:10:08Z</time>
      </trkpt>
      <trkpt lat="44.73561" lon="5.47585">
        <ele>1957.86</ele>
        <time>2017-06-10T13:10:09Z</time>
      </trkpt>
      <trkpt lat="44.73561" lon="5.47585">
        <ele>1954.5</ele>
        <time>2017-06-10T13:10:17Z</time>
      </trkpt>
      <trkpt lat="44.73558" lon="5.47586">
        <ele>1955.94</ele>
        <time>2017-06-10T13:12:28Z</time>
      </trkpt>
      <trkpt lat="44.7356" lon="5.47587">
        <ele>1955.94</ele>
        <time>2017-06-10T13:12:29Z</time>
      </trkpt>
      <trkpt lat="44.73557" lon="5.47592">
        <ele>1955.46</ele>
        <time>2017-06-10T13:12:40Z</time>
      </trkpt>
      <trkpt lat="44.73555" lon="5.47597">
        <ele>1954.98</ele>
        <time>2017-06-10T13:12:45Z</time>
      </trkpt>
      <trkpt lat="44.73553" lon="5.47601">
        <ele>1954.98</ele>
        <time>2017-06-10T13:12:48Z</time>
      </trkpt>
      <trkpt lat="44.73546" lon="5.4761">
        <ele>1953.54</ele>
        <time>2017-06-10T13:12:56Z</time>
      </trkpt>
      <trkpt lat="44.7354" lon="5.47618">
        <ele>1953.06</ele>
        <time>2017-06-10T13:13:02Z</time>
      </trkpt>
      <trkpt lat="44.73535" lon="5.47622">
        <ele>1953.06</ele>
        <time>2017-06-10T13:13:07Z</time>
      </trkpt>
      <trkpt lat="44.73533" lon="5.47624">
        <ele>1952.57</ele>
        <time>2017-06-10T13:13:09Z</time>
      </trkpt>
      <trkpt lat="44.73524" lon="5.47633">
        <ele>1951.61</ele>
        <time>2017-06-10T13:13:18Z</time>
      </trkpt>
      <trkpt lat="44.73522" lon="5.47638">
        <ele>1951.61</ele>
        <time>2017-06-10T13:13:21Z</time>
      </trkpt>
      <trkpt lat="44.73518" lon="5.47647">
        <ele>1950.65</ele>
        <time>2017-06-10T13:13:27Z</time>
      </trkpt>
      <trkpt lat="44.73513" lon="5.47658">
        <ele>1950.17</ele>
        <time>2017-06-10T13:13:35Z</time>
      </trkpt>
      <trkpt lat="44.7351" lon="5.47663">
        <ele>1949.69</ele>
        <time>2017-06-10T13:13:39Z</time>
      </trkpt>
      <trkpt lat="44.73508" lon="5.4767">
        <ele>1948.73</ele>
        <time>2017-06-10T13:13:44Z</time>
      </trkpt>
      <trkpt lat="44.73508" lon="5.47674">
        <ele>1948.73</ele>
        <time>2017-06-10T13:13:47Z</time>
      </trkpt>
      <trkpt lat="44.73501" lon="5.47685">
        <ele>1947.29</ele>
        <time>2017-06-10T13:13:54Z</time>
      </trkpt>
      <trkpt lat="44.73495" lon="5.47692">
        <ele>1947.29</ele>
        <time>2017-06-10T13:13:59Z</time>
      </trkpt>
      <trkpt lat="44.73485" lon="5.47707">
        <ele>1946.81</ele>
        <time>2017-06-10T13:14:09Z</time>
      </trkpt>
      <trkpt lat="44.73481" lon="5.47713">
        <ele>1945.85</ele>
        <time>2017-06-10T13:14:16Z</time>
      </trkpt>
      <trkpt lat="44.73474" lon="5.47726">
        <ele>1945.36</ele>
        <time>2017-06-10T13:14:26Z</time>
      </trkpt>
      <trkpt lat="44.7347" lon="5.47734">
        <ele>1944.4</ele>
        <time>2017-06-10T13:14:31Z</time>
      </trkpt>
      <trkpt lat="44.73465" lon="5.47748">
        <ele>1942.48</ele>
        <time>2017-06-10T13:14:40Z</time>
      </trkpt>
      <trkpt lat="44.73464" lon="5.47752">
        <ele>1942.96</ele>
        <time>2017-06-10T13:14:42Z</time>
      </trkpt>
      <trkpt lat="44.73458" lon="5.47757">
        <ele>1942</ele>
        <time>2017-06-10T13:14:48Z</time>
      </trkpt>
      <trkpt lat="44.7345" lon="5.47764">
        <ele>1942</ele>
        <time>2017-06-10T13:14:55Z</time>
      </trkpt>
      <trkpt lat="44.73447" lon="5.47768">
        <ele>1941.52</ele>
        <time>2017-06-10T13:14:58Z</time>
      </trkpt>
      <trkpt lat="44.73441" lon="5.47775">
        <ele>1940.56</ele>
        <time>2017-06-10T13:15:05Z</time>
      </trkpt>
      <trkpt lat="44.73434" lon="5.47783">
        <ele>1940.08</ele>
        <time>2017-06-10T13:15:12Z</time>
      </trkpt>
      <trkpt lat="44.73433" lon="5.47786">
        <ele>1940.56</ele>
        <time>2017-06-10T13:15:14Z</time>
      </trkpt>
      <trkpt lat="44.7343" lon="5.47795">
        <ele>1939.6</ele>
        <time>2017-06-10T13:15:20Z</time>
      </trkpt>
      <trkpt lat="44.73429" lon="5.47798">
        <ele>1939.12</ele>
        <time>2017-06-10T13:15:23Z</time>
      </trkpt>
      <trkpt lat="44.73427" lon="5.478">
        <ele>1939.6</ele>
        <time>2017-06-10T13:15:26Z</time>
      </trkpt>
      <trkpt lat="44.73424" lon="5.47805">
        <ele>1939.12</ele>
        <time>2017-06-10T13:15:29Z</time>
      </trkpt>
      <trkpt lat="44.73421" lon="5.47812">
        <ele>1938.64</ele>
        <time>2017-06-10T13:15:38Z</time>
      </trkpt>
      <trkpt lat="44.73419" lon="5.47817">
        <ele>1938.16</ele>
        <time>2017-06-10T13:15:42Z</time>
      </trkpt>
      <trkpt lat="44.73415" lon="5.47826">
        <ele>1937.67</ele>
        <time>2017-06-10T13:15:48Z</time>
      </trkpt>
      <trkpt lat="44.73414" lon="5.47827">
        <ele>1937.19</ele>
        <time>2017-06-10T13:15:50Z</time>
      </trkpt>
      <trkpt lat="44.73408" lon="5.47839">
        <ele>1935.75</ele>
        <time>2017-06-10T13:15:58Z</time>
      </trkpt>
      <trkpt lat="44.73406" lon="5.47844">
        <ele>1935.75</ele>
        <time>2017-06-10T13:16:01Z</time>
      </trkpt>
      <trkpt lat="44.734" lon="5.4785">
        <ele>1934.79</ele>
        <time>2017-06-10T13:16:07Z</time>
      </trkpt>
      <trkpt lat="44.73394" lon="5.47865">
        <ele>1932.87</ele>
        <time>2017-06-10T13:16:16Z</time>
      </trkpt>
      <trkpt lat="44.73392" lon="5.47869">
        <ele>1932.87</ele>
        <time>2017-06-10T13:16:19Z</time>
      </trkpt>
      <trkpt lat="44.73389" lon="5.47876">
        <ele>1931.43</ele>
        <time>2017-06-10T13:16:24Z</time>
      </trkpt>
      <trkpt lat="44.73387" lon="5.4788">
        <ele>1930.95</ele>
        <time>2017-06-10T13:16:27Z</time>
      </trkpt>
      <trkpt lat="44.73386" lon="5.47882">
        <ele>1930.46</ele>
        <time>2017-06-10T13:16:29Z</time>
      </trkpt>
      <trkpt lat="44.73383" lon="5.47885">
        <ele>1929.98</ele>
        <time>2017-06-10T13:16:32Z</time>
      </trkpt>
      <trkpt lat="44.73378" lon="5.47888">
        <ele>1929.5</ele>
        <time>2017-06-10T13:16:36Z</time>
      </trkpt>
      <trkpt lat="44.73374" lon="5.47889">
        <ele>1929.02</ele>
        <time>2017-06-10T13:16:39Z</time>
      </trkpt>
      <trkpt lat="44.73369" lon="5.47893">
        <ele>1928.06</ele>
        <time>2017-06-10T13:16:44Z</time>
      </trkpt>
      <trkpt lat="44.73367" lon="5.47895">
        <ele>1927.58</ele>
        <time>2017-06-10T13:16:46Z</time>
      </trkpt>
      <trkpt lat="44.73353" lon="5.47904">
        <ele>1925.66</ele>
        <time>2017-06-10T13:16:58Z</time>
      </trkpt>
      <trkpt lat="44.73352" lon="5.47905">
        <ele>1925.18</ele>
        <time>2017-06-10T13:17:00Z</time>
      </trkpt>
      <trkpt lat="44.73349" lon="5.47907">
        <ele>1924.7</ele>
        <time>2017-06-10T13:17:03Z</time>
      </trkpt>
      <trkpt lat="44.73345" lon="5.47909">
        <ele>1923.74</ele>
        <time>2017-06-10T13:17:13Z</time>
      </trkpt>
      <trkpt lat="44.73345" lon="5.47909">
        <ele>1923.74</ele>
        <time>2017-06-10T13:17:33Z</time>
      </trkpt>
      <trkpt lat="44.73346" lon="5.4791">
        <ele>1923.74</ele>
        <time>2017-06-10T13:18:06Z</time>
      </trkpt>
      <trkpt lat="44.73346" lon="5.4791">
        <ele>1923.74</ele>
        <time>2017-06-10T13:18:23Z</time>
      </trkpt>
      <trkpt lat="44.73343" lon="5.47911">
        <ele>1923.25</ele>
        <time>2017-06-10T13:18:25Z</time>
      </trkpt>
      <trkpt lat="44.73339" lon="5.47914">
        <ele>1922.77</ele>
        <time>2017-06-10T13:18:34Z</time>
      </trkpt>
      <trkpt lat="44.73327" lon="5.47918">
        <ele>1921.81</ele>
        <time>2017-06-10T13:18:42Z</time>
      </trkpt>
      <trkpt lat="44.73315" lon="5.47926">
        <ele>1919.41</ele>
        <time>2017-06-10T13:18:53Z</time>
      </trkpt>
      <trkpt lat="44.73313" lon="5.47928">
        <ele>1918.93</ele>
        <time>2017-06-10T13:18:55Z</time>
      </trkpt>
      <trkpt lat="44.73309" lon="5.47928">
        <ele>1917.97</ele>
        <time>2017-06-10T13:19:00Z</time>
      </trkpt>
      <trkpt lat="44.73297" lon="5.4793">
        <ele>1916.53</ele>
        <time>2017-06-10T13:19:08Z</time>
      </trkpt>
      <trkpt lat="44.73286" lon="5.47931">
        <ele>1915.08</ele>
        <time>2017-06-10T13:19:18Z</time>
      </trkpt>
      <trkpt lat="44.73275" lon="5.47932">
        <ele>1913.64</ele>
        <time>2017-06-10T13:19:28Z</time>
      </trkpt>
      <trkpt lat="44.7327" lon="5.47936">
        <ele>1912.68</ele>
        <time>2017-06-10T13:19:33Z</time>
      </trkpt>
      <trkpt lat="44.73268" lon="5.47937">
        <ele>1911.24</ele>
        <time>2017-06-10T13:19:36Z</time>
      </trkpt>
      <trkpt lat="44.73267" lon="5.47938">
        <ele>1910.76</ele>
        <time>2017-06-10T13:19:37Z</time>
      </trkpt>
      <trkpt lat="44.73264" lon="5.47943">
        <ele>1909.8</ele>
        <time>2017-06-10T13:19:43Z</time>
      </trkpt>
      <trkpt lat="44.73263" lon="5.47946">
        <ele>1908.83</ele>
        <time>2017-06-10T13:19:46Z</time>
      </trkpt>
      <trkpt lat="44.73261" lon="5.47951">
        <ele>1906.91</ele>
        <time>2017-06-10T13:19:51Z</time>
      </trkpt>
      <trkpt lat="44.73259" lon="5.47955">
        <ele>1906.43</ele>
        <time>2017-06-10T13:20:02Z</time>
      </trkpt>
      <trkpt lat="44.73257" lon="5.47964">
        <ele>1903.07</ele>
        <time>2017-06-10T13:20:11Z</time>
      </trkpt>
      <trkpt lat="44.73253" lon="5.47963">
        <ele>1901.63</ele>
        <time>2017-06-10T13:20:18Z</time>
      </trkpt>
      <trkpt lat="44.7325" lon="5.47969">
        <ele>1899.7</ele>
        <time>2017-06-10T13:20:24Z</time>
      </trkpt>
      <trkpt lat="44.73248" lon="5.47977">
        <ele>1896.82</ele>
        <time>2017-06-10T13:20:32Z</time>
      </trkpt>
      <trkpt lat="44.73247" lon="5.47987">
        <ele>1893.93</ele>
        <time>2017-06-10T13:20:42Z</time>
      </trkpt>
      <trkpt lat="44.73244" lon="5.47988">
        <ele>1894.42</ele>
        <time>2017-06-10T13:20:45Z</time>
      </trkpt>
      <trkpt lat="44.73239" lon="5.47991">
        <ele>1893.93</ele>
        <time>2017-06-10T13:20:58Z</time>
      </trkpt>
      <trkpt lat="44.73238" lon="5.47991">
        <ele>1893.93</ele>
        <time>2017-06-10T13:21:17Z</time>
      </trkpt>
      <trkpt lat="44.7323" lon="5.47994">
        <ele>1893.93</ele>
        <time>2017-06-10T13:21:24Z</time>
      </trkpt>
      <trkpt lat="44.73222" lon="5.47994">
        <ele>1893.93</ele>
        <time>2017-06-10T13:21:30Z</time>
      </trkpt>
      <trkpt lat="44.73215" lon="5.47995">
        <ele>1893.93</ele>
        <time>2017-06-10T13:21:35Z</time>
      </trkpt>
      <trkpt lat="44.73202" lon="5.47999">
        <ele>1891.53</ele>
        <time>2017-06-10T13:21:46Z</time>
      </trkpt>
      <trkpt lat="44.73195" lon="5.47998">
        <ele>1891.53</ele>
        <time>2017-06-10T13:21:50Z</time>
      </trkpt>
      <trkpt lat="44.73187" lon="5.47996">
        <ele>1891.05</ele>
        <time>2017-06-10T13:21:58Z</time>
      </trkpt>
      <trkpt lat="44.73175" lon="5.47993">
        <ele>1890.57</ele>
        <time>2017-06-10T13:22:08Z</time>
      </trkpt>
      <trkpt lat="44.73168" lon="5.47993">
        <ele>1889.61</ele>
        <time>2017-06-10T13:22:14Z</time>
      </trkpt>
      <trkpt lat="44.73166" lon="5.47992">
        <ele>1889.61</ele>
        <time>2017-06-10T13:22:16Z</time>
      </trkpt>
      <trkpt lat="44.73164" lon="5.47993">
        <ele>1889.13</ele>
        <time>2017-06-10T13:22:18Z</time>
      </trkpt>
      <trkpt lat="44.73157" lon="5.47991">
        <ele>1887.69</ele>
        <time>2017-06-10T13:22:23Z</time>
      </trkpt>
      <trkpt lat="44.73152" lon="5.47991">
        <ele>1886.24</ele>
        <time>2017-06-10T13:22:29Z</time>
      </trkpt>
      <trkpt lat="44.73148" lon="5.4799">
        <ele>1885.28</ele>
        <time>2017-06-10T13:22:32Z</time>
      </trkpt>
      <trkpt lat="44.73142" lon="5.47987">
        <ele>1884.32</ele>
        <time>2017-06-10T13:22:38Z</time>
      </trkpt>
      <trkpt lat="44.73139" lon="5.47984">
        <ele>1883.84</ele>
        <time>2017-06-10T13:22:41Z</time>
      </trkpt>
      <trkpt lat="44.7313" lon="5.47979">
        <ele>1882.88</ele>
        <time>2017-06-10T13:22:48Z</time>
      </trkpt>
      <trkpt lat="44.73126" lon="5.47978">
        <ele>1882.88</ele>
        <time>2017-06-10T13:22:51Z</time>
      </trkpt>
      <trkpt lat="44.73118" lon="5.47982">
        <ele>1881.92</ele>
        <time>2017-06-10T13:22:58Z</time>
      </trkpt>
      <trkpt lat="44.73117" lon="5.47987">
        <ele>1881.92</ele>
        <time>2017-06-10T13:23:01Z</time>
      </trkpt>
      <trkpt lat="44.73114" lon="5.48003">
        <ele>1880.96</ele>
        <time>2017-06-10T13:23:10Z</time>
      </trkpt>
      <trkpt lat="44.73112" lon="5.48014">
        <ele>1880</ele>
        <time>2017-06-10T13:23:20Z</time>
      </trkpt>
      <trkpt lat="44.73112" lon="5.48017">
        <ele>1880</ele>
        <time>2017-06-10T13:23:49Z</time>
      </trkpt>
      <trkpt lat="44.73113" lon="5.48019">
        <ele>1880</ele>
        <time>2017-06-10T13:23:50Z</time>
      </trkpt>
      <trkpt lat="44.73109" lon="5.48037">
        <ele>1879.03</ele>
        <time>2017-06-10T13:24:00Z</time>
      </trkpt>
      <trkpt lat="44.73108" lon="5.48038">
        <ele>1879.03</ele>
        <time>2017-06-10T13:24:01Z</time>
      </trkpt>
      <trkpt lat="44.73108" lon="5.48041">
        <ele>1879.03</ele>
        <time>2017-06-10T13:24:03Z</time>
      </trkpt>
      <trkpt lat="44.73104" lon="5.48054">
        <ele>1878.55</ele>
        <time>2017-06-10T13:24:12Z</time>
      </trkpt>
      <trkpt lat="44.73103" lon="5.48058">
        <ele>1878.55</ele>
        <time>2017-06-10T13:24:14Z</time>
      </trkpt>
      <trkpt lat="44.73101" lon="5.48065">
        <ele>1878.07</ele>
        <time>2017-06-10T13:24:17Z</time>
      </trkpt>
      <trkpt lat="44.73098" lon="5.48076">
        <ele>1877.59</ele>
        <time>2017-06-10T13:24:25Z</time>
      </trkpt>
      <trkpt lat="44.73093" lon="5.48086">
        <ele>1877.11</ele>
        <time>2017-06-10T13:24:31Z</time>
      </trkpt>
      <trkpt lat="44.73088" lon="5.48099">
        <ele>1876.15</ele>
        <time>2017-06-10T13:24:40Z</time>
      </trkpt>
      <trkpt lat="44.73087" lon="5.48102">
        <ele>1875.67</ele>
        <time>2017-06-10T13:24:42Z</time>
      </trkpt>
      <trkpt lat="44.73083" lon="5.48112">
        <ele>1875.19</ele>
        <time>2017-06-10T13:24:47Z</time>
      </trkpt>
      <trkpt lat="44.7308" lon="5.48116">
        <ele>1874.23</ele>
        <time>2017-06-10T13:24:53Z</time>
      </trkpt>
      <trkpt lat="44.73071" lon="5.48128">
        <ele>1872.79</ele>
        <time>2017-06-10T13:25:03Z</time>
      </trkpt>
      <trkpt lat="44.73067" lon="5.48134">
        <ele>1872.79</ele>
        <time>2017-06-10T13:25:07Z</time>
      </trkpt>
      <trkpt lat="44.73058" lon="5.48149">
        <ele>1869.9</ele>
        <time>2017-06-10T13:25:18Z</time>
      </trkpt>
      <trkpt lat="44.7305" lon="5.48159">
        <ele>1868.94</ele>
        <time>2017-06-10T13:25:26Z</time>
      </trkpt>
      <trkpt lat="44.73047" lon="5.48163">
        <ele>1867.98</ele>
        <time>2017-06-10T13:25:30Z</time>
      </trkpt>
      <trkpt lat="44.73044" lon="5.48167">
        <ele>1866.54</ele>
        <time>2017-06-10T13:25:33Z</time>
      </trkpt>
      <trkpt lat="44.73036" lon="5.48181">
        <ele>1863.65</ele>
        <time>2017-06-10T13:25:43Z</time>
      </trkpt>
      <trkpt lat="44.73035" lon="5.48186">
        <ele>1862.69</ele>
        <time>2017-06-10T13:25:47Z</time>
      </trkpt>
      <trkpt lat="44.73033" lon="5.4819">
        <ele>1861.73</ele>
        <time>2017-06-10T13:25:50Z</time>
      </trkpt>
      <trkpt lat="44.73029" lon="5.48195">
        <ele>1860.77</ele>
        <time>2017-06-10T13:25:54Z</time>
      </trkpt>
      <trkpt lat="44.73024" lon="5.48201">
        <ele>1859.81</ele>
        <time>2017-06-10T13:26:01Z</time>
      </trkpt>
      <trkpt lat="44.73024" lon="5.48205">
        <ele>1859.33</ele>
        <time>2017-06-10T13:26:03Z</time>
      </trkpt>
      <trkpt lat="44.7302" lon="5.48209">
        <ele>1858.85</ele>
        <time>2017-06-10T13:26:06Z</time>
      </trkpt>
      <trkpt lat="44.73013" lon="5.48214">
        <ele>1857.4</ele>
        <time>2017-06-10T13:26:12Z</time>
      </trkpt>
      <trkpt lat="44.73002" lon="5.48222">
        <ele>1854.52</ele>
        <time>2017-06-10T13:26:22Z</time>
      </trkpt>
      <trkpt lat="44.72998" lon="5.48224">
        <ele>1853.56</ele>
        <time>2017-06-10T13:26:25Z</time>
      </trkpt>
      <trkpt lat="44.72993" lon="5.48227">
        <ele>1852.6</ele>
        <time>2017-06-10T13:26:30Z</time>
      </trkpt>
      <trkpt lat="44.72986" lon="5.48232">
        <ele>1850.68</ele>
        <time>2017-06-10T13:26:37Z</time>
      </trkpt>
      <trkpt lat="44.72976" lon="5.48239">
        <ele>1847.79</ele>
        <time>2017-06-10T13:26:48Z</time>
      </trkpt>
      <trkpt lat="44.72966" lon="5.48251">
        <ele>1843.95</ele>
        <time>2017-06-10T13:26:59Z</time>
      </trkpt>
      <trkpt lat="44.72962" lon="5.48255">
        <ele>1842.5</ele>
        <time>2017-06-10T13:27:04Z</time>
      </trkpt>
      <trkpt lat="44.72959" lon="5.48257">
        <ele>1842.02</ele>
        <time>2017-06-10T13:27:07Z</time>
      </trkpt>
      <trkpt lat="44.72952" lon="5.48262">
        <ele>1840.1</ele>
        <time>2017-06-10T13:27:13Z</time>
      </trkpt>
      <trkpt lat="44.7295" lon="5.48263">
        <ele>1839.62</ele>
        <time>2017-06-10T13:27:15Z</time>
      </trkpt>
      <trkpt lat="44.72946" lon="5.48264">
        <ele>1838.66</ele>
        <time>2017-06-10T13:27:20Z</time>
      </trkpt>
      <trkpt lat="44.72937" lon="5.48273">
        <ele>1836.74</ele>
        <time>2017-06-10T13:27:30Z</time>
      </trkpt>
      <trkpt lat="44.72932" lon="5.48277">
        <ele>1834.81</ele>
        <time>2017-06-10T13:27:36Z</time>
      </trkpt>
      <trkpt lat="44.72928" lon="5.4828">
        <ele>1833.37</ele>
        <time>2017-06-10T13:27:39Z</time>
      </trkpt>
      <trkpt lat="44.72924" lon="5.48284">
        <ele>1832.41</ele>
        <time>2017-06-10T13:27:43Z</time>
      </trkpt>
      <trkpt lat="44.72921" lon="5.48288">
        <ele>1831.45</ele>
        <time>2017-06-10T13:27:57Z</time>
      </trkpt>
      <trkpt lat="44.7292" lon="5.4829">
        <ele>1831.45</ele>
        <time>2017-06-10T13:28:16Z</time>
      </trkpt>
      <trkpt lat="44.72913" lon="5.48291">
        <ele>1830.97</ele>
        <time>2017-06-10T13:28:23Z</time>
      </trkpt>
      <trkpt lat="44.72906" lon="5.48292">
        <ele>1830.01</ele>
        <time>2017-06-10T13:28:30Z</time>
      </trkpt>
      <trkpt lat="44.72892" lon="5.48288">
        <ele>1829.53</ele>
        <time>2017-06-10T13:28:42Z</time>
      </trkpt>
      <trkpt lat="44.72882" lon="5.48288">
        <ele>1827.6</ele>
        <time>2017-06-10T13:28:52Z</time>
      </trkpt>
      <trkpt lat="44.72879" lon="5.48288">
        <ele>1827.6</ele>
        <time>2017-06-10T13:28:55Z</time>
      </trkpt>
      <trkpt lat="44.72873" lon="5.48292">
        <ele>1826.64</ele>
        <time>2017-06-10T13:29:01Z</time>
      </trkpt>
      <trkpt lat="44.72864" lon="5.483">
        <ele>1824.72</ele>
        <time>2017-06-10T13:29:12Z</time>
      </trkpt>
      <trkpt lat="44.72864" lon="5.483">
        <ele>1824.72</ele>
        <time>2017-06-10T13:29:28Z</time>
      </trkpt>
      <trkpt lat="44.72862" lon="5.48303">
        <ele>1824.72</ele>
        <time>2017-06-10T13:29:31Z</time>
      </trkpt>
      <trkpt lat="44.72859" lon="5.48306">
        <ele>1823.76</ele>
        <time>2017-06-10T13:29:35Z</time>
      </trkpt>
      <trkpt lat="44.72851" lon="5.4831">
        <ele>1821.35</ele>
        <time>2017-06-10T13:29:46Z</time>
      </trkpt>
      <trkpt lat="44.7285" lon="5.48312">
        <ele>1820.87</ele>
        <time>2017-06-10T13:29:51Z</time>
      </trkpt>
      <trkpt lat="44.72844" lon="5.48317">
        <ele>1819.91</ele>
        <time>2017-06-10T13:29:55Z</time>
      </trkpt>
      <trkpt lat="44.72841" lon="5.48317">
        <ele>1818.95</ele>
        <time>2017-06-10T13:29:59Z</time>
      </trkpt>
      <trkpt lat="44.72831" lon="5.48331">
        <ele>1816.07</ele>
        <time>2017-06-10T13:30:10Z</time>
      </trkpt>
      <trkpt lat="44.72831" lon="5.48332">
        <ele>1816.07</ele>
        <time>2017-06-10T13:30:11Z</time>
      </trkpt>
      <trkpt lat="44.72818" lon="5.4834">
        <ele>1813.18</ele>
        <time>2017-06-10T13:30:22Z</time>
      </trkpt>
      <trkpt lat="44.72818" lon="5.48341">
        <ele>1812.7</ele>
        <time>2017-06-10T13:30:23Z</time>
      </trkpt>
      <trkpt lat="44.7281" lon="5.48347">
        <ele>1810.78</ele>
        <time>2017-06-10T13:30:30Z</time>
      </trkpt>
      <trkpt lat="44.72801" lon="5.48353">
        <ele>1808.86</ele>
        <time>2017-06-10T13:30:39Z</time>
      </trkpt>
      <trkpt lat="44.72799" lon="5.4836">
        <ele>1806.94</ele>
        <time>2017-06-10T13:30:45Z</time>
      </trkpt>
      <trkpt lat="44.72795" lon="5.48361">
        <ele>1806.45</ele>
        <time>2017-06-10T13:30:48Z</time>
      </trkpt>
      <trkpt lat="44.72787" lon="5.48365">
        <ele>1804.05</ele>
        <time>2017-06-10T13:30:56Z</time>
      </trkpt>
      <trkpt lat="44.72785" lon="5.48364">
        <ele>1803.57</ele>
        <time>2017-06-10T13:30:58Z</time>
      </trkpt>
      <trkpt lat="44.72782" lon="5.48367">
        <ele>1802.61</ele>
        <time>2017-06-10T13:31:02Z</time>
      </trkpt>
      <trkpt lat="44.72779" lon="5.48368">
        <ele>1802.13</ele>
        <time>2017-06-10T13:31:04Z</time>
      </trkpt>
      <trkpt lat="44.72777" lon="5.48368">
        <ele>1801.65</ele>
        <time>2017-06-10T13:31:06Z</time>
      </trkpt>
      <trkpt lat="44.72769" lon="5.48375">
        <ele>1798.76</ele>
        <time>2017-06-10T13:31:16Z</time>
      </trkpt>
      <trkpt lat="44.72767" lon="5.48379">
        <ele>1797.32</ele>
        <time>2017-06-10T13:31:19Z</time>
      </trkpt>
      <trkpt lat="44.72765" lon="5.48381">
        <ele>1796.84</ele>
        <time>2017-06-10T13:31:21Z</time>
      </trkpt>
      <trkpt lat="44.72762" lon="5.48387">
        <ele>1795.4</ele>
        <time>2017-06-10T13:31:26Z</time>
      </trkpt>
      <trkpt lat="44.7276" lon="5.48391">
        <ele>1794.92</ele>
        <time>2017-06-10T13:31:29Z</time>
      </trkpt>
      <trkpt lat="44.72759" lon="5.48399">
        <ele>1793.96</ele>
        <time>2017-06-10T13:31:33Z</time>
      </trkpt>
      <trkpt lat="44.72754" lon="5.48405">
        <ele>1792.03</ele>
        <time>2017-06-10T13:31:40Z</time>
      </trkpt>
      <trkpt lat="44.72752" lon="5.48407">
        <ele>1791.55</ele>
        <time>2017-06-10T13:31:42Z</time>
      </trkpt>
      <trkpt lat="44.72747" lon="5.4842">
        <ele>1789.15</ele>
        <time>2017-06-10T13:31:50Z</time>
      </trkpt>
      <trkpt lat="44.72744" lon="5.48425">
        <ele>1788.19</ele>
        <time>2017-06-10T13:31:54Z</time>
      </trkpt>
      <trkpt lat="44.72742" lon="5.4843">
        <ele>1787.71</ele>
        <time>2017-06-10T13:31:57Z</time>
      </trkpt>
      <trkpt lat="44.72737" lon="5.48444">
        <ele>1785.31</ele>
        <time>2017-06-10T13:32:06Z</time>
      </trkpt>
      <trkpt lat="44.7273" lon="5.48454">
        <ele>1782.9</ele>
        <time>2017-06-10T13:32:16Z</time>
      </trkpt>
      <trkpt lat="44.72723" lon="5.48474">
        <ele>1780.5</ele>
        <time>2017-06-10T13:32:26Z</time>
      </trkpt>
      <trkpt lat="44.72719" lon="5.48481">
        <ele>1779.06</ele>
        <time>2017-06-10T13:32:32Z</time>
      </trkpt>
      <trkpt lat="44.7271" lon="5.48494">
        <ele>1777.61</ele>
        <time>2017-06-10T13:32:43Z</time>
      </trkpt>
      <trkpt lat="44.7271" lon="5.48494">
        <ele>1777.13</ele>
        <time>2017-06-10T13:32:49Z</time>
      </trkpt>
      <trkpt lat="44.72704" lon="5.48511">
        <ele>1775.69</ele>
        <time>2017-06-10T13:32:59Z</time>
      </trkpt>
      <trkpt lat="44.727" lon="5.4854">
        <ele>1775.21</ele>
        <time>2017-06-10T13:33:12Z</time>
      </trkpt>
      <trkpt lat="44.727" lon="5.48551">
        <ele>1774.25</ele>
        <time>2017-06-10T13:33:19Z</time>
      </trkpt>
      <trkpt lat="44.72701" lon="5.48561">
        <ele>1773.77</ele>
        <time>2017-06-10T13:33:23Z</time>
      </trkpt>
      <trkpt lat="44.72703" lon="5.48585">
        <ele>1772.81</ele>
        <time>2017-06-10T13:33:35Z</time>
      </trkpt>
      <trkpt lat="44.72702" lon="5.48589">
        <ele>1772.33</ele>
        <time>2017-06-10T13:33:37Z</time>
      </trkpt>
      <trkpt lat="44.72702" lon="5.48602">
        <ele>1772.33</ele>
        <time>2017-06-10T13:33:42Z</time>
      </trkpt>
      <trkpt lat="44.72704" lon="5.48629">
        <ele>1772.33</ele>
        <time>2017-06-10T13:33:54Z</time>
      </trkpt>
      <trkpt lat="44.72704" lon="5.48634">
        <ele>1771.85</ele>
        <time>2017-06-10T13:33:59Z</time>
      </trkpt>
      <trkpt lat="44.72703" lon="5.48644">
        <ele>1771.37</ele>
        <time>2017-06-10T13:34:04Z</time>
      </trkpt>
      <trkpt lat="44.72702" lon="5.48647">
        <ele>1771.37</ele>
        <time>2017-06-10T13:34:14Z</time>
      </trkpt>
      <trkpt lat="44.72697" lon="5.48654">
        <ele>1772.33</ele>
        <time>2017-06-10T13:34:20Z</time>
      </trkpt>
      <trkpt lat="44.72694" lon="5.48658">
        <ele>1771.85</ele>
        <time>2017-06-10T13:34:31Z</time>
      </trkpt>
      <trkpt lat="44.72694" lon="5.48659">
        <ele>1771.85</ele>
        <time>2017-06-10T13:34:51Z</time>
      </trkpt>
      <trkpt lat="44.72694" lon="5.4866">
        <ele>1771.85</ele>
        <time>2017-06-10T13:34:55Z</time>
      </trkpt>
      <trkpt lat="44.72693" lon="5.48666">
        <ele>1771.37</ele>
        <time>2017-06-10T13:34:59Z</time>
      </trkpt>
      <trkpt lat="44.72697" lon="5.48694">
        <ele>1770.89</ele>
        <time>2017-06-10T13:35:12Z</time>
      </trkpt>
      <trkpt lat="44.72698" lon="5.48699">
        <ele>1770.89</ele>
        <time>2017-06-10T13:35:16Z</time>
      </trkpt>
      <trkpt lat="44.72699" lon="5.48725">
        <ele>1769.92</ele>
        <time>2017-06-10T13:35:28Z</time>
      </trkpt>
      <trkpt lat="44.727" lon="5.48741">
        <ele>1769.92</ele>
        <time>2017-06-10T13:35:36Z</time>
      </trkpt>
      <trkpt lat="44.72701" lon="5.48748">
        <ele>1769.92</ele>
        <time>2017-06-10T13:35:39Z</time>
      </trkpt>
      <trkpt lat="44.72704" lon="5.48762">
        <ele>1769.92</ele>
        <time>2017-06-10T13:35:45Z</time>
      </trkpt>
      <trkpt lat="44.72705" lon="5.48769">
        <ele>1769.44</ele>
        <time>2017-06-10T13:35:50Z</time>
      </trkpt>
      <trkpt lat="44.72705" lon="5.48772">
        <ele>1769.92</ele>
        <time>2017-06-10T13:35:52Z</time>
      </trkpt>
      <trkpt lat="44.72712" lon="5.48787">
        <ele>1769.92</ele>
        <time>2017-06-10T13:35:58Z</time>
      </trkpt>
      <trkpt lat="44.72713" lon="5.48793">
        <ele>1769.44</ele>
        <time>2017-06-10T13:36:02Z</time>
      </trkpt>
      <trkpt lat="44.72715" lon="5.488">
        <ele>1768.96</ele>
        <time>2017-06-10T13:36:06Z</time>
      </trkpt>
      <trkpt lat="44.72718" lon="5.48807">
        <ele>1768.96</ele>
        <time>2017-06-10T13:36:09Z</time>
      </trkpt>
      <trkpt lat="44.72721" lon="5.4882">
        <ele>1768.48</ele>
        <time>2017-06-10T13:36:17Z</time>
      </trkpt>
      <trkpt lat="44.72726" lon="5.48841">
        <ele>1770.41</ele>
        <time>2017-06-10T13:36:28Z</time>
      </trkpt>
      <trkpt lat="44.72731" lon="5.48854">
        <ele>1770.89</ele>
        <time>2017-06-10T13:36:35Z</time>
      </trkpt>
      <trkpt lat="44.72733" lon="5.48864">
        <ele>1771.37</ele>
        <time>2017-06-10T13:36:41Z</time>
      </trkpt>
      <trkpt lat="44.72734" lon="5.48872">
        <ele>1771.37</ele>
        <time>2017-06-10T13:36:45Z</time>
      </trkpt>
      <trkpt lat="44.72739" lon="5.48891">
        <ele>1771.85</ele>
        <time>2017-06-10T13:36:55Z</time>
      </trkpt>
      <trkpt lat="44.72742" lon="5.48898">
        <ele>1771.85</ele>
        <time>2017-06-10T13:37:00Z</time>
      </trkpt>
      <trkpt lat="44.72749" lon="5.48918">
        <ele>1771.37</ele>
        <time>2017-06-10T13:37:11Z</time>
      </trkpt>
      <trkpt lat="44.72755" lon="5.48933">
        <ele>1770.89</ele>
        <time>2017-06-10T13:37:21Z</time>
      </trkpt>
      <trkpt lat="44.72759" lon="5.48954">
        <ele>1770.89</ele>
        <time>2017-06-10T13:37:32Z</time>
      </trkpt>
      <trkpt lat="44.7276" lon="5.48968">
        <ele>1770.89</ele>
        <time>2017-06-10T13:37:39Z</time>
      </trkpt>
      <trkpt lat="44.72757" lon="5.48984">
        <ele>1770.89</ele>
        <time>2017-06-10T13:37:48Z</time>
      </trkpt>
      <trkpt lat="44.72757" lon="5.48998">
        <ele>1771.85</ele>
        <time>2017-06-10T13:37:55Z</time>
      </trkpt>
      <trkpt lat="44.7276" lon="5.49007">
        <ele>1773.29</ele>
        <time>2017-06-10T13:38:03Z</time>
      </trkpt>
      <trkpt lat="44.72765" lon="5.49016">
        <ele>1773.77</ele>
        <time>2017-06-10T13:38:13Z</time>
      </trkpt>
      <trkpt lat="44.72767" lon="5.49017">
        <ele>1769.92</ele>
        <time>2017-06-10T13:38:18Z</time>
      </trkpt>
      <trkpt lat="44.72767" lon="5.49016">
        <ele>1773.29</ele>
        <time>2017-06-10T13:38:19Z</time>
      </trkpt>
      <trkpt lat="44.7274" lon="5.49007">
        <ele>1771.37</ele>
        <time>2017-06-10T13:59:09Z</time>
      </trkpt>
      <trkpt lat="44.72729" lon="5.49006">
        <ele>1769.92</ele>
        <time>2017-06-10T13:59:18Z</time>
      </trkpt>
      <trkpt lat="44.72727" lon="5.49005">
        <ele>1769.44</ele>
        <time>2017-06-10T13:59:20Z</time>
      </trkpt>
      <trkpt lat="44.72717" lon="5.49">
        <ele>1769.44</ele>
        <time>2017-06-10T13:59:31Z</time>
      </trkpt>
      <trkpt lat="44.72704" lon="5.48989">
        <ele>1768.48</ele>
        <time>2017-06-10T13:59:42Z</time>
      </trkpt>
      <trkpt lat="44.72703" lon="5.48988">
        <ele>1768.96</ele>
        <time>2017-06-10T13:59:44Z</time>
      </trkpt>
      <trkpt lat="44.72694" lon="5.48987">
        <ele>1768</ele>
        <time>2017-06-10T13:59:56Z</time>
      </trkpt>
      <trkpt lat="44.72692" lon="5.48986">
        <ele>1768</ele>
        <time>2017-06-10T13:59:58Z</time>
      </trkpt>
      <trkpt lat="44.72689" lon="5.48986">
        <ele>1768</ele>
        <time>2017-06-10T14:00:00Z</time>
      </trkpt>
      <trkpt lat="44.7268" lon="5.48986">
        <ele>1766.56</ele>
        <time>2017-06-10T14:00:08Z</time>
      </trkpt>
      <trkpt lat="44.72674" lon="5.48984">
        <ele>1766.08</ele>
        <time>2017-06-10T14:00:13Z</time>
      </trkpt>
      <trkpt lat="44.72664" lon="5.48983">
        <ele>1766.56</ele>
        <time>2017-06-10T14:00:20Z</time>
      </trkpt>
      <trkpt lat="44.72656" lon="5.48982">
        <ele>1766.56</ele>
        <time>2017-06-10T14:00:25Z</time>
      </trkpt>
      <trkpt lat="44.7265" lon="5.48982">
        <ele>1767.04</ele>
        <time>2017-06-10T14:00:30Z</time>
      </trkpt>
      <trkpt lat="44.72641" lon="5.48982">
        <ele>1768</ele>
        <time>2017-06-10T14:00:40Z</time>
      </trkpt>
      <trkpt lat="44.72643" lon="5.48981">
        <ele>1767.52</ele>
        <time>2017-06-10T14:00:47Z</time>
      </trkpt>
      <trkpt lat="44.72646" lon="5.48981">
        <ele>1768</ele>
        <time>2017-06-10T14:00:49Z</time>
      </trkpt>
      <trkpt lat="44.72659" lon="5.48981">
        <ele>1767.52</ele>
        <time>2017-06-10T14:01:00Z</time>
      </trkpt>
      <trkpt lat="44.72659" lon="5.48981">
        <ele>1767.04</ele>
        <time>2017-06-10T14:01:01Z</time>
      </trkpt>
      <trkpt lat="44.72664" lon="5.48983">
        <ele>1766.56</ele>
        <time>2017-06-10T14:01:05Z</time>
      </trkpt>
      <trkpt lat="44.72678" lon="5.48983">
        <ele>1766.56</ele>
        <time>2017-06-10T14:01:16Z</time>
      </trkpt>
      <trkpt lat="44.72678" lon="5.48983">
        <ele>1766.56</ele>
        <time>2017-06-10T14:01:17Z</time>
      </trkpt>
      <trkpt lat="44.72685" lon="5.48984">
        <ele>1767.04</ele>
        <time>2017-06-10T14:01:23Z</time>
      </trkpt>
      <trkpt lat="44.7269" lon="5.48985">
        <ele>1767.52</ele>
        <time>2017-06-10T14:01:28Z</time>
      </trkpt>
      <trkpt lat="44.72697" lon="5.48985">
        <ele>1767.52</ele>
        <time>2017-06-10T14:01:35Z</time>
      </trkpt>
      <trkpt lat="44.72703" lon="5.48988">
        <ele>1767.52</ele>
        <time>2017-06-10T14:01:39Z</time>
      </trkpt>
      <trkpt lat="44.72705" lon="5.48988">
        <ele>1767.52</ele>
        <time>2017-06-10T14:01:42Z</time>
      </trkpt>
      <trkpt lat="44.7271" lon="5.48991">
        <ele>1766.56</ele>
        <time>2017-06-10T14:01:46Z</time>
      </trkpt>
      <trkpt lat="44.72718" lon="5.48999">
        <ele>1765.6</ele>
        <time>2017-06-10T14:01:56Z</time>
      </trkpt>
      <trkpt lat="44.72722" lon="5.48999">
        <ele>1765.6</ele>
        <time>2017-06-10T14:02:00Z</time>
      </trkpt>
      <trkpt lat="44.72724" lon="5.49001">
        <ele>1765.12</ele>
        <time>2017-06-10T14:02:02Z</time>
      </trkpt>
      <trkpt lat="44.72728" lon="5.49003">
        <ele>1764.64</ele>
        <time>2017-06-10T14:02:08Z</time>
      </trkpt>
      <trkpt lat="44.72738" lon="5.49007">
        <ele>1764.16</ele>
        <time>2017-06-10T14:02:15Z</time>
      </trkpt>
      <trkpt lat="44.72743" lon="5.4901">
        <ele>1763.68</ele>
        <time>2017-06-10T14:02:19Z</time>
      </trkpt>
      <trkpt lat="44.72745" lon="5.49011">
        <ele>1764.16</ele>
        <time>2017-06-10T14:02:21Z</time>
      </trkpt>
      <trkpt lat="44.72751" lon="5.49014">
        <ele>1764.16</ele>
        <time>2017-06-10T14:02:26Z</time>
      </trkpt>
      <trkpt lat="44.72759" lon="5.49019">
        <ele>1765.6</ele>
        <time>2017-06-10T14:02:37Z</time>
      </trkpt>
      <trkpt lat="44.72759" lon="5.49019">
        <ele>1765.12</ele>
        <time>2017-06-10T14:03:00Z</time>
      </trkpt>
      <trkpt lat="44.72763" lon="5.49013">
        <ele>1765.12</ele>
        <time>2017-06-10T14:03:19Z</time>
      </trkpt>
      <trkpt lat="44.72759" lon="5.49019">
        <ele>1765.6</ele>
        <time>2017-06-10T14:04:14Z</time>
      </trkpt>
      <trkpt lat="44.7276" lon="5.49021">
        <ele>1766.08</ele>
        <time>2017-06-10T14:04:17Z</time>
      </trkpt>
      <trkpt lat="44.72762" lon="5.49025">
        <ele>1766.08</ele>
        <time>2017-06-10T14:04:20Z</time>
      </trkpt>
      <trkpt lat="44.72766" lon="5.49034">
        <ele>1767.52</ele>
        <time>2017-06-10T14:04:31Z</time>
      </trkpt>
      <trkpt lat="44.72807" lon="5.49075">
        <ele>1779.54</ele>
        <time>2017-06-10T14:10:08Z</time>
      </trkpt>
      <trkpt lat="44.72806" lon="5.49078">
        <ele>1779.54</ele>
        <time>2017-06-10T14:10:09Z</time>
      </trkpt>
    </trkseg>
  </trk>
</gpx>